PWSweather.com
Personal Weather Stations
Station Observations
283002842
28300 Mainvilliers, France, MainvilliersFR 28300

28300 Mainvilliers, FranceMainvilliersFR 28300

Lat: 48.4504566, Lon: 1.4527078

Elevation: 156

Station Type: Station météorologique PCE-FWS20

http://meteo28300.fr

High Low Average
Temperature 57.6°F14.2°C 45.3°F7.4°C 50.3°F10.2°C
Dew Point 44.6°F7.0°C 38.1°F3.4°C 41.3°F5.2°C
Winds 21.3 mph 34.3 kmh 4.5 mph 7.2 kmh 11.0 mph SSE17.7 kmh SSE
Wind Gusts 35.8 mph57.6 kmh 11.4 mph18.3 kmh 20.0 mph32.2 kmh
Humidity 84% 50% 72%
Pressure 29.22 in989.5 mb 28.83 in976.3 mb -
Precipitation 0.97 in24.6 mm - -
Hour Temp Dew Point Humidity Winds Wind Gusts Pressure Precip Precip Rate Daily Precip Total
12:00 AM 52.2°F11.2°C 40.3°F4.6°C 64% 7.6 mph ESE12.2 kmh ESE 14.5 mph23.3 kmh 28.88 in978.0 mb 0.00 in0.0 mm 0.00 in0.0 mm 0.00 in0.0 mm
12:01 AM 52.2°F11.2°C 40.3°F4.6°C 64% 7.6 mph ESE12.2 kmh ESE 14.5 mph23.3 kmh 28.88 in978.0 mb 0.00 in0.0 mm 0.00 in0.0 mm 0.00 in0.0 mm
12:02 AM 52.2°F11.2°C 40.3°F4.6°C 64% 7.6 mph ESE12.2 kmh ESE 14.5 mph23.3 kmh 28.88 in978.0 mb 0.00 in0.0 mm 0.00 in0.0 mm 0.00 in0.0 mm
12:03 AM 52.2°F11.2°C 40.3°F4.6°C 64% 7.6 mph ESE12.2 kmh ESE 14.5 mph23.3 kmh 28.88 in978.0 mb 0.00 in0.0 mm 0.00 in0.0 mm 0.00 in0.0 mm
12:04 AM 52.2°F11.2°C 40.3°F4.6°C 64% 7.6 mph SE12.2 kmh SE 14.5 mph23.3 kmh 28.88 in978.0 mb 0.00 in0.0 mm 0.00 in0.0 mm 0.00 in0.0 mm
12:05 AM 52.2°F11.2°C 40.3°F4.6°C 64% 7.6 mph SE12.2 kmh SE 14.5 mph23.3 kmh 28.88 in978.0 mb 0.00 in0.0 mm 0.00 in0.0 mm 0.00 in0.0 mm
12:06 AM 52.2°F11.2°C 40.3°F4.6°C 64% 7.6 mph SE12.2 kmh SE 14.5 mph23.3 kmh 28.88 in978.0 mb 0.00 in0.0 mm 0.00 in0.0 mm 0.00 in0.0 mm
12:07 AM 52.2°F11.2°C 40.3°F4.6°C 64% 6.9 mph SE11.1 kmh SE 14.5 mph23.3 kmh 28.88 in978.0 mb 0.00 in0.0 mm 0.00 in0.0 mm 0.00 in0.0 mm
12:08 AM 52.2°F11.2°C 40.3°F4.6°C 64% 7.6 mph SE12.2 kmh SE 14.5 mph23.3 kmh 28.88 in978.0 mb 0.00 in0.0 mm 0.00 in0.0 mm 0.00 in0.0 mm
12:09 AM 52.3°F11.3°C 40.5°F4.7°C 64% 11.4 mph SE18.3 kmh SE 14.5 mph23.3 kmh 28.88 in978.0 mb 0.00 in0.0 mm 0.00 in0.0 mm 0.00 in0.0 mm
12:10 AM 52.3°F11.3°C 40.5°F4.7°C 64% 11.4 mph SE18.3 kmh SE 15.2 mph24.5 kmh 28.88 in978.0 mb 0.00 in0.0 mm 0.00 in0.0 mm 0.00 in0.0 mm
12:11 AM 52.3°F11.3°C 40.5°F4.7°C 64% 12.1 mph SE19.5 kmh SE 15.2 mph24.5 kmh 28.88 in978.0 mb 0.00 in0.0 mm 0.00 in0.0 mm 0.00 in0.0 mm
12:12 AM 52.3°F11.3°C 40.5°F4.7°C 64% 11.4 mph ESE18.3 kmh ESE 15.2 mph24.5 kmh 28.88 in978.0 mb 0.00 in0.0 mm 0.00 in0.0 mm 0.00 in0.0 mm
12:13 AM 52.3°F11.3°C 40.5°F4.7°C 64% 13.6 mph ESE21.9 kmh ESE 15.2 mph24.5 kmh 28.88 in978.0 mb 0.00 in0.0 mm 0.00 in0.0 mm 0.00 in0.0 mm
12:14 AM 52.3°F11.3°C 40.5°F4.7°C 64% 10.7 mph ESE17.2 kmh ESE 17.4 mph28.0 kmh 28.88 in978.0 mb 0.00 in0.0 mm 0.00 in0.0 mm 0.00 in0.0 mm
12:15 AM 52.3°F11.3°C 40.5°F4.7°C 64% 10.7 mph ESE17.2 kmh ESE 17.4 mph28.0 kmh 28.88 in978.0 mb 0.00 in0.0 mm 0.00 in0.0 mm 0.00 in0.0 mm
12:16 AM 52.3°F11.3°C 40.1°F4.5°C 63% 12.1 mph ESE19.5 kmh ESE 17.4 mph28.0 kmh 28.88 in978.0 mb 0.00 in0.0 mm 0.00 in0.0 mm 0.00 in0.0 mm
12:17 AM 52.3°F11.3°C 40.1°F4.5°C 63% 13.6 mph ESE21.9 kmh ESE 17.4 mph28.0 kmh 28.88 in978.0 mb 0.00 in0.0 mm 0.00 in0.0 mm 0.00 in0.0 mm
12:18 AM 52.3°F11.3°C 40.1°F4.5°C 63% 13.0 mph ESE20.9 kmh ESE 17.4 mph28.0 kmh 28.88 in978.0 mb 0.00 in0.0 mm 0.00 in0.0 mm 0.00 in0.0 mm
12:19 AM 52.3°F11.3°C 40.1°F4.5°C 63% 13.0 mph SE20.9 kmh SE 17.4 mph28.0 kmh 28.88 in978.0 mb 0.00 in0.0 mm 0.00 in0.0 mm 0.00 in0.0 mm
12:20 AM 52.5°F11.4°C 40.3°F4.6°C 63% 12.1 mph SE19.5 kmh SE 17.4 mph28.0 kmh 28.88 in978.0 mb 0.00 in0.0 mm 0.00 in0.0 mm 0.00 in0.0 mm
12:21 AM 52.5°F11.4°C 40.3°F4.6°C 63% 13.6 mph SE21.9 kmh SE 18.3 mph29.5 kmh 28.88 in978.0 mb 0.00 in0.0 mm 0.00 in0.0 mm 0.00 in0.0 mm
12:22 AM 52.5°F11.4°C 40.3°F4.6°C 63% 14.5 mph SE23.3 kmh SE 22.1 mph35.6 kmh 28.88 in978.0 mb 0.00 in0.0 mm 0.00 in0.0 mm 0.00 in0.0 mm
12:23 AM 52.5°F11.4°C 40.3°F4.6°C 63% 14.5 mph SE23.3 kmh SE 22.1 mph35.6 kmh 28.88 in978.0 mb 0.00 in0.0 mm 0.00 in0.0 mm 0.00 in0.0 mm
12:24 AM 52.5°F11.4°C 39.9°F4.4°C 62% 15.9 mph SE25.6 kmh SE 22.1 mph35.6 kmh 28.88 in978.0 mb 0.00 in0.0 mm 0.00 in0.0 mm 0.00 in0.0 mm
12:25 AM 52.7°F11.5°C 40.0°F4.4°C 62% 14.5 mph SE23.3 kmh SE 22.1 mph35.6 kmh 28.88 in978.0 mb 0.00 in0.0 mm 0.00 in0.0 mm 0.00 in0.0 mm
12:26 AM 52.7°F11.5°C 40.0°F4.4°C 62% 14.5 mph SE23.3 kmh SE 22.1 mph35.6 kmh 28.87 in977.7 mb 0.00 in0.0 mm 0.00 in0.0 mm 0.00 in0.0 mm
12:27 AM 52.5°F11.4°C 39.9°F4.4°C 62% 12.1 mph SE19.5 kmh SE 22.1 mph35.6 kmh 28.88 in978.0 mb 0.00 in0.0 mm 0.00 in0.0 mm 0.00 in0.0 mm
12:28 AM 52.5°F11.4°C 39.9°F4.4°C 62% 13.0 mph SE20.9 kmh SE 22.1 mph35.6 kmh 28.88 in978.0 mb 0.00 in0.0 mm 0.00 in0.0 mm 0.00 in0.0 mm
12:29 AM 52.5°F11.4°C 39.9°F4.4°C 62% 16.8 mph SE27.0 kmh SE 22.1 mph35.6 kmh 28.87 in977.7 mb 0.00 in0.0 mm 0.00 in0.0 mm 0.00 in0.0 mm
12:30 AM 52.5°F11.4°C 39.9°F4.4°C 62% 16.8 mph SE27.0 kmh SE 22.1 mph35.6 kmh 28.88 in978.0 mb 0.00 in0.0 mm 0.00 in0.0 mm 0.00 in0.0 mm
12:31 AM 52.5°F11.4°C 39.9°F4.4°C 62% 15.2 mph SE24.5 kmh SE 22.1 mph35.6 kmh 28.88 in978.0 mb 0.00 in0.0 mm 0.00 in0.0 mm 0.00 in0.0 mm
12:32 AM 52.5°F11.4°C 39.9°F4.4°C 62% 12.1 mph SE19.5 kmh SE 22.1 mph35.6 kmh 28.87 in977.7 mb 0.00 in0.0 mm 0.00 in0.0 mm 0.00 in0.0 mm
12:33 AM 52.5°F11.4°C 39.9°F4.4°C 62% 19.0 mph SE30.6 kmh SE 24.4 mph39.3 kmh 28.87 in977.7 mb 0.00 in0.0 mm 0.00 in0.0 mm 0.00 in0.0 mm
12:34 AM 52.5°F11.4°C 39.9°F4.4°C 62% 16.8 mph SE27.0 kmh SE 24.4 mph39.3 kmh 28.88 in978.0 mb 0.00 in0.0 mm 0.00 in0.0 mm 0.00 in0.0 mm
12:35 AM 52.5°F11.4°C 39.9°F4.4°C 62% 14.5 mph SE23.3 kmh SE 24.4 mph39.3 kmh 28.87 in977.7 mb 0.00 in0.0 mm 0.00 in0.0 mm 0.00 in0.0 mm
12:36 AM 52.5°F11.4°C 39.9°F4.4°C 62% 12.1 mph SE19.5 kmh SE 24.4 mph39.3 kmh 28.87 in977.7 mb 0.00 in0.0 mm 0.00 in0.0 mm 0.00 in0.0 mm
12:37 AM 52.5°F11.4°C 39.9°F4.4°C 62% 13.6 mph SE21.9 kmh SE 24.4 mph39.3 kmh 28.87 in977.7 mb 0.00 in0.0 mm 0.00 in0.0 mm 0.00 in0.0 mm
12:38 AM 52.5°F11.4°C 39.9°F4.4°C 62% 16.8 mph SE27.0 kmh SE 24.4 mph39.3 kmh 28.87 in977.7 mb 0.00 in0.0 mm 0.00 in0.0 mm 0.00 in0.0 mm
12:39 AM 52.5°F11.4°C 39.9°F4.4°C 62% 15.9 mph SE25.6 kmh SE 24.4 mph39.3 kmh 28.87 in977.7 mb 0.00 in0.0 mm 0.00 in0.0 mm 0.00 in0.0 mm
12:40 AM 52.5°F11.4°C 39.9°F4.4°C 62% 14.5 mph ESE23.3 kmh ESE 24.4 mph39.3 kmh 28.87 in977.7 mb 0.00 in0.0 mm 0.00 in0.0 mm 0.00 in0.0 mm
12:41 AM 52.5°F11.4°C 39.9°F4.4°C 62% 8.3 mph SE13.4 kmh SE 24.4 mph39.3 kmh 28.88 in978.0 mb 0.00 in0.0 mm 0.00 in0.0 mm 0.00 in0.0 mm
12:42 AM 52.5°F11.4°C 39.9°F4.4°C 62% 11.4 mph SE18.3 kmh SE 24.4 mph39.3 kmh 28.87 in977.7 mb 0.00 in0.0 mm 0.00 in0.0 mm 0.00 in0.0 mm
12:43 AM 52.3°F11.3°C 39.7°F4.3°C 62% 16.8 mph SE27.0 kmh SE 24.4 mph39.3 kmh 28.87 in977.7 mb 0.00 in0.0 mm 0.00 in0.0 mm 0.00 in0.0 mm
12:44 AM 52.3°F11.3°C 39.7°F4.3°C 62% 14.5 mph SE23.3 kmh SE 22.1 mph35.6 kmh 28.87 in977.7 mb 0.00 in0.0 mm 0.00 in0.0 mm 0.00 in0.0 mm
12:45 AM 52.3°F11.3°C 39.7°F4.3°C 62% 12.1 mph SE19.5 kmh SE 22.1 mph35.6 kmh 28.87 in977.7 mb 0.00 in0.0 mm 0.00 in0.0 mm 0.00 in0.0 mm
12:46 AM 52.3°F11.3°C 39.7°F4.3°C 62% 12.1 mph SE19.5 kmh SE 22.1 mph35.6 kmh 28.87 in977.7 mb 0.00 in0.0 mm 0.00 in0.0 mm 0.00 in0.0 mm
12:47 AM 52.3°F11.3°C 39.7°F4.3°C 62% 15.2 mph SE24.5 kmh SE 25.1 mph40.4 kmh 28.87 in977.7 mb 0.00 in0.0 mm 0.00 in0.0 mm 0.00 in0.0 mm
12:48 AM 52.3°F11.3°C 39.7°F4.3°C 62% 13.6 mph SE21.9 kmh SE 25.1 mph40.4 kmh 28.87 in977.7 mb 0.00 in0.0 mm 0.00 in0.0 mm 0.00 in0.0 mm
12:49 AM 52.3°F11.3°C 39.7°F4.3°C 62% 15.2 mph SE24.5 kmh SE 25.1 mph40.4 kmh 28.87 in977.7 mb 0.00 in0.0 mm 0.00 in0.0 mm 0.00 in0.0 mm
12:50 AM 52.3°F11.3°C 39.7°F4.3°C 62% 14.5 mph SE23.3 kmh SE 25.1 mph40.4 kmh 28.87 in977.7 mb 0.00 in0.0 mm 0.00 in0.0 mm 0.00 in0.0 mm
12:51 AM 52.3°F11.3°C 39.7°F4.3°C 62% 14.5 mph SE23.3 kmh SE 25.1 mph40.4 kmh 28.87 in977.7 mb 0.00 in0.0 mm 0.00 in0.0 mm 0.00 in0.0 mm
12:52 AM 52.3°F11.3°C 39.7°F4.3°C 62% 12.1 mph SE19.5 kmh SE 25.1 mph40.4 kmh 28.87 in977.7 mb 0.00 in0.0 mm 0.00 in0.0 mm 0.00 in0.0 mm
12:53 AM 52.2°F11.2°C 39.5°F4.2°C 62% 14.5 mph SE23.3 kmh SE 25.1 mph40.4 kmh 28.87 in977.7 mb 0.00 in0.0 mm 0.00 in0.0 mm 0.00 in0.0 mm
12:54 AM 52.2°F11.2°C 39.5°F4.2°C 62% 13.0 mph SE20.9 kmh SE 25.1 mph40.4 kmh 28.87 in977.7 mb 0.00 in0.0 mm 0.00 in0.0 mm 0.00 in0.0 mm
12:55 AM 52.2°F11.2°C 39.9°F4.4°C 63% 11.4 mph SE18.3 kmh SE 25.1 mph40.4 kmh 28.87 in977.7 mb 0.00 in0.0 mm 0.00 in0.0 mm 0.00 in0.0 mm
12:56 AM 52.2°F11.2°C 39.9°F4.4°C 63% 16.8 mph SE27.0 kmh SE 25.1 mph40.4 kmh 28.87 in977.7 mb 0.00 in0.0 mm 0.00 in0.0 mm 0.00 in0.0 mm
12:57 AM 52.2°F11.2°C 39.9°F4.4°C 63% 12.1 mph SE19.5 kmh SE 25.1 mph40.4 kmh 28.87 in977.7 mb 0.00 in0.0 mm 0.00 in0.0 mm 0.00 in0.0 mm
12:58 AM 52.2°F11.2°C 39.9°F4.4°C 63% 11.4 mph SE18.3 kmh SE 22.1 mph35.6 kmh 28.86 in977.3 mb 0.00 in0.0 mm 0.00 in0.0 mm 0.00 in0.0 mm
12:59 AM 52.0°F11.1°C 39.8°F4.3°C 63% 7.6 mph SE12.2 kmh SE 20.6 mph33.2 kmh 28.87 in977.7 mb 0.00 in0.0 mm 0.00 in0.0 mm 0.00 in0.0 mm
01:00 AM 52.0°F11.1°C 39.8°F4.3°C 63% 6.9 mph SE11.1 kmh SE 20.6 mph33.2 kmh 28.87 in977.7 mb 0.00 in0.0 mm 0.00 in0.0 mm 0.00 in0.0 mm
01:01 AM 52.0°F11.1°C 39.8°F4.3°C 63% 13.0 mph SE20.9 kmh SE 20.6 mph33.2 kmh 28.87 in977.7 mb 0.00 in0.0 mm 0.00 in0.0 mm 0.00 in0.0 mm
01:02 AM 52.0°F11.1°C 39.8°F4.3°C 63% 10.7 mph SE17.2 kmh SE 20.6 mph33.2 kmh 28.87 in977.7 mb 0.00 in0.0 mm 0.00 in0.0 mm 0.00 in0.0 mm
01:03 AM 52.0°F11.1°C 39.8°F4.3°C 63% 11.4 mph SE18.3 kmh SE 20.6 mph33.2 kmh 28.87 in977.7 mb 0.00 in0.0 mm 0.00 in0.0 mm 0.00 in0.0 mm
01:04 AM 52.0°F11.1°C 39.8°F4.3°C 63% 9.8 mph SE15.8 kmh SE 20.6 mph33.2 kmh 28.86 in977.3 mb 0.00 in0.0 mm 0.00 in0.0 mm 0.00 in0.0 mm
01:05 AM 52.0°F11.1°C 39.8°F4.3°C 63% 10.7 mph SE17.2 kmh SE 20.6 mph33.2 kmh 28.86 in977.3 mb 0.00 in0.0 mm 0.00 in0.0 mm 0.00 in0.0 mm
01:06 AM 52.0°F11.1°C 39.8°F4.3°C 63% 14.5 mph SE23.3 kmh SE 20.6 mph33.2 kmh 28.86 in977.3 mb 0.00 in0.0 mm 0.00 in0.0 mm 0.00 in0.0 mm
01:07 AM 52.0°F11.1°C 39.8°F4.3°C 63% 13.6 mph SE21.9 kmh SE 19.0 mph30.6 kmh 28.87 in977.7 mb 0.00 in0.0 mm 0.00 in0.0 mm 0.00 in0.0 mm
01:08 AM 52.0°F11.1°C 39.8°F4.3°C 63% 16.8 mph SE27.0 kmh SE 25.9 mph41.7 kmh 28.87 in977.7 mb 0.00 in0.0 mm 0.00 in0.0 mm 0.00 in0.0 mm
01:09 AM 52.0°F11.1°C 39.8°F4.3°C 63% 10.7 mph SE17.2 kmh SE 25.9 mph41.7 kmh 28.86 in977.3 mb 0.00 in0.0 mm 0.00 in0.0 mm 0.00 in0.0 mm
01:10 AM 52.0°F11.1°C 39.8°F4.3°C 63% 13.0 mph SE20.9 kmh SE 25.9 mph41.7 kmh 28.86 in977.3 mb 0.00 in0.0 mm 0.00 in0.0 mm 0.00 in0.0 mm
01:11 AM 52.0°F11.1°C 39.8°F4.3°C 63% 12.1 mph SE19.5 kmh SE 25.9 mph41.7 kmh 28.86 in977.3 mb 0.00 in0.0 mm 0.00 in0.0 mm 0.00 in0.0 mm
01:12 AM 52.0°F11.1°C 39.8°F4.3°C 63% 12.1 mph SE19.5 kmh SE 25.9 mph41.7 kmh 28.86 in977.3 mb 0.00 in0.0 mm 0.00 in0.0 mm 0.00 in0.0 mm
01:13 AM 51.8°F11.0°C 39.6°F4.2°C 63% 13.0 mph SE20.9 kmh SE 25.9 mph41.7 kmh 28.86 in977.3 mb 0.00 in0.0 mm 0.00 in0.0 mm 0.00 in0.0 mm
01:14 AM 51.8°F11.0°C 39.6°F4.2°C 63% 11.4 mph SE18.3 kmh SE 25.9 mph41.7 kmh 28.86 in977.3 mb 0.00 in0.0 mm 0.00 in0.0 mm 0.00 in0.0 mm
01:15 AM 51.8°F11.0°C 39.6°F4.2°C 63% 12.1 mph SE19.5 kmh SE 25.9 mph41.7 kmh 28.86 in977.3 mb 0.00 in0.0 mm 0.00 in0.0 mm 0.00 in0.0 mm
01:16 AM 51.8°F11.0°C 39.6°F4.2°C 63% 13.0 mph SE20.9 kmh SE 25.9 mph41.7 kmh 28.86 in977.3 mb 0.00 in0.0 mm 0.00 in0.0 mm 0.00 in0.0 mm
01:17 AM 51.8°F11.0°C 39.6°F4.2°C 63% 14.5 mph SE23.3 kmh SE 25.9 mph41.7 kmh 28.87 in977.7 mb 0.00 in0.0 mm 0.00 in0.0 mm 0.00 in0.0 mm
01:18 AM 51.8°F11.0°C 39.6°F4.2°C 63% 13.6 mph SE21.9 kmh SE 19.0 mph30.6 kmh 28.86 in977.3 mb 0.00 in0.0 mm 0.00 in0.0 mm 0.00 in0.0 mm
01:19 AM 51.8°F11.0°C 39.6°F4.2°C 63% 13.6 mph SE21.9 kmh SE 19.0 mph30.6 kmh 28.86 in977.3 mb 0.00 in0.0 mm 0.00 in0.0 mm 0.00 in0.0 mm
01:20 AM 51.8°F11.0°C 39.6°F4.2°C 63% 15.2 mph SE24.5 kmh SE 19.0 mph30.6 kmh 28.87 in977.7 mb 0.00 in0.0 mm 0.00 in0.0 mm 0.00 in0.0 mm
01:21 AM 51.8°F11.0°C 39.6°F4.2°C 63% 12.1 mph SE19.5 kmh SE 19.7 mph31.7 kmh 28.86 in977.3 mb 0.00 in0.0 mm 0.00 in0.0 mm 0.00 in0.0 mm
01:22 AM 51.8°F11.0°C 39.6°F4.2°C 63% 16.8 mph SE27.0 kmh SE 23.5 mph37.8 kmh 28.86 in977.3 mb 0.00 in0.0 mm 0.00 in0.0 mm 0.00 in0.0 mm
01:23 AM 51.8°F11.0°C 39.6°F4.2°C 63% 16.8 mph SE27.0 kmh SE 23.5 mph37.8 kmh 28.87 in977.7 mb 0.00 in0.0 mm 0.00 in0.0 mm 0.00 in0.0 mm
01:24 AM 51.8°F11.0°C 39.6°F4.2°C 63% 11.4 mph SE18.3 kmh SE 23.5 mph37.8 kmh 28.86 in977.3 mb 0.00 in0.0 mm 0.00 in0.0 mm 0.00 in0.0 mm
01:25 AM 51.8°F11.0°C 39.6°F4.2°C 63% 13.0 mph SE20.9 kmh SE 23.5 mph37.8 kmh 28.86 in977.3 mb 0.00 in0.0 mm 0.00 in0.0 mm 0.00 in0.0 mm
01:26 AM 51.8°F11.0°C 39.6°F4.2°C 63% 14.5 mph SE23.3 kmh SE 23.5 mph37.8 kmh 28.87 in977.7 mb 0.00 in0.0 mm 0.00 in0.0 mm 0.00 in0.0 mm
01:27 AM 51.8°F11.0°C 39.6°F4.2°C 63% 9.2 mph SE14.8 kmh SE 23.5 mph37.8 kmh 28.86 in977.3 mb 0.00 in0.0 mm 0.00 in0.0 mm 0.00 in0.0 mm
01:28 AM 51.8°F11.0°C 39.6°F4.2°C 63% 9.8 mph SE15.8 kmh SE 23.5 mph37.8 kmh 28.87 in977.7 mb 0.00 in0.0 mm 0.00 in0.0 mm 0.00 in0.0 mm
01:29 AM 51.6°F10.9°C 39.4°F4.1°C 63% 13.0 mph SE20.9 kmh SE 23.5 mph37.8 kmh 28.87 in977.7 mb 0.00 in0.0 mm 0.00 in0.0 mm 0.00 in0.0 mm
01:30 AM 51.6°F10.9°C 39.4°F4.1°C 63% 13.6 mph SE21.9 kmh SE 23.5 mph37.8 kmh 28.86 in977.3 mb 0.00 in0.0 mm 0.00 in0.0 mm 0.00 in0.0 mm
01:31 AM 51.6°F10.9°C 39.4°F4.1°C 63% 13.6 mph SE21.9 kmh SE 23.5 mph37.8 kmh 28.87 in977.7 mb 0.00 in0.0 mm 0.00 in0.0 mm 0.00 in0.0 mm
01:32 AM 51.6°F10.9°C 39.4°F4.1°C 63% 10.7 mph SE17.2 kmh SE 23.5 mph37.8 kmh 28.87 in977.7 mb 0.00 in0.0 mm 0.00 in0.0 mm 0.00 in0.0 mm
01:33 AM 51.6°F10.9°C 39.4°F4.1°C 63% 11.4 mph SE18.3 kmh SE 23.5 mph37.8 kmh 28.87 in977.7 mb 0.00 in0.0 mm 0.00 in0.0 mm 0.00 in0.0 mm
01:34 AM 51.6°F10.9°C 39.4°F4.1°C 63% 18.3 mph SE29.5 kmh SE 22.8 mph36.7 kmh 28.87 in977.7 mb 0.00 in0.0 mm 0.00 in0.0 mm 0.00 in0.0 mm
01:35 AM 51.6°F10.9°C 39.4°F4.1°C 63% 13.6 mph SSE21.9 kmh SSE 22.8 mph36.7 kmh 28.87 in977.7 mb 0.00 in0.0 mm 0.00 in0.0 mm 0.00 in0.0 mm
01:36 AM 51.6°F10.9°C 39.4°F4.1°C 63% 13.0 mph SSE20.9 kmh SSE 22.8 mph36.7 kmh 28.87 in977.7 mb 0.00 in0.0 mm 0.00 in0.0 mm 0.00 in0.0 mm
01:37 AM 51.6°F10.9°C 39.4°F4.1°C 63% 12.1 mph SSE19.5 kmh SSE 22.8 mph36.7 kmh 28.87 in977.7 mb 0.00 in0.0 mm 0.00 in0.0 mm 0.00 in0.0 mm
01:38 AM 51.6°F10.9°C 39.4°F4.1°C 63% 11.4 mph SE18.3 kmh SE 22.8 mph36.7 kmh 28.87 in977.7 mb 0.00 in0.0 mm 0.00 in0.0 mm 0.00 in0.0 mm
01:39 AM 51.6°F10.9°C 39.8°F4.3°C 64% 12.1 mph SE19.5 kmh SE 22.8 mph36.7 kmh 28.87 in977.7 mb 0.00 in0.0 mm 0.00 in0.0 mm 0.00 in0.0 mm
01:40 AM 51.6°F10.9°C 39.8°F4.3°C 64% 14.5 mph SE23.3 kmh SE 22.8 mph36.7 kmh 28.87 in977.7 mb 0.00 in0.0 mm 0.00 in0.0 mm 0.00 in0.0 mm
01:41 AM 51.6°F10.9°C 39.8°F4.3°C 64% 10.7 mph SE17.2 kmh SE 22.8 mph36.7 kmh 28.87 in977.7 mb 0.00 in0.0 mm 0.00 in0.0 mm 0.00 in0.0 mm
01:42 AM 51.6°F10.9°C 39.8°F4.3°C 64% 15.2 mph SE24.5 kmh SE 22.8 mph36.7 kmh 28.87 in977.7 mb 0.00 in0.0 mm 0.00 in0.0 mm 0.00 in0.0 mm
01:43 AM 51.6°F10.9°C 39.8°F4.3°C 64% 11.4 mph SE18.3 kmh SE 22.8 mph36.7 kmh 28.87 in977.7 mb 0.00 in0.0 mm 0.00 in0.0 mm 0.00 in0.0 mm
01:44 AM 51.6°F10.9°C 39.8°F4.3°C 64% 12.1 mph SE19.5 kmh SE 22.8 mph36.7 kmh 28.87 in977.7 mb 0.00 in0.0 mm 0.00 in0.0 mm 0.00 in0.0 mm
01:45 AM 51.4°F10.8°C 39.7°F4.3°C 64% 12.1 mph SE19.5 kmh SE 19.0 mph30.6 kmh 28.86 in977.3 mb 0.00 in0.0 mm 0.00 in0.0 mm 0.00 in0.0 mm
01:46 AM 51.4°F10.8°C 39.7°F4.3°C 64% 16.8 mph SE27.0 kmh SE 21.3 mph34.3 kmh 28.87 in977.7 mb 0.00 in0.0 mm 0.00 in0.0 mm 0.00 in0.0 mm
01:47 AM 51.4°F10.8°C 39.7°F4.3°C 64% 10.7 mph SE17.2 kmh SE 21.3 mph34.3 kmh 28.86 in977.3 mb 0.00 in0.0 mm 0.00 in0.0 mm 0.00 in0.0 mm
01:48 AM 51.4°F10.8°C 39.7°F4.3°C 64% 10.7 mph SE17.2 kmh SE 21.3 mph34.3 kmh 28.87 in977.7 mb 0.00 in0.0 mm 0.00 in0.0 mm 0.00 in0.0 mm
01:49 AM 51.4°F10.8°C 39.7°F4.3°C 64% 14.5 mph SE23.3 kmh SE 21.3 mph34.3 kmh 28.87 in977.7 mb 0.00 in0.0 mm 0.00 in0.0 mm 0.00 in0.0 mm
01:50 AM 51.4°F10.8°C 39.7°F4.3°C 64% 10.7 mph SE17.2 kmh SE 21.3 mph34.3 kmh 28.87 in977.7 mb 0.00 in0.0 mm 0.00 in0.0 mm 0.00 in0.0 mm
01:51 AM 51.4°F10.8°C 39.7°F4.3°C 64% 13.6 mph SSE21.9 kmh SSE 21.3 mph34.3 kmh 28.87 in977.7 mb 0.00 in0.0 mm 0.00 in0.0 mm 0.00 in0.0 mm
01:52 AM 51.4°F10.8°C 39.7°F4.3°C 64% 13.6 mph SE21.9 kmh SE 21.3 mph34.3 kmh 28.86 in977.3 mb 0.00 in0.0 mm 0.00 in0.0 mm 0.00 in0.0 mm
01:53 AM 51.4°F10.8°C 39.7°F4.3°C 64% 13.0 mph SE20.9 kmh SE 21.3 mph34.3 kmh 28.86 in977.3 mb 0.00 in0.0 mm 0.00 in0.0 mm 0.00 in0.0 mm
01:54 AM 51.4°F10.8°C 39.7°F4.3°C 64% 9.8 mph SE15.8 kmh SE 21.3 mph34.3 kmh 28.87 in977.7 mb 0.00 in0.0 mm 0.00 in0.0 mm 0.00 in0.0 mm
01:55 AM 51.4°F10.8°C 39.7°F4.3°C 64% 9.8 mph SE15.8 kmh SE 21.3 mph34.3 kmh 28.86 in977.3 mb 0.00 in0.0 mm 0.00 in0.0 mm 0.00 in0.0 mm
01:56 AM 51.4°F10.8°C 39.7°F4.3°C 64% 13.0 mph SE20.9 kmh SE 21.3 mph34.3 kmh 28.86 in977.3 mb 0.00 in0.0 mm 0.00 in0.0 mm 0.00 in0.0 mm
01:57 AM 51.4°F10.8°C 39.7°F4.3°C 64% 12.1 mph SE19.5 kmh SE 18.3 mph29.5 kmh 28.86 in977.3 mb 0.00 in0.0 mm 0.00 in0.0 mm 0.00 in0.0 mm
01:58 AM 51.4°F10.8°C 39.7°F4.3°C 64% 12.1 mph SE19.5 kmh SE 18.3 mph29.5 kmh 28.86 in977.3 mb 0.00 in0.0 mm 0.00 in0.0 mm 0.00 in0.0 mm
01:59 AM 51.4°F10.8°C 39.7°F4.3°C 64% 8.3 mph SE13.4 kmh SE 18.3 mph29.5 kmh 28.86 in977.3 mb 0.00 in0.0 mm 0.00 in0.0 mm 0.00 in0.0 mm
02:00 AM 51.4°F10.8°C 39.7°F4.3°C 64% 7.6 mph SE12.2 kmh SE 18.3 mph29.5 kmh 28.86 in977.3 mb 0.00 in0.0 mm 0.00 in0.0 mm 0.00 in0.0 mm
02:01 AM 51.4°F10.8°C 39.7°F4.3°C 64% 10.7 mph SE17.2 kmh SE 18.3 mph29.5 kmh 28.86 in977.3 mb 0.00 in0.0 mm 0.00 in0.0 mm 0.00 in0.0 mm
02:02 AM 51.4°F10.8°C 39.7°F4.3°C 64% 10.7 mph SE17.2 kmh SE 18.3 mph29.5 kmh 28.86 in977.3 mb 0.00 in0.0 mm 0.00 in0.0 mm 0.00 in0.0 mm
02:03 AM 51.4°F10.8°C 39.7°F4.3°C 64% 10.7 mph SE17.2 kmh SE 18.3 mph29.5 kmh 28.86 in977.3 mb 0.00 in0.0 mm 0.00 in0.0 mm 0.00 in0.0 mm
02:04 AM 51.4°F10.8°C 39.7°F4.3°C 64% 10.7 mph SE17.2 kmh SE 15.9 mph25.6 kmh 28.86 in977.3 mb 0.00 in0.0 mm 0.00 in0.0 mm 0.00 in0.0 mm
02:05 AM 51.4°F10.8°C 39.7°F4.3°C 64% 10.7 mph SE17.2 kmh SE 15.9 mph25.6 kmh 28.86 in977.3 mb 0.00 in0.0 mm 0.00 in0.0 mm 0.00 in0.0 mm
02:06 AM 51.4°F10.8°C 39.7°F4.3°C 64% 13.6 mph SE21.9 kmh SE 19.7 mph31.7 kmh 28.86 in977.3 mb 0.00 in0.0 mm 0.00 in0.0 mm 0.00 in0.0 mm
02:07 AM 51.4°F10.8°C 39.7°F4.3°C 64% 13.6 mph SE21.9 kmh SE 19.7 mph31.7 kmh 28.86 in977.3 mb 0.00 in0.0 mm 0.00 in0.0 mm 0.00 in0.0 mm
02:08 AM 51.4°F10.8°C 39.7°F4.3°C 64% 14.5 mph SE23.3 kmh SE 19.7 mph31.7 kmh 28.86 in977.3 mb 0.00 in0.0 mm 0.00 in0.0 mm 0.00 in0.0 mm
02:09 AM 51.4°F10.8°C 39.7°F4.3°C 64% 15.9 mph SE25.6 kmh SE 22.8 mph36.7 kmh 28.86 in977.3 mb 0.00 in0.0 mm 0.00 in0.0 mm 0.00 in0.0 mm
02:10 AM 51.4°F10.8°C 39.7°F4.3°C 64% 13.0 mph SE20.9 kmh SE 22.8 mph36.7 kmh 28.86 in977.3 mb 0.00 in0.0 mm 0.00 in0.0 mm 0.00 in0.0 mm
02:11 AM 51.4°F10.8°C 39.7°F4.3°C 64% 12.1 mph SE19.5 kmh SE 22.8 mph36.7 kmh 28.86 in977.3 mb 0.00 in0.0 mm 0.00 in0.0 mm 0.00 in0.0 mm
02:12 AM 51.4°F10.8°C 39.7°F4.3°C 64% 14.5 mph SE23.3 kmh SE 22.8 mph36.7 kmh 28.86 in977.3 mb 0.00 in0.0 mm 0.00 in0.0 mm 0.00 in0.0 mm
02:13 AM 51.4°F10.8°C 39.7°F4.3°C 64% 8.3 mph SE13.4 kmh SE 22.8 mph36.7 kmh 28.86 in977.3 mb 0.00 in0.0 mm 0.00 in0.0 mm 0.00 in0.0 mm
02:14 AM 51.4°F10.8°C 39.7°F4.3°C 64% 13.0 mph SE20.9 kmh SE 22.8 mph36.7 kmh 28.85 in977.0 mb 0.00 in0.0 mm 0.00 in0.0 mm 0.00 in0.0 mm
02:15 AM 51.4°F10.8°C 39.7°F4.3°C 64% 13.0 mph SE20.9 kmh SE 22.8 mph36.7 kmh 28.85 in977.0 mb 0.00 in0.0 mm 0.00 in0.0 mm 0.00 in0.0 mm
02:16 AM 51.4°F10.8°C 39.7°F4.3°C 64% 13.0 mph SE20.9 kmh SE 22.8 mph36.7 kmh 28.86 in977.3 mb 0.00 in0.0 mm 0.00 in0.0 mm 0.00 in0.0 mm
02:17 AM 51.4°F10.8°C 39.7°F4.3°C 64% 12.1 mph SE19.5 kmh SE 22.8 mph36.7 kmh 28.86 in977.3 mb 0.00 in0.0 mm 0.00 in0.0 mm 0.00 in0.0 mm
02:18 AM 51.4°F10.8°C 39.7°F4.3°C 64% 10.7 mph SE17.2 kmh SE 22.8 mph36.7 kmh 28.86 in977.3 mb 0.00 in0.0 mm 0.00 in0.0 mm 0.00 in0.0 mm
02:19 AM 51.4°F10.8°C 39.7°F4.3°C 64% 9.8 mph SE15.8 kmh SE 22.8 mph36.7 kmh 28.86 in977.3 mb 0.00 in0.0 mm 0.00 in0.0 mm 0.00 in0.0 mm
02:20 AM 51.4°F10.8°C 39.7°F4.3°C 64% 9.8 mph SE15.8 kmh SE 19.7 mph31.7 kmh 28.86 in977.3 mb 0.00 in0.0 mm 0.00 in0.0 mm 0.00 in0.0 mm
02:21 AM 51.4°F10.8°C 39.7°F4.3°C 64% 11.4 mph SE18.3 kmh SE 19.7 mph31.7 kmh 28.85 in977.0 mb 0.00 in0.0 mm 0.00 in0.0 mm 0.00 in0.0 mm
02:22 AM 51.4°F10.8°C 39.7°F4.3°C 64% 13.0 mph SE20.9 kmh SE 19.7 mph31.7 kmh 28.86 in977.3 mb 0.00 in0.0 mm 0.00 in0.0 mm 0.00 in0.0 mm
02:23 AM 51.3°F10.7°C 39.5°F4.2°C 64% 13.6 mph SE21.9 kmh SE 19.7 mph31.7 kmh 28.86 in977.3 mb 0.00 in0.0 mm 0.00 in0.0 mm 0.00 in0.0 mm
02:24 AM 51.3°F10.7°C 39.9°F4.4°C 65% 10.7 mph SE17.2 kmh SE 19.7 mph31.7 kmh 28.86 in977.3 mb 0.00 in0.0 mm 0.00 in0.0 mm 0.00 in0.0 mm
02:25 AM 51.3°F10.7°C 39.9°F4.4°C 65% 11.4 mph SE18.3 kmh SE 19.7 mph31.7 kmh 28.86 in977.3 mb 0.00 in0.0 mm 0.00 in0.0 mm 0.00 in0.0 mm
02:26 AM 51.3°F10.7°C 39.9°F4.4°C 65% 16.8 mph SE27.0 kmh SE 20.6 mph33.2 kmh 28.86 in977.3 mb 0.00 in0.0 mm 0.00 in0.0 mm 0.00 in0.0 mm
02:27 AM 51.3°F10.7°C 39.9°F4.4°C 65% 15.2 mph SE24.5 kmh SE 20.6 mph33.2 kmh 28.86 in977.3 mb 0.00 in0.0 mm 0.00 in0.0 mm 0.00 in0.0 mm
02:28 AM 51.3°F10.7°C 39.9°F4.4°C 65% 13.0 mph SE20.9 kmh SE 20.6 mph33.2 kmh 28.86 in977.3 mb 0.00 in0.0 mm 0.00 in0.0 mm 0.00 in0.0 mm
02:29 AM 51.3°F10.7°C 39.9°F4.4°C 65% 11.4 mph SE18.3 kmh SE 20.6 mph33.2 kmh 28.86 in977.3 mb 0.00 in0.0 mm 0.00 in0.0 mm 0.00 in0.0 mm
02:30 AM 51.3°F10.7°C 39.9°F4.4°C 65% 19.7 mph SE31.7 kmh SE 28.9 mph46.5 kmh 28.85 in977.0 mb 0.00 in0.0 mm 0.00 in0.0 mm 0.00 in0.0 mm
02:31 AM 51.3°F10.7°C 39.9°F4.4°C 65% 17.4 mph SE28.0 kmh SE 28.9 mph46.5 kmh 28.85 in977.0 mb 0.00 in0.0 mm 0.00 in0.0 mm 0.00 in0.0 mm
02:32 AM 51.3°F10.7°C 39.9°F4.4°C 65% 17.4 mph SE28.0 kmh SE 28.9 mph46.5 kmh 28.86 in977.3 mb 0.00 in0.0 mm 0.00 in0.0 mm 0.00 in0.0 mm
02:33 AM 51.3°F10.7°C 39.9°F4.4°C 65% 15.2 mph SE24.5 kmh SE 28.9 mph46.5 kmh 28.85 in977.0 mb 0.00 in0.0 mm 0.00 in0.0 mm 0.00 in0.0 mm
02:34 AM 51.1°F10.6°C 39.7°F4.3°C 65% 14.5 mph SE23.3 kmh SE 28.9 mph46.5 kmh 28.85 in977.0 mb 0.00 in0.0 mm 0.00 in0.0 mm 0.00 in0.0 mm
02:35 AM 51.1°F10.6°C 39.7°F4.3°C 65% 13.0 mph SE20.9 kmh SE 28.9 mph46.5 kmh 28.85 in977.0 mb 0.00 in0.0 mm 0.00 in0.0 mm 0.00 in0.0 mm
02:36 AM 51.1°F10.6°C 39.7°F4.3°C 65% 14.5 mph SE23.3 kmh SE 28.9 mph46.5 kmh 28.86 in977.3 mb 0.00 in0.0 mm 0.00 in0.0 mm 0.00 in0.0 mm
02:37 AM 51.1°F10.6°C 39.7°F4.3°C 65% 9.8 mph SE15.8 kmh SE 28.9 mph46.5 kmh 28.86 in977.3 mb 0.00 in0.0 mm 0.00 in0.0 mm 0.00 in0.0 mm
02:38 AM 51.1°F10.6°C 40.1°F4.5°C 66% 15.2 mph ESE24.5 kmh ESE 28.9 mph46.5 kmh 28.86 in977.3 mb 0.00 in0.0 mm 0.00 in0.0 mm 0.00 in0.0 mm
02:39 AM 51.1°F10.6°C 40.1°F4.5°C 66% 13.0 mph SE20.9 kmh SE 28.9 mph46.5 kmh 28.86 in977.3 mb 0.00 in0.0 mm 0.00 in0.0 mm 0.00 in0.0 mm
02:40 AM 51.1°F10.6°C 40.1°F4.5°C 66% 18.3 mph SE29.5 kmh SE 28.9 mph46.5 kmh 28.86 in977.3 mb 0.00 in0.0 mm 0.00 in0.0 mm 0.00 in0.0 mm
02:41 AM 50.9°F10.5°C 39.9°F4.4°C 66% 15.9 mph SE25.6 kmh SE 24.4 mph39.3 kmh 28.85 in977.0 mb 0.00 in0.0 mm 0.00 in0.0 mm 0.00 in0.0 mm
02:42 AM 50.9°F10.5°C 39.9°F4.4°C 66% 11.4 mph SE18.3 kmh SE 24.4 mph39.3 kmh 28.85 in977.0 mb 0.00 in0.0 mm 0.00 in0.0 mm 0.00 in0.0 mm
02:43 AM 50.9°F10.5°C 39.9°F4.4°C 66% 11.4 mph SE18.3 kmh SE 24.4 mph39.3 kmh 28.85 in977.0 mb 0.00 in0.0 mm 0.00 in0.0 mm 0.00 in0.0 mm
02:44 AM 50.9°F10.5°C 39.9°F4.4°C 66% 11.4 mph SE18.3 kmh SE 24.4 mph39.3 kmh 28.85 in977.0 mb 0.00 in0.0 mm 0.00 in0.0 mm 0.00 in0.0 mm
02:45 AM 50.9°F10.5°C 40.3°F4.6°C 67% 10.7 mph SE17.2 kmh SE 24.4 mph39.3 kmh 28.85 in977.0 mb 0.00 in0.0 mm 0.00 in0.0 mm 0.00 in0.0 mm
02:46 AM 50.9°F10.5°C 40.3°F4.6°C 67% 14.5 mph SE23.3 kmh SE 24.4 mph39.3 kmh 28.85 in977.0 mb 0.00 in0.0 mm 0.00 in0.0 mm 0.00 in0.0 mm
02:47 AM 50.9°F10.5°C 40.3°F4.6°C 67% 10.7 mph SE17.2 kmh SE 24.4 mph39.3 kmh 28.85 in977.0 mb 0.00 in0.0 mm 0.00 in0.0 mm 0.00 in0.0 mm
02:48 AM 50.9°F10.5°C 40.3°F4.6°C 67% 11.4 mph SE18.3 kmh SE 24.4 mph39.3 kmh 28.85 in977.0 mb 0.00 in0.0 mm 0.00 in0.0 mm 0.00 in0.0 mm
02:49 AM 50.9°F10.5°C 40.3°F4.6°C 67% 12.1 mph SE19.5 kmh SE 22.8 mph36.7 kmh 28.85 in977.0 mb 0.00 in0.0 mm 0.00 in0.0 mm 0.00 in0.0 mm
02:50 AM 50.9°F10.5°C 40.7°F4.8°C 68% 11.4 mph ESE18.3 kmh ESE 22.8 mph36.7 kmh 28.86 in977.3 mb 0.00 in0.0 mm 0.00 in0.0 mm 0.00 in0.0 mm
02:51 AM 50.9°F10.5°C 40.7°F4.8°C 68% 11.4 mph ESE18.3 kmh ESE 19.7 mph31.7 kmh 28.86 in977.3 mb 0.00 in0.0 mm 0.00 in0.0 mm 0.00 in0.0 mm
02:52 AM 50.9°F10.5°C 40.7°F4.8°C 68% 17.4 mph SE28.0 kmh SE 23.5 mph37.8 kmh 28.85 in977.0 mb 0.00 in0.0 mm 0.00 in0.0 mm 0.00 in0.0 mm
02:53 AM 50.9°F10.5°C 40.7°F4.8°C 68% 17.4 mph SE28.0 kmh SE 25.1 mph40.4 kmh 28.85 in977.0 mb 0.00 in0.0 mm 0.00 in0.0 mm 0.00 in0.0 mm
02:54 AM 50.9°F10.5°C 40.7°F4.8°C 68% 17.4 mph SE28.0 kmh SE 25.1 mph40.4 kmh 28.85 in977.0 mb 0.00 in0.0 mm 0.00 in0.0 mm 0.00 in0.0 mm
02:55 AM 50.9°F10.5°C 41.1°F5.1°C 69% 14.5 mph SE23.3 kmh SE 25.1 mph40.4 kmh 28.85 in977.0 mb 0.00 in0.0 mm 0.00 in0.0 mm 0.00 in0.0 mm
02:56 AM 50.9°F10.5°C 41.1°F5.1°C 69% 14.5 mph SE23.3 kmh SE 25.1 mph40.4 kmh 28.85 in977.0 mb 0.00 in0.0 mm 0.00 in0.0 mm 0.00 in0.0 mm
02:57 AM 50.7°F10.4°C 41.3°F5.2°C 70% 17.4 mph SE28.0 kmh SE 25.1 mph40.4 kmh 28.85 in977.0 mb 0.00 in0.0 mm 0.00 in0.0 mm 0.00 in0.0 mm
02:58 AM 50.7°F10.4°C 41.3°F5.2°C 70% 13.6 mph SE21.9 kmh SE 25.1 mph40.4 kmh 28.85 in977.0 mb 0.00 in0.0 mm 0.00 in0.0 mm 0.00 in0.0 mm
02:59 AM 50.7°F10.4°C 41.3°F5.2°C 70% 8.3 mph SE13.4 kmh SE 25.1 mph40.4 kmh 28.86 in977.3 mb 0.00 in0.0 mm 0.00 in0.0 mm 0.00 in0.0 mm
03:00 AM 50.7°F10.4°C 41.3°F5.2°C 70% 10.7 mph SE17.2 kmh SE 25.1 mph40.4 kmh 28.85 in977.0 mb 0.00 in0.0 mm 0.00 in0.0 mm 0.00 in0.0 mm
03:01 AM 50.7°F10.4°C 41.3°F5.2°C 70% 10.7 mph SE17.2 kmh SE 25.1 mph40.4 kmh 28.85 in977.0 mb 0.00 in0.0 mm 0.00 in0.0 mm 0.00 in0.0 mm
03:02 AM 50.7°F10.4°C 41.3°F5.2°C 70% 10.7 mph SE17.2 kmh SE 25.1 mph40.4 kmh 28.85 in977.0 mb 0.00 in0.0 mm 0.00 in0.0 mm 0.00 in0.0 mm
03:03 AM 50.7°F10.4°C 41.3°F5.2°C 70% 10.7 mph SE17.2 kmh SE 25.1 mph40.4 kmh 28.85 in977.0 mb 0.00 in0.0 mm 0.00 in0.0 mm 0.00 in0.0 mm
03:04 AM 50.7°F10.4°C 41.3°F5.2°C 70% 10.7 mph SE17.2 kmh SE 25.1 mph40.4 kmh 28.86 in977.3 mb 0.00 in0.0 mm 0.00 in0.0 mm 0.00 in0.0 mm
03:05 AM 50.7°F10.4°C 41.3°F5.2°C 70% 10.7 mph SE17.2 kmh SE 25.1 mph40.4 kmh 28.85 in977.0 mb 0.00 in0.0 mm 0.00 in0.0 mm 0.00 in0.0 mm
03:06 AM 50.7°F10.4°C 41.3°F5.2°C 70% 10.7 mph SE17.2 kmh SE 25.1 mph40.4 kmh 28.85 in977.0 mb 0.00 in0.0 mm 0.00 in0.0 mm 0.00 in0.0 mm
03:07 AM 50.7°F10.4°C 41.3°F5.2°C 70% 10.7 mph SE17.2 kmh SE 25.1 mph40.4 kmh 28.85 in977.0 mb 0.00 in0.0 mm 0.00 in0.0 mm 0.00 in0.0 mm
03:08 AM 50.7°F10.4°C 41.3°F5.2°C 70% 12.1 mph SE19.5 kmh SE 16.8 mph27.0 kmh 28.85 in977.0 mb 0.00 in0.0 mm 0.00 in0.0 mm 0.00 in0.0 mm
03:09 AM 50.7°F10.4°C 41.3°F5.2°C 70% 9.2 mph SE14.8 kmh SE 15.9 mph25.6 kmh 28.85 in977.0 mb 0.00 in0.0 mm 0.00 in0.0 mm 0.00 in0.0 mm
03:10 AM 50.7°F10.4°C 41.3°F5.2°C 70% 16.8 mph SE27.0 kmh SE 22.8 mph36.7 kmh 28.85 in977.0 mb 0.00 in0.0 mm 0.00 in0.0 mm 0.00 in0.0 mm
03:11 AM 50.7°F10.4°C 41.3°F5.2°C 70% 16.8 mph SE27.0 kmh SE 22.8 mph36.7 kmh 28.84 in976.6 mb 0.00 in0.0 mm 0.00 in0.0 mm 0.00 in0.0 mm
03:12 AM 50.7°F10.4°C 41.3°F5.2°C 70% 13.6 mph SE21.9 kmh SE 24.4 mph39.3 kmh 28.85 in977.0 mb 0.00 in0.0 mm 0.00 in0.0 mm 0.00 in0.0 mm
03:13 AM 50.7°F10.4°C 41.3°F5.2°C 70% 13.0 mph SE20.9 kmh SE 24.4 mph39.3 kmh 28.85 in977.0 mb 0.00 in0.0 mm 0.00 in0.0 mm 0.00 in0.0 mm
03:14 AM 50.7°F10.4°C 41.3°F5.2°C 70% 15.2 mph SE24.5 kmh SE 24.4 mph39.3 kmh 28.84 in976.6 mb 0.00 in0.0 mm 0.00 in0.0 mm 0.00 in0.0 mm
03:15 AM 50.7°F10.4°C 41.3°F5.2°C 70% 15.2 mph SE24.5 kmh SE 24.4 mph39.3 kmh 28.85 in977.0 mb 0.00 in0.0 mm 0.00 in0.0 mm 0.00 in0.0 mm
03:16 AM 50.7°F10.4°C 41.3°F5.2°C 70% 12.1 mph SE19.5 kmh SE 24.4 mph39.3 kmh 28.84 in976.6 mb 0.00 in0.0 mm 0.00 in0.0 mm 0.00 in0.0 mm
03:17 AM 50.7°F10.4°C 41.3°F5.2°C 70% 15.9 mph SE25.6 kmh SE 24.4 mph39.3 kmh 28.84 in976.6 mb 0.00 in0.0 mm 0.00 in0.0 mm 0.00 in0.0 mm
03:18 AM 50.7°F10.4°C 41.3°F5.2°C 70% 15.9 mph SE25.6 kmh SE 24.4 mph39.3 kmh 28.85 in977.0 mb 0.00 in0.0 mm 0.00 in0.0 mm 0.00 in0.0 mm
03:19 AM 50.7°F10.4°C 41.3°F5.2°C 70% 14.5 mph SE23.3 kmh SE 24.4 mph39.3 kmh 28.85 in977.0 mb 0.00 in0.0 mm 0.00 in0.0 mm 0.00 in0.0 mm
03:20 AM 50.5°F10.3°C 41.1°F5.1°C 70% 12.1 mph SE19.5 kmh SE 24.4 mph39.3 kmh 28.85 in977.0 mb 0.00 in0.0 mm 0.00 in0.0 mm 0.00 in0.0 mm
03:21 AM 50.5°F10.3°C 41.1°F5.1°C 70% 14.5 mph SE23.3 kmh SE 24.4 mph39.3 kmh 28.84 in976.6 mb 0.00 in0.0 mm 0.00 in0.0 mm 0.00 in0.0 mm
03:22 AM 50.5°F10.3°C 41.1°F5.1°C 70% 14.5 mph SE23.3 kmh SE 23.5 mph37.8 kmh 28.85 in977.0 mb 0.00 in0.0 mm 0.00 in0.0 mm 0.00 in0.0 mm
03:23 AM 50.5°F10.3°C 41.1°F5.1°C 70% 13.6 mph SE21.9 kmh SE 23.5 mph37.8 kmh 28.85 in977.0 mb 0.00 in0.0 mm 0.00 in0.0 mm 0.00 in0.0 mm
03:24 AM 50.5°F10.3°C 41.1°F5.1°C 70% 16.8 mph SE27.0 kmh SE 23.5 mph37.8 kmh 28.85 in977.0 mb 0.00 in0.0 mm 0.00 in0.0 mm 0.00 in0.0 mm
03:25 AM 50.5°F10.3°C 41.1°F5.1°C 70% 14.5 mph SE23.3 kmh SE 23.5 mph37.8 kmh 28.84 in976.6 mb 0.00 in0.0 mm 0.00 in0.0 mm 0.00 in0.0 mm
03:26 AM 50.5°F10.3°C 41.1°F5.1°C 70% 13.0 mph SE20.9 kmh SE 23.5 mph37.8 kmh 28.84 in976.6 mb 0.00 in0.0 mm 0.00 in0.0 mm 0.00 in0.0 mm
03:27 AM 50.5°F10.3°C 41.1°F5.1°C 70% 13.6 mph SE21.9 kmh SE 23.5 mph37.8 kmh 28.84 in976.6 mb 0.00 in0.0 mm 0.00 in0.0 mm 0.00 in0.0 mm
03:28 AM 50.5°F10.3°C 41.1°F5.1°C 70% 13.6 mph SE21.9 kmh SE 23.5 mph37.8 kmh 28.84 in976.6 mb 0.00 in0.0 mm 0.00 in0.0 mm 0.00 in0.0 mm
03:29 AM 50.5°F10.3°C 41.1°F5.1°C 70% 13.6 mph SE21.9 kmh SE 22.1 mph35.6 kmh 28.84 in976.6 mb 0.00 in0.0 mm 0.00 in0.0 mm 0.00 in0.0 mm
03:30 AM 50.4°F10.2°C 40.9°F4.9°C 70% 12.1 mph ESE19.5 kmh ESE 22.1 mph35.6 kmh 28.84 in976.6 mb 0.00 in0.0 mm 0.00 in0.0 mm 0.00 in0.0 mm
03:31 AM 50.4°F10.2°C 41.3°F5.2°C 71% 18.3 mph SE29.5 kmh SE 25.1 mph40.4 kmh 28.84 in976.6 mb 0.00 in0.0 mm 0.00 in0.0 mm 0.00 in0.0 mm
03:32 AM 50.4°F10.2°C 41.3°F5.2°C 71% 16.8 mph SE27.0 kmh SE 25.9 mph41.7 kmh 28.84 in976.6 mb 0.00 in0.0 mm 0.00 in0.0 mm 0.00 in0.0 mm
03:33 AM 50.4°F10.2°C 41.3°F5.2°C 71% 13.0 mph SE20.9 kmh SE 25.9 mph41.7 kmh 28.84 in976.6 mb 0.00 in0.0 mm 0.00 in0.0 mm 0.00 in0.0 mm
03:34 AM 50.4°F10.2°C 41.3°F5.2°C 71% 15.9 mph SE25.6 kmh SE 25.9 mph41.7 kmh 28.84 in976.6 mb 0.00 in0.0 mm 0.00 in0.0 mm 0.00 in0.0 mm
03:35 AM 50.4°F10.2°C 41.3°F5.2°C 71% 13.0 mph SE20.9 kmh SE 25.9 mph41.7 kmh 28.85 in977.0 mb 0.00 in0.0 mm 0.00 in0.0 mm 0.00 in0.0 mm
03:36 AM 50.4°F10.2°C 41.3°F5.2°C 71% 16.8 mph SE27.0 kmh SE 25.9 mph41.7 kmh 28.84 in976.6 mb 0.00 in0.0 mm 0.00 in0.0 mm 0.00 in0.0 mm
03:37 AM 50.2°F10.1°C 41.1°F5.1°C 71% 15.2 mph SE24.5 kmh SE 26.6 mph42.8 kmh 28.84 in976.6 mb 0.00 in0.0 mm 0.00 in0.0 mm 0.00 in0.0 mm
03:38 AM 50.2°F10.1°C 41.1°F5.1°C 71% 17.4 mph SE28.0 kmh SE 26.6 mph42.8 kmh 28.84 in976.6 mb 0.00 in0.0 mm 0.00 in0.0 mm 0.00 in0.0 mm
03:39 AM 50.2°F10.1°C 41.1°F5.1°C 71% 14.5 mph SE23.3 kmh SE 26.6 mph42.8 kmh 28.85 in977.0 mb 0.00 in0.0 mm 0.00 in0.0 mm 0.00 in0.0 mm
03:40 AM 50.2°F10.1°C 41.5°F5.3°C 72% 13.6 mph SE21.9 kmh SE 26.6 mph42.8 kmh 28.84 in976.6 mb 0.00 in0.0 mm 0.00 in0.0 mm 0.00 in0.0 mm
03:41 AM 50.2°F10.1°C 41.5°F5.3°C 72% 15.9 mph SE25.6 kmh SE 26.6 mph42.8 kmh 28.84 in976.6 mb 0.00 in0.0 mm 0.00 in0.0 mm 0.00 in0.0 mm
03:42 AM 50.2°F10.1°C 41.5°F5.3°C 72% 18.3 mph SE29.5 kmh SE 26.6 mph42.8 kmh 28.84 in976.6 mb 0.00 in0.0 mm 0.00 in0.0 mm 0.00 in0.0 mm
03:43 AM 50.2°F10.1°C 41.5°F5.3°C 72% 12.1 mph SE19.5 kmh SE 26.6 mph42.8 kmh 28.84 in976.6 mb 0.00 in0.0 mm 0.00 in0.0 mm 0.00 in0.0 mm
03:44 AM 50.0°F10.0°C 41.3°F5.2°C 72% 17.4 mph SE28.0 kmh SE 26.6 mph42.8 kmh 28.84 in976.6 mb 0.00 in0.0 mm 0.00 in0.0 mm 0.00 in0.0 mm
03:45 AM 50.0°F10.0°C 41.7°F5.4°C 73% 15.9 mph SE25.6 kmh SE 26.6 mph42.8 kmh 28.84 in976.6 mb 0.00 in0.0 mm 0.00 in0.0 mm 0.00 in0.0 mm
03:46 AM 50.0°F10.0°C 41.7°F5.4°C 73% 16.8 mph SE27.0 kmh SE 26.6 mph42.8 kmh 28.84 in976.6 mb 0.00 in0.0 mm 0.00 in0.0 mm 0.00 in0.0 mm
03:47 AM 50.0°F10.0°C 41.7°F5.4°C 73% 14.5 mph SE23.3 kmh SE 26.6 mph42.8 kmh 28.85 in977.0 mb 0.00 in0.0 mm 0.00 in0.0 mm 0.00 in0.0 mm
03:48 AM 50.0°F10.0°C 41.7°F5.4°C 73% 14.5 mph SE23.3 kmh SE 25.1 mph40.4 kmh 28.84 in976.6 mb 0.00 in0.0 mm 0.00 in0.0 mm 0.00 in0.0 mm
03:49 AM 50.0°F10.0°C 41.7°F5.4°C 73% 13.6 mph SE21.9 kmh SE 25.1 mph40.4 kmh 28.84 in976.6 mb 0.00 in0.0 mm 0.00 in0.0 mm 0.00 in0.0 mm
03:50 AM 50.0°F10.0°C 41.7°F5.4°C 73% 13.6 mph SE21.9 kmh SE 25.1 mph40.4 kmh 28.84 in976.6 mb 0.00 in0.0 mm 0.00 in0.0 mm 0.00 in0.0 mm
03:51 AM 50.0°F10.0°C 42.0°F5.6°C 74% 16.8 mph SE27.0 kmh SE 25.1 mph40.4 kmh 28.84 in976.6 mb 0.00 in0.0 mm 0.00 in0.0 mm 0.00 in0.0 mm
03:52 AM 50.0°F10.0°C 42.0°F5.6°C 74% 14.5 mph SE23.3 kmh SE 25.1 mph40.4 kmh 28.84 in976.6 mb 0.00 in0.0 mm 0.00 in0.0 mm 0.00 in0.0 mm
03:53 AM 50.0°F10.0°C 42.0°F5.6°C 74% 13.0 mph SE20.9 kmh SE 22.8 mph36.7 kmh 28.84 in976.6 mb 0.00 in0.0 mm 0.00 in0.0 mm 0.00 in0.0 mm
03:54 AM 49.8°F9.9°C 41.9°F5.5°C 74% 14.5 mph SE23.3 kmh SE 22.8 mph36.7 kmh 28.84 in976.6 mb 0.00 in0.0 mm 0.00 in0.0 mm 0.00 in0.0 mm
03:55 AM 49.8°F9.9°C 41.9°F5.5°C 74% 10.7 mph SE17.2 kmh SE 22.8 mph36.7 kmh 28.84 in976.6 mb 0.00 in0.0 mm 0.00 in0.0 mm 0.00 in0.0 mm
03:56 AM 49.8°F9.9°C 42.2°F5.7°C 75% 13.6 mph SE21.9 kmh SE 22.8 mph36.7 kmh 28.84 in976.6 mb 0.00 in0.0 mm 0.00 in0.0 mm 0.00 in0.0 mm
03:57 AM 50.0°F10.0°C 42.4°F5.8°C 75% 21.3 mph SE34.3 kmh SE 24.4 mph39.3 kmh 28.84 in976.6 mb 0.00 in0.0 mm 0.00 in0.0 mm 0.00 in0.0 mm
03:58 AM 50.0°F10.0°C 42.4°F5.8°C 75% 18.3 mph SE29.5 kmh SE 24.4 mph39.3 kmh 28.84 in976.6 mb 0.00 in0.0 mm 0.00 in0.0 mm 0.00 in0.0 mm
03:59 AM 50.0°F10.0°C 42.4°F5.8°C 75% 20.6 mph SE33.2 kmh SE 24.4 mph39.3 kmh 28.84 in976.6 mb 0.00 in0.0 mm 0.00 in0.0 mm 0.00 in0.0 mm
04:00 AM 50.0°F10.0°C 42.4°F5.8°C 75% 12.1 mph SE19.5 kmh SE 24.4 mph39.3 kmh 28.84 in976.6 mb 0.00 in0.0 mm 0.00 in0.0 mm 0.00 in0.0 mm
04:01 AM 50.0°F10.0°C 42.4°F5.8°C 75% 14.5 mph SE23.3 kmh SE 24.4 mph39.3 kmh 28.84 in976.6 mb 0.00 in0.0 mm 0.00 in0.0 mm 0.00 in0.0 mm
04:02 AM 50.0°F10.0°C 42.4°F5.8°C 75% 14.5 mph SE23.3 kmh SE 24.4 mph39.3 kmh 28.84 in976.6 mb 0.00 in0.0 mm 0.00 in0.0 mm 0.00 in0.0 mm
04:03 AM 50.0°F10.0°C 42.4°F5.8°C 75% 14.5 mph SE23.3 kmh SE 24.4 mph39.3 kmh 28.84 in976.6 mb 0.00 in0.0 mm 0.00 in0.0 mm 0.00 in0.0 mm
04:04 AM 50.0°F10.0°C 42.4°F5.8°C 75% 14.5 mph SSE23.3 kmh SSE 24.4 mph39.3 kmh 28.84 in976.6 mb 0.00 in0.0 mm 0.00 in0.0 mm 0.00 in0.0 mm
04:05 AM 50.0°F10.0°C 42.4°F5.8°C 75% 14.5 mph SSE23.3 kmh SSE 24.4 mph39.3 kmh 28.84 in976.6 mb 0.00 in0.0 mm 0.00 in0.0 mm 0.00 in0.0 mm
04:06 AM 50.0°F10.0°C 42.4°F5.8°C 75% 14.5 mph SSE23.3 kmh SSE 24.4 mph39.3 kmh 28.84 in976.6 mb 0.00 in0.0 mm 0.00 in0.0 mm 0.00 in0.0 mm
04:07 AM 50.0°F10.0°C 42.4°F5.8°C 75% 14.5 mph S23.3 kmh S 24.4 mph39.3 kmh 28.84 in976.6 mb 0.00 in0.0 mm 0.00 in0.0 mm 0.00 in0.0 mm
04:08 AM 50.0°F10.0°C 42.4°F5.8°C 75% 14.5 mph S23.3 kmh S 24.4 mph39.3 kmh 28.84 in976.6 mb 0.00 in0.0 mm 0.00 in0.0 mm 0.00 in0.0 mm
04:09 AM 50.0°F10.0°C 42.4°F5.8°C 75% 15.2 mph S24.5 kmh S 24.4 mph39.3 kmh 28.84 in976.6 mb 0.00 in0.0 mm 0.00 in0.0 mm 0.00 in0.0 mm
04:10 AM 50.0°F10.0°C 42.4°F5.8°C 75% 13.6 mph S21.9 kmh S 19.7 mph31.7 kmh 28.84 in976.6 mb 0.00 in0.0 mm 0.00 in0.0 mm 0.00 in0.0 mm
04:11 AM 50.0°F10.0°C 42.4°F5.8°C 75% 12.1 mph S19.5 kmh S 20.6 mph33.2 kmh 28.84 in976.6 mb 0.00 in0.0 mm 0.00 in0.0 mm 0.00 in0.0 mm
04:12 AM 50.0°F10.0°C 42.4°F5.8°C 75% 13.0 mph S20.9 kmh S 20.6 mph33.2 kmh 28.84 in976.6 mb 0.00 in0.0 mm 0.00 in0.0 mm 0.00 in0.0 mm
04:13 AM 50.0°F10.0°C 42.4°F5.8°C 75% 8.3 mph SSE13.4 kmh SSE 20.6 mph33.2 kmh 28.84 in976.6 mb 0.00 in0.0 mm 0.00 in0.0 mm 0.00 in0.0 mm
04:14 AM 50.0°F10.0°C 42.4°F5.8°C 75% 8.3 mph SSE13.4 kmh SSE 20.6 mph33.2 kmh 28.84 in976.6 mb 0.00 in0.0 mm 0.00 in0.0 mm 0.00 in0.0 mm
04:15 AM 50.0°F10.0°C 42.4°F5.8°C 75% 10.7 mph SSE17.2 kmh SSE 20.6 mph33.2 kmh 28.84 in976.6 mb 0.00 in0.0 mm 0.00 in0.0 mm 0.00 in0.0 mm
04:16 AM 50.0°F10.0°C 42.4°F5.8°C 75% 9.8 mph SSE15.8 kmh SSE 20.6 mph33.2 kmh 28.84 in976.6 mb 0.00 in0.0 mm 0.00 in0.0 mm 0.00 in0.0 mm
04:17 AM 50.0°F10.0°C 42.7°F5.9°C 76% 13.0 mph SE20.9 kmh SE 20.6 mph33.2 kmh 28.84 in976.6 mb 0.00 in0.0 mm 0.00 in0.0 mm 0.00 in0.0 mm
04:18 AM 50.0°F10.0°C 42.7°F5.9°C 76% 20.6 mph SE33.2 kmh SE 24.4 mph39.3 kmh 28.84 in976.6 mb 0.00 in0.0 mm 0.00 in0.0 mm 0.00 in0.0 mm
04:19 AM 50.0°F10.0°C 42.7°F5.9°C 76% 15.9 mph SE25.6 kmh SE 24.4 mph39.3 kmh 28.84 in976.6 mb 0.00 in0.0 mm 0.00 in0.0 mm 0.00 in0.0 mm
04:20 AM 50.0°F10.0°C 42.7°F5.9°C 76% 14.5 mph SE23.3 kmh SE 24.4 mph39.3 kmh 28.84 in976.6 mb 0.00 in0.0 mm 0.00 in0.0 mm 0.00 in0.0 mm
04:21 AM 50.0°F10.0°C 42.7°F5.9°C 76% 10.7 mph SE17.2 kmh SE 24.4 mph39.3 kmh 28.84 in976.6 mb 0.00 in0.0 mm 0.00 in0.0 mm 0.00 in0.0 mm
04:22 AM 49.8°F9.9°C 42.6°F5.9°C 76% 12.1 mph SE19.5 kmh SE 24.4 mph39.3 kmh 28.84 in976.6 mb 0.00 in0.0 mm 0.00 in0.0 mm 0.00 in0.0 mm
04:23 AM 49.8°F9.9°C 42.6°F5.9°C 76% 12.1 mph SE19.5 kmh SE 24.4 mph39.3 kmh 28.84 in976.6 mb 0.00 in0.0 mm 0.00 in0.0 mm 0.00 in0.0 mm
04:24 AM 49.8°F9.9°C 42.6°F5.9°C 76% 9.2 mph SE14.8 kmh SE 24.4 mph39.3 kmh 28.84 in976.6 mb 0.00 in0.0 mm 0.00 in0.0 mm 0.00 in0.0 mm
04:25 AM 49.8°F9.9°C 42.6°F5.9°C 76% 13.0 mph SE20.9 kmh SE 24.4 mph39.3 kmh 28.83 in976.3 mb 0.00 in0.0 mm 0.00 in0.0 mm 0.00 in0.0 mm
04:26 AM 49.8°F9.9°C 42.6°F5.9°C 76% 12.1 mph SE19.5 kmh SE 24.4 mph39.3 kmh 28.83 in976.3 mb 0.00 in0.0 mm 0.00 in0.0 mm 0.00 in0.0 mm
04:27 AM 49.8°F9.9°C 42.6°F5.9°C 76% 15.9 mph SE25.6 kmh SE 24.4 mph39.3 kmh 28.84 in976.6 mb 0.00 in0.0 mm 0.00 in0.0 mm 0.00 in0.0 mm
04:28 AM 49.8°F9.9°C 42.6°F5.9°C 76% 17.4 mph SE28.0 kmh SE 24.4 mph39.3 kmh 28.84 in976.6 mb 0.00 in0.0 mm 0.00 in0.0 mm 0.00 in0.0 mm
04:29 AM 49.8°F9.9°C 42.9°F6.1°C 77% 16.8 mph SE27.0 kmh SE 22.8 mph36.7 kmh 28.83 in976.3 mb 0.00 in0.0 mm 0.00 in0.0 mm 0.00 in0.0 mm
04:30 AM 49.6°F9.8°C 42.7°F5.9°C 77% 16.8 mph SE27.0 kmh SE 22.8 mph36.7 kmh 28.83 in976.3 mb 0.00 in0.0 mm 0.00 in0.0 mm 0.00 in0.0 mm
04:31 AM 49.6°F9.8°C 42.7°F5.9°C 77% 9.2 mph SE14.8 kmh SE 22.8 mph36.7 kmh 28.84 in976.6 mb 0.00 in0.0 mm 0.00 in0.0 mm 0.00 in0.0 mm
04:32 AM 49.6°F9.8°C 42.7°F5.9°C 77% 9.2 mph SE14.8 kmh SE 22.8 mph36.7 kmh 28.84 in976.6 mb 0.00 in0.0 mm 0.00 in0.0 mm 0.00 in0.0 mm
04:33 AM 49.6°F9.8°C 43.1°F6.2°C 78% 15.9 mph SE25.6 kmh SE 22.8 mph36.7 kmh 28.83 in976.3 mb 0.00 in0.0 mm 0.00 in0.0 mm 0.00 in0.0 mm
04:34 AM 49.6°F9.8°C 43.1°F6.2°C 78% 15.2 mph SE24.5 kmh SE 22.8 mph36.7 kmh 28.83 in976.3 mb 0.00 in0.0 mm 0.00 in0.0 mm 0.00 in0.0 mm
04:35 AM 49.6°F9.8°C 43.1°F6.2°C 78% 13.6 mph SE21.9 kmh SE 22.8 mph36.7 kmh 28.83 in976.3 mb 0.00 in0.0 mm 0.00 in0.0 mm 0.00 in0.0 mm
04:36 AM 49.6°F9.8°C 43.1°F6.2°C 78% 15.9 mph SE25.6 kmh SE 22.8 mph36.7 kmh 28.83 in976.3 mb 0.00 in0.0 mm 0.00 in0.0 mm 0.00 in0.0 mm
04:37 AM 49.6°F9.8°C 43.1°F6.2°C 78% 15.9 mph SE25.6 kmh SE 23.5 mph37.8 kmh 28.83 in976.3 mb 0.00 in0.0 mm 0.00 in0.0 mm 0.00 in0.0 mm
04:38 AM 49.8°F9.9°C 42.9°F6.1°C 77% 14.5 mph SE23.3 kmh SE 23.5 mph37.8 kmh 28.84 in976.6 mb 0.00 in0.0 mm 0.00 in0.0 mm 0.00 in0.0 mm
04:39 AM 49.8°F9.9°C 42.9°F6.1°C 77% 15.9 mph SE25.6 kmh SE 23.5 mph37.8 kmh 28.83 in976.3 mb 0.00 in0.0 mm 0.00 in0.0 mm 0.00 in0.0 mm
04:40 AM 50.0°F10.0°C 43.1°F6.2°C 77% 14.5 mph SE23.3 kmh SE 23.5 mph37.8 kmh 28.83 in976.3 mb 0.00 in0.0 mm 0.00 in0.0 mm 0.00 in0.0 mm
04:41 AM 50.0°F10.0°C 42.7°F5.9°C 76% 13.6 mph SE21.9 kmh SE 23.5 mph37.8 kmh 28.83 in976.3 mb 0.00 in0.0 mm 0.00 in0.0 mm 0.00 in0.0 mm
04:42 AM 50.0°F10.0°C 42.7°F5.9°C 76% 11.4 mph SE18.3 kmh SE 23.5 mph37.8 kmh 28.83 in976.3 mb 0.00 in0.0 mm 0.00 in0.0 mm 0.00 in0.0 mm
04:43 AM 50.2°F10.1°C 42.9°F6.1°C 76% 14.5 mph SE23.3 kmh SE 24.4 mph39.3 kmh 28.83 in976.3 mb 0.00 in0.0 mm 0.00 in0.0 mm 0.00 in0.0 mm
04:44 AM 50.2°F10.1°C 42.9°F6.1°C 76% 15.2 mph SE24.5 kmh SE 24.4 mph39.3 kmh 28.83 in976.3 mb 0.00 in0.0 mm 0.00 in0.0 mm 0.00 in0.0 mm
04:45 AM 50.2°F10.1°C 42.9°F6.1°C 76% 10.7 mph SE17.2 kmh SE 24.4 mph39.3 kmh 28.83 in976.3 mb 0.00 in0.0 mm 0.00 in0.0 mm 0.00 in0.0 mm
04:46 AM 50.2°F10.1°C 42.6°F5.9°C 75% 15.2 mph SE24.5 kmh SE 24.4 mph39.3 kmh 28.83 in976.3 mb 0.00 in0.0 mm 0.00 in0.0 mm 0.00 in0.0 mm
04:47 AM 50.2°F10.1°C 42.6°F5.9°C 75% 19.0 mph SE30.6 kmh SE 24.4 mph39.3 kmh 28.83 in976.3 mb 0.00 in0.0 mm 0.00 in0.0 mm 0.00 in0.0 mm
04:48 AM 50.2°F10.1°C 42.6°F5.9°C 75% 14.5 mph SE23.3 kmh SE 24.4 mph39.3 kmh 28.83 in976.3 mb 0.00 in0.0 mm 0.00 in0.0 mm 0.00 in0.0 mm
04:49 AM 50.2°F10.1°C 42.6°F5.9°C 75% 15.9 mph SE25.6 kmh SE 24.4 mph39.3 kmh 28.83 in976.3 mb 0.00 in0.0 mm 0.00 in0.0 mm 0.00 in0.0 mm
04:50 AM 50.2°F10.1°C 42.6°F5.9°C 75% 13.6 mph SE21.9 kmh SE 24.4 mph39.3 kmh 28.84 in976.6 mb 0.00 in0.0 mm 0.00 in0.0 mm 0.00 in0.0 mm
04:51 AM 50.2°F10.1°C 42.6°F5.9°C 75% 15.2 mph SE24.5 kmh SE 24.4 mph39.3 kmh 28.84 in976.6 mb 0.00 in0.0 mm 0.00 in0.0 mm 0.00 in0.0 mm
04:52 AM 50.2°F10.1°C 42.6°F5.9°C 75% 17.4 mph SE28.0 kmh SE 24.4 mph39.3 kmh 28.83 in976.3 mb 0.00 in0.0 mm 0.00 in0.0 mm 0.00 in0.0 mm
04:53 AM 50.4°F10.2°C 42.7°F5.9°C 75% 16.8 mph SE27.0 kmh SE 24.4 mph39.3 kmh 28.83 in976.3 mb 0.00 in0.0 mm 0.00 in0.0 mm 0.00 in0.0 mm
04:54 AM 50.4°F10.2°C 42.7°F5.9°C 75% 16.8 mph SE27.0 kmh SE 25.1 mph40.4 kmh 28.84 in976.6 mb 0.00 in0.0 mm 0.00 in0.0 mm 0.00 in0.0 mm
04:55 AM 50.4°F10.2°C 42.7°F5.9°C 75% 16.8 mph SE27.0 kmh SE 25.1 mph40.4 kmh 28.83 in976.3 mb 0.00 in0.0 mm 0.00 in0.0 mm 0.00 in0.0 mm
04:56 AM 50.4°F10.2°C 42.4°F5.8°C 74% 19.0 mph SE30.6 kmh SE 26.6 mph42.8 kmh 28.84 in976.6 mb 0.00 in0.0 mm 0.00 in0.0 mm 0.00 in0.0 mm
04:57 AM 50.4°F10.2°C 42.4°F5.8°C 74% 19.7 mph SE31.7 kmh SE 26.6 mph42.8 kmh 28.84 in976.6 mb 0.00 in0.0 mm 0.00 in0.0 mm 0.00 in0.0 mm
04:58 AM 50.4°F10.2°C 42.4°F5.8°C 74% 13.6 mph SE21.9 kmh SE 26.6 mph42.8 kmh 28.84 in976.6 mb 0.00 in0.0 mm 0.00 in0.0 mm 0.00 in0.0 mm
04:59 AM 50.5°F10.3°C 42.6°F5.9°C 74% 19.0 mph SE30.6 kmh SE 35.8 mph57.6 kmh 28.83 in976.3 mb 0.00 in0.0 mm 0.00 in0.0 mm 0.00 in0.0 mm
05:00 AM 50.5°F10.3°C 42.6°F5.9°C 74% 14.5 mph SE23.3 kmh SE 35.8 mph57.6 kmh 28.83 in976.3 mb 0.00 in0.0 mm 0.00 in0.0 mm 0.00 in0.0 mm
05:01 AM 50.5°F10.3°C 42.6°F5.9°C 74% 12.1 mph SE19.5 kmh SE 35.8 mph57.6 kmh 28.84 in976.6 mb 0.00 in0.0 mm 0.00 in0.0 mm 0.00 in0.0 mm
05:02 AM 50.4°F10.2°C 42.4°F5.8°C 74% 13.0 mph SE20.9 kmh SE 35.8 mph57.6 kmh 28.84 in976.6 mb 0.00 in0.0 mm 0.00 in0.0 mm 0.00 in0.0 mm
05:03 AM 50.4°F10.2°C 42.0°F5.6°C 73% 13.0 mph SE20.9 kmh SE 35.8 mph57.6 kmh 28.84 in976.6 mb 0.00 in0.0 mm 0.00 in0.0 mm 0.00 in0.0 mm
05:04 AM 50.4°F10.2°C 42.0°F5.6°C 73% 13.0 mph SE20.9 kmh SE 35.8 mph57.6 kmh 28.84 in976.6 mb 0.00 in0.0 mm 0.00 in0.0 mm 0.00 in0.0 mm
05:05 AM 50.4°F10.2°C 42.0°F5.6°C 73% 13.0 mph SSE20.9 kmh SSE 35.8 mph57.6 kmh 28.84 in976.6 mb 0.00 in0.0 mm 0.00 in0.0 mm 0.00 in0.0 mm
05:06 AM 50.4°F10.2°C 42.0°F5.6°C 73% 13.0 mph SSE20.9 kmh SSE 35.8 mph57.6 kmh 28.83 in976.3 mb 0.00 in0.0 mm 0.00 in0.0 mm 0.00 in0.0 mm
05:07 AM 50.4°F10.2°C 42.0°F5.6°C 73% 15.9 mph SSE25.6 kmh SSE 35.8 mph57.6 kmh 28.84 in976.6 mb 0.00 in0.0 mm 0.00 in0.0 mm 0.00 in0.0 mm
05:08 AM 50.4°F10.2°C 42.0°F5.6°C 73% 15.2 mph SE24.5 kmh SE 35.8 mph57.6 kmh 28.84 in976.6 mb 0.00 in0.0 mm 0.00 in0.0 mm 0.00 in0.0 mm
05:09 AM 50.4°F10.2°C 42.0°F5.6°C 73% 13.6 mph SE21.9 kmh SE 35.8 mph57.6 kmh 28.84 in976.6 mb 0.00 in0.0 mm 0.00 in0.0 mm 0.00 in0.0 mm
05:10 AM 50.4°F10.2°C 42.0°F5.6°C 73% 10.7 mph SE17.2 kmh SE 21.3 mph34.3 kmh 28.84 in976.6 mb 0.00 in0.0 mm 0.00 in0.0 mm 0.00 in0.0 mm
05:11 AM 50.4°F10.2°C 42.0°F5.6°C 73% 10.7 mph SE17.2 kmh SE 21.3 mph34.3 kmh 28.84 in976.6 mb 0.00 in0.0 mm 0.00 in0.0 mm 0.00 in0.0 mm
05:12 AM 50.4°F10.2°C 42.0°F5.6°C 73% 11.4 mph SE18.3 kmh SE 21.3 mph34.3 kmh 28.84 in976.6 mb 0.00 in0.0 mm 0.00 in0.0 mm 0.00 in0.0 mm
05:13 AM 50.4°F10.2°C 42.0°F5.6°C 73% 11.4 mph SE18.3 kmh SE 21.3 mph34.3 kmh 28.84 in976.6 mb 0.00 in0.0 mm 0.00 in0.0 mm 0.00 in0.0 mm
05:14 AM 50.4°F10.2°C 42.0°F5.6°C 73% 11.4 mph SE18.3 kmh SE 21.3 mph34.3 kmh 28.84 in976.6 mb 0.00 in0.0 mm 0.00 in0.0 mm 0.00 in0.0 mm
05:15 AM 50.4°F10.2°C 42.0°F5.6°C 73% 13.0 mph SE20.9 kmh SE 21.3 mph34.3 kmh 28.84 in976.6 mb 0.00 in0.0 mm 0.00 in0.0 mm 0.00 in0.0 mm
05:16 AM 50.4°F10.2°C 42.0°F5.6°C 73% 15.9 mph SE25.6 kmh SE 26.6 mph42.8 kmh 28.84 in976.6 mb 0.00 in0.0 mm 0.00 in0.0 mm 0.00 in0.0 mm
05:17 AM 50.4°F10.2°C 42.0°F5.6°C 73% 13.6 mph SE21.9 kmh SE 26.6 mph42.8 kmh 28.84 in976.6 mb 0.00 in0.0 mm 0.00 in0.0 mm 0.00 in0.0 mm
05:18 AM 50.4°F10.2°C 42.0°F5.6°C 73% 9.8 mph SE15.8 kmh SE 26.6 mph42.8 kmh 28.84 in976.6 mb 0.00 in0.0 mm 0.00 in0.0 mm 0.00 in0.0 mm
05:19 AM 50.4°F10.2°C 42.4°F5.8°C 74% 10.7 mph SE17.2 kmh SE 26.6 mph42.8 kmh 28.84 in976.6 mb 0.00 in0.0 mm 0.00 in0.0 mm 0.00 in0.0 mm
05:20 AM 50.4°F10.2°C 42.4°F5.8°C 74% 13.0 mph SE20.9 kmh SE 26.6 mph42.8 kmh 28.84 in976.6 mb 0.00 in0.0 mm 0.00 in0.0 mm 0.00 in0.0 mm
05:21 AM 50.4°F10.2°C 42.4°F5.8°C 74% 13.6 mph SE21.9 kmh SE 26.6 mph42.8 kmh 28.84 in976.6 mb 0.00 in0.0 mm 0.00 in0.0 mm 0.00 in0.0 mm
05:22 AM 50.4°F10.2°C 42.4°F5.8°C 74% 10.7 mph SE17.2 kmh SE 26.6 mph42.8 kmh 28.84 in976.6 mb 0.00 in0.0 mm 0.00 in0.0 mm 0.00 in0.0 mm
05:23 AM 50.4°F10.2°C 42.4°F5.8°C 74% 10.7 mph SE17.2 kmh SE 26.6 mph42.8 kmh 28.84 in976.6 mb 0.00 in0.0 mm 0.00 in0.0 mm 0.00 in0.0 mm
05:24 AM 50.2°F10.1°C 42.2°F5.7°C 74% 12.1 mph SE19.5 kmh SE 26.6 mph42.8 kmh 28.84 in976.6 mb 0.00 in0.0 mm 0.00 in0.0 mm 0.00 in0.0 mm
05:25 AM 50.2°F10.1°C 42.2°F5.7°C 74% 13.0 mph SE20.9 kmh SE 26.6 mph42.8 kmh 28.84 in976.6 mb 0.00 in0.0 mm 0.00 in0.0 mm 0.00 in0.0 mm
05:26 AM 50.2°F10.1°C 42.2°F5.7°C 74% 13.0 mph SE20.9 kmh SE 22.1 mph35.6 kmh 28.84 in976.6 mb 0.00 in0.0 mm 0.00 in0.0 mm 0.00 in0.0 mm
05:27 AM 50.2°F10.1°C 42.2°F5.7°C 74% 9.8 mph SE15.8 kmh SE 22.1 mph35.6 kmh 28.84 in976.6 mb 0.00 in0.0 mm 0.00 in0.0 mm 0.00 in0.0 mm
05:28 AM 50.2°F10.1°C 42.2°F5.7°C 74% 10.7 mph SE17.2 kmh SE 22.1 mph35.6 kmh 28.84 in976.6 mb 0.00 in0.0 mm 0.00 in0.0 mm 0.00 in0.0 mm
05:29 AM 50.2°F10.1°C 42.2°F5.7°C 74% 13.0 mph SE20.9 kmh SE 22.1 mph35.6 kmh 28.84 in976.6 mb 0.00 in0.0 mm 0.00 in0.0 mm 0.00 in0.0 mm
05:30 AM 50.0°F10.0°C 42.0°F5.6°C 74% 10.7 mph SE17.2 kmh SE 22.1 mph35.6 kmh 28.84 in976.6 mb 0.00 in0.0 mm 0.00 in0.0 mm 0.00 in0.0 mm
05:31 AM 50.0°F10.0°C 42.0°F5.6°C 74% 13.6 mph SSE21.9 kmh SSE 22.8 mph36.7 kmh 28.84 in976.6 mb 0.00 in0.0 mm 0.00 in0.0 mm 0.00 in0.0 mm
05:32 AM 50.0°F10.0°C 42.0°F5.6°C 74% 14.5 mph SSE23.3 kmh SSE 22.8 mph36.7 kmh 28.84 in976.6 mb 0.00 in0.0 mm 0.00 in0.0 mm 0.00 in0.0 mm
05:33 AM 50.0°F10.0°C 42.0°F5.6°C 74% 13.6 mph SSE21.9 kmh SSE 22.8 mph36.7 kmh 28.84 in976.6 mb 0.00 in0.0 mm 0.00 in0.0 mm 0.00 in0.0 mm
05:34 AM 50.0°F10.0°C 42.0°F5.6°C 74% 11.4 mph SSE18.3 kmh SSE 22.8 mph36.7 kmh 28.84 in976.6 mb 0.00 in0.0 mm 0.00 in0.0 mm 0.00 in0.0 mm
05:35 AM 50.0°F10.0°C 42.0°F5.6°C 74% 13.6 mph SSE21.9 kmh SSE 22.8 mph36.7 kmh 28.84 in976.6 mb 0.00 in0.0 mm 0.00 in0.0 mm 0.00 in0.0 mm
05:36 AM 50.0°F10.0°C 42.0°F5.6°C 74% 12.1 mph SSE19.5 kmh SSE 22.8 mph36.7 kmh 28.84 in976.6 mb 0.00 in0.0 mm 0.00 in0.0 mm 0.00 in0.0 mm
05:37 AM 49.8°F9.9°C 41.9°F5.5°C 74% 14.5 mph SSE23.3 kmh SSE 22.8 mph36.7 kmh 28.84 in976.6 mb 0.00 in0.0 mm 0.00 in0.0 mm 0.00 in0.0 mm
05:38 AM 49.8°F9.9°C 41.9°F5.5°C 74% 14.5 mph SSE23.3 kmh SSE 22.8 mph36.7 kmh 28.84 in976.6 mb 0.00 in0.0 mm 0.00 in0.0 mm 0.00 in0.0 mm
05:39 AM 49.8°F9.9°C 41.9°F5.5°C 74% 14.5 mph SSE23.3 kmh SSE 22.8 mph36.7 kmh 28.84 in976.6 mb 0.00 in0.0 mm 0.00 in0.0 mm 0.00 in0.0 mm
05:40 AM 49.8°F9.9°C 41.9°F5.5°C 74% 13.6 mph SSE21.9 kmh SSE 22.8 mph36.7 kmh 28.84 in976.6 mb 0.00 in0.0 mm 0.00 in0.0 mm 0.00 in0.0 mm
05:41 AM 49.8°F9.9°C 41.9°F5.5°C 74% 13.0 mph SE20.9 kmh SE 22.8 mph36.7 kmh 28.84 in976.6 mb 0.00 in0.0 mm 0.00 in0.0 mm 0.00 in0.0 mm
05:42 AM 49.8°F9.9°C 41.9°F5.5°C 74% 10.7 mph SE17.2 kmh SE 22.8 mph36.7 kmh 28.84 in976.6 mb 0.00 in0.0 mm 0.00 in0.0 mm 0.00 in0.0 mm
05:43 AM 49.8°F9.9°C 41.9°F5.5°C 74% 15.2 mph SE24.5 kmh SE 22.8 mph36.7 kmh 28.84 in976.6 mb 0.00 in0.0 mm 0.00 in0.0 mm 0.00 in0.0 mm
05:44 AM 49.8°F9.9°C 41.9°F5.5°C 74% 15.2 mph SE24.5 kmh SE 22.8 mph36.7 kmh 28.84 in976.6 mb 0.00 in0.0 mm 0.00 in0.0 mm 0.00 in0.0 mm
05:45 AM 49.8°F9.9°C 41.9°F5.5°C 74% 14.5 mph SE23.3 kmh SE 22.8 mph36.7 kmh 28.84 in976.6 mb 0.00 in0.0 mm 0.00 in0.0 mm 0.00 in0.0 mm
05:46 AM 49.8°F9.9°C 41.9°F5.5°C 74% 14.5 mph SE23.3 kmh SE 22.8 mph36.7 kmh 28.84 in976.6 mb 0.00 in0.0 mm 0.00 in0.0 mm 0.00 in0.0 mm
05:47 AM 49.6°F9.8°C 41.7°F5.4°C 74% 16.8 mph SSE27.0 kmh SSE 25.1 mph40.4 kmh 28.84 in976.6 mb 0.01 in0.3 mm 0.60 in15.2 mm 0.01 in0.3 mm
05:48 AM 49.6°F9.8°C 41.7°F5.4°C 74% 15.9 mph SSE25.6 kmh SSE 25.1 mph40.4 kmh 28.84 in976.6 mb 0.01 in0.3 mm 0.00 in0.0 mm 0.01 in0.3 mm
05:49 AM 49.6°F9.8°C 41.7°F5.4°C 74% 15.9 mph SSE25.6 kmh SSE 25.1 mph40.4 kmh 28.84 in976.6 mb 0.01 in0.3 mm 0.00 in0.0 mm 0.01 in0.3 mm
05:50 AM 49.6°F9.8°C 41.7°F5.4°C 74% 13.6 mph SSE21.9 kmh SSE 25.1 mph40.4 kmh 28.84 in976.6 mb 0.01 in0.3 mm 0.00 in0.0 mm 0.01 in0.3 mm
05:51 AM 49.6°F9.8°C 41.7°F5.4°C 74% 15.2 mph S24.5 kmh S 25.1 mph40.4 kmh 28.84 in976.6 mb 0.01 in0.3 mm 0.00 in0.0 mm 0.01 in0.3 mm
05:52 AM 49.6°F9.8°C 41.7°F5.4°C 74% 11.4 mph S18.3 kmh S 25.1 mph40.4 kmh 28.84 in976.6 mb 0.01 in0.3 mm 0.00 in0.0 mm 0.01 in0.3 mm
05:53 AM 49.6°F9.8°C 41.7°F5.4°C 74% 12.1 mph S19.5 kmh S 25.1 mph40.4 kmh 28.84 in976.6 mb 0.01 in0.3 mm 0.00 in0.0 mm 0.01 in0.3 mm
05:54 AM 49.6°F9.8°C 41.7°F5.4°C 74% 14.5 mph S23.3 kmh S 25.1 mph40.4 kmh 28.84 in976.6 mb 0.01 in0.3 mm 0.00 in0.0 mm 0.01 in0.3 mm
05:55 AM 49.6°F9.8°C 41.7°F5.4°C 74% 12.1 mph S19.5 kmh S 25.1 mph40.4 kmh 28.84 in976.6 mb 0.01 in0.3 mm 0.00 in0.0 mm 0.01 in0.3 mm
05:56 AM 49.6°F9.8°C 41.7°F5.4°C 74% 13.6 mph SSE21.9 kmh SSE 25.1 mph40.4 kmh 28.84 in976.6 mb 0.01 in0.3 mm 0.00 in0.0 mm 0.01 in0.3 mm
05:57 AM 49.6°F9.8°C 41.7°F5.4°C 74% 13.6 mph SSE21.9 kmh SSE 25.1 mph40.4 kmh 28.85 in977.0 mb 0.01 in0.3 mm 0.00 in0.0 mm 0.01 in0.3 mm
05:58 AM 49.6°F9.8°C 41.7°F5.4°C 74% 14.5 mph SSE23.3 kmh SSE 22.1 mph35.6 kmh 28.84 in976.6 mb 0.01 in0.3 mm 0.00 in0.0 mm 0.01 in0.3 mm
05:59 AM 49.8°F9.9°C 41.9°F5.5°C 74% 15.9 mph SSE25.6 kmh SSE 22.1 mph35.6 kmh 28.84 in976.6 mb 0.01 in0.3 mm 0.00 in0.0 mm 0.01 in0.3 mm
06:00 AM 49.6°F9.8°C 41.7°F5.4°C 74% 11.4 mph SSE18.3 kmh SSE 22.1 mph35.6 kmh 28.85 in977.0 mb 0.01 in0.3 mm 0.00 in0.0 mm 0.01 in0.3 mm
06:01 AM 49.6°F9.8°C 41.7°F5.4°C 74% 11.4 mph S18.3 kmh S 22.1 mph35.6 kmh 28.84 in976.6 mb 0.01 in0.3 mm 0.00 in0.0 mm 0.01 in0.3 mm
06:02 AM 49.6°F9.8°C 41.7°F5.4°C 74% 11.4 mph S18.3 kmh S 22.1 mph35.6 kmh 28.85 in977.0 mb 0.01 in0.3 mm 0.00 in0.0 mm 0.01 in0.3 mm
06:03 AM 49.6°F9.8°C 41.7°F5.4°C 74% 11.4 mph S18.3 kmh S 22.1 mph35.6 kmh 28.84 in976.6 mb 0.01 in0.3 mm 0.00 in0.0 mm 0.01 in0.3 mm
06:04 AM 49.6°F9.8°C 41.7°F5.4°C 74% 11.4 mph S18.3 kmh S 22.1 mph35.6 kmh 28.85 in977.0 mb 0.01 in0.3 mm 0.00 in0.0 mm 0.01 in0.3 mm
06:05 AM 49.6°F9.8°C 41.7°F5.4°C 74% 11.4 mph SSW18.3 kmh SSW 22.1 mph35.6 kmh 28.85 in977.0 mb 0.01 in0.3 mm 0.00 in0.0 mm 0.01 in0.3 mm
06:06 AM 49.6°F9.8°C 41.7°F5.4°C 74% 11.4 mph SSW18.3 kmh SSW 22.1 mph35.6 kmh 28.85 in977.0 mb 0.01 in0.3 mm 0.00 in0.0 mm 0.01 in0.3 mm
06:07 AM 49.8°F9.9°C 41.9°F5.5°C 74% 9.8 mph SSW15.8 kmh SSW 22.1 mph35.6 kmh 28.85 in977.0 mb 0.07 in1.8 mm 3.60 in91.4 mm 0.07 in1.8 mm
06:08 AM 49.8°F9.9°C 41.9°F5.5°C 74% 9.8 mph SSW15.8 kmh SSW 22.1 mph35.6 kmh 28.85 in977.0 mb 0.07 in1.8 mm 0.00 in0.0 mm 0.07 in1.8 mm
06:09 AM 49.8°F9.9°C 41.9°F5.5°C 74% 14.5 mph SW23.3 kmh SW 22.8 mph36.7 kmh 28.85 in977.0 mb 0.07 in1.8 mm 0.00 in0.0 mm 0.07 in1.8 mm
06:10 AM 49.8°F9.9°C 41.9°F5.5°C 74% 13.6 mph SSW21.9 kmh SSW 22.8 mph36.7 kmh 28.85 in977.0 mb 0.07 in1.8 mm 0.00 in0.0 mm 0.07 in1.8 mm
06:11 AM 49.8°F9.9°C 41.9°F5.5°C 74% 12.1 mph SSW19.5 kmh SSW 22.8 mph36.7 kmh 28.85 in977.0 mb 0.07 in1.8 mm 0.00 in0.0 mm 0.07 in1.8 mm
06:12 AM 49.8°F9.9°C 41.9°F5.5°C 74% 12.1 mph SSW19.5 kmh SSW 22.8 mph36.7 kmh 28.85 in977.0 mb 0.07 in1.8 mm 0.00 in0.0 mm 0.07 in1.8 mm
06:13 AM 49.8°F9.9°C 41.9°F5.5°C 74% 16.8 mph S27.0 kmh S 22.8 mph36.7 kmh 28.85 in977.0 mb 0.07 in1.8 mm 0.00 in0.0 mm 0.07 in1.8 mm
06:14 AM 49.8°F9.9°C 41.9°F5.5°C 74% 13.0 mph S20.9 kmh S 22.8 mph36.7 kmh 28.85 in977.0 mb 0.07 in1.8 mm 0.00 in0.0 mm 0.07 in1.8 mm
06:15 AM 49.8°F9.9°C 41.9°F5.5°C 74% 15.2 mph S24.5 kmh S 22.8 mph36.7 kmh 28.85 in977.0 mb 0.07 in1.8 mm 0.00 in0.0 mm 0.07 in1.8 mm
06:16 AM 49.8°F9.9°C 42.2°F5.7°C 75% 19.0 mph S30.6 kmh S 29.8 mph48.0 kmh 28.85 in977.0 mb 0.07 in1.8 mm 0.00 in0.0 mm 0.07 in1.8 mm
06:17 AM 49.8°F9.9°C 42.2°F5.7°C 75% 14.5 mph S23.3 kmh S 29.8 mph48.0 kmh 28.85 in977.0 mb 0.07 in1.8 mm 0.00 in0.0 mm 0.07 in1.8 mm
06:18 AM 49.8°F9.9°C 42.2°F5.7°C 75% 15.9 mph S25.6 kmh S 29.8 mph48.0 kmh 28.85 in977.0 mb 0.07 in1.8 mm 0.00 in0.0 mm 0.07 in1.8 mm
06:19 AM 49.6°F9.8°C 42.0°F5.6°C 75% 16.8 mph SSE27.0 kmh SSE 29.8 mph48.0 kmh 28.85 in977.0 mb 0.07 in1.8 mm 0.00 in0.0 mm 0.07 in1.8 mm
06:20 AM 49.6°F9.8°C 42.0°F5.6°C 75% 13.0 mph SSE20.9 kmh SSE 29.8 mph48.0 kmh 28.86 in977.3 mb 0.07 in1.8 mm 0.00 in0.0 mm 0.07 in1.8 mm
06:21 AM 49.6°F9.8°C 42.0°F5.6°C 75% 13.6 mph SSE21.9 kmh SSE 29.8 mph48.0 kmh 28.85 in977.0 mb 0.07 in1.8 mm 0.00 in0.0 mm 0.07 in1.8 mm
06:22 AM 49.6°F9.8°C 42.0°F5.6°C 75% 13.6 mph SSE21.9 kmh SSE 29.8 mph48.0 kmh 28.85 in977.0 mb 0.07 in1.8 mm 0.00 in0.0 mm 0.07 in1.8 mm
06:23 AM 49.6°F9.8°C 42.0°F5.6°C 75% 10.7 mph SE17.2 kmh SE 29.8 mph48.0 kmh 28.86 in977.3 mb 0.07 in1.8 mm 0.00 in0.0 mm 0.07 in1.8 mm
06:24 AM 49.6°F9.8°C 42.0°F5.6°C 75% 14.5 mph SSE23.3 kmh SSE 29.8 mph48.0 kmh 28.86 in977.3 mb 0.07 in1.8 mm 0.00 in0.0 mm 0.07 in1.8 mm
06:25 AM 49.6°F9.8°C 42.0°F5.6°C 75% 14.5 mph SSE23.3 kmh SSE 29.8 mph48.0 kmh 28.85 in977.0 mb 0.07 in1.8 mm 0.00 in0.0 mm 0.07 in1.8 mm
06:26 AM 49.6°F9.8°C 42.0°F5.6°C 75% 14.5 mph SE23.3 kmh SE 29.8 mph48.0 kmh 28.85 in977.0 mb 0.07 in1.8 mm 0.00 in0.0 mm 0.07 in1.8 mm
06:27 AM 49.6°F9.8°C 42.4°F5.8°C 76% 16.8 mph SSE27.0 kmh SSE 25.9 mph41.7 kmh 28.86 in977.3 mb 0.07 in1.8 mm 0.00 in0.0 mm 0.07 in1.8 mm
06:28 AM 49.6°F9.8°C 42.4°F5.8°C 76% 15.2 mph SSE24.5 kmh SSE 25.9 mph41.7 kmh 28.86 in977.3 mb 0.07 in1.8 mm 0.00 in0.0 mm 0.07 in1.8 mm
06:29 AM 49.6°F9.8°C 42.4°F5.8°C 76% 15.2 mph SSE24.5 kmh SSE 25.9 mph41.7 kmh 28.86 in977.3 mb 0.07 in1.8 mm 0.00 in0.0 mm 0.07 in1.8 mm
06:30 AM 49.5°F9.7°C 42.2°F5.7°C 76% 16.8 mph SE27.0 kmh SE 25.9 mph41.7 kmh 28.86 in977.3 mb 0.07 in1.8 mm 0.00 in0.0 mm 0.07 in1.8 mm
06:31 AM 49.5°F9.7°C 42.2°F5.7°C 76% 15.2 mph SSE24.5 kmh SSE 25.9 mph41.7 kmh 28.86 in977.3 mb 0.07 in1.8 mm 0.00 in0.0 mm 0.07 in1.8 mm
06:32 AM 49.5°F9.7°C 42.2°F5.7°C 76% 15.2 mph SSE24.5 kmh SSE 25.9 mph41.7 kmh 28.86 in977.3 mb 0.07 in1.8 mm 0.00 in0.0 mm 0.07 in1.8 mm
06:33 AM 49.3°F9.6°C 42.4°F5.8°C 77% 14.5 mph SSE23.3 kmh SSE 25.9 mph41.7 kmh 28.86 in977.3 mb 0.07 in1.8 mm 0.00 in0.0 mm 0.07 in1.8 mm
06:34 AM 49.3°F9.6°C 42.4°F5.8°C 77% 16.8 mph SSE27.0 kmh SSE 25.9 mph41.7 kmh 28.86 in977.3 mb 0.07 in1.8 mm 0.00 in0.0 mm 0.07 in1.8 mm
06:35 AM 49.3°F9.6°C 42.4°F5.8°C 77% 14.5 mph SSE23.3 kmh SSE 25.9 mph41.7 kmh 28.86 in977.3 mb 0.07 in1.8 mm 0.00 in0.0 mm 0.07 in1.8 mm
06:36 AM 49.3°F9.6°C 42.4°F5.8°C 77% 11.4 mph SSE18.3 kmh SSE 25.9 mph41.7 kmh 28.86 in977.3 mb 0.07 in1.8 mm 0.00 in0.0 mm 0.07 in1.8 mm
06:37 AM 49.3°F9.6°C 42.4°F5.8°C 77% 11.4 mph SE18.3 kmh SE 25.9 mph41.7 kmh 28.86 in977.3 mb 0.07 in1.8 mm 0.00 in0.0 mm 0.07 in1.8 mm
06:38 AM 49.3°F9.6°C 42.7°F5.9°C 78% 11.4 mph SE18.3 kmh SE 25.9 mph41.7 kmh 28.86 in977.3 mb 0.07 in1.8 mm 0.00 in0.0 mm 0.07 in1.8 mm
06:39 AM 49.3°F9.6°C 42.7°F5.9°C 78% 13.0 mph SSE20.9 kmh SSE 25.9 mph41.7 kmh 28.86 in977.3 mb 0.07 in1.8 mm 0.00 in0.0 mm 0.07 in1.8 mm
06:40 AM 49.1°F9.5°C 42.5°F5.8°C 78% 11.4 mph SSE18.3 kmh SSE 25.9 mph41.7 kmh 28.86 in977.3 mb 0.07 in1.8 mm 0.00 in0.0 mm 0.07 in1.8 mm
06:41 AM 49.1°F9.5°C 42.5°F5.8°C 78% 12.1 mph SSE19.5 kmh SSE 25.9 mph41.7 kmh 28.86 in977.3 mb 0.07 in1.8 mm 0.00 in0.0 mm 0.07 in1.8 mm
06:42 AM 49.3°F9.6°C 42.7°F5.9°C 78% 13.6 mph SE21.9 kmh SE 25.1 mph40.4 kmh 28.86 in977.3 mb 0.07 in1.8 mm 0.00 in0.0 mm 0.07 in1.8 mm
06:43 AM 49.3°F9.6°C 42.7°F5.9°C 78% 14.5 mph SE23.3 kmh SE 25.1 mph40.4 kmh 28.86 in977.3 mb 0.07 in1.8 mm 0.00 in0.0 mm 0.07 in1.8 mm
06:44 AM 49.5°F9.7°C 42.5°F5.8°C 77% 13.0 mph SE20.9 kmh SE 25.1 mph40.4 kmh 28.86 in977.3 mb 0.07 in1.8 mm 0.00 in0.0 mm 0.07 in1.8 mm
06:45 AM 49.5°F9.7°C 42.5°F5.8°C 77% 15.2 mph SE24.5 kmh SE 25.1 mph40.4 kmh 28.86 in977.3 mb 0.07 in1.8 mm 0.00 in0.0 mm 0.07 in1.8 mm
06:46 AM 49.5°F9.7°C 42.5°F5.8°C 77% 13.0 mph SE20.9 kmh SE 22.1 mph35.6 kmh 28.87 in977.7 mb 0.06 in1.5 mm 0.00 in0.0 mm 0.07 in1.8 mm
06:47 AM 49.5°F9.7°C 42.5°F5.8°C 77% 13.0 mph SSE20.9 kmh SSE 22.1 mph35.6 kmh 28.86 in977.3 mb 0.06 in1.5 mm 0.00 in0.0 mm 0.07 in1.8 mm
06:48 AM 49.5°F9.7°C 42.2°F5.7°C 76% 19.0 mph SSE30.6 kmh SSE 25.9 mph41.7 kmh 28.87 in977.7 mb 0.13 in3.3 mm 4.20 in106.7 mm 0.14 in3.6 mm
06:49 AM 49.5°F9.7°C 42.2°F5.7°C 76% 18.3 mph SE29.5 kmh SE 25.9 mph41.7 kmh 28.86 in977.3 mb 0.13 in3.3 mm 0.00 in0.0 mm 0.14 in3.6 mm
06:50 AM 49.5°F9.7°C 42.2°F5.7°C 76% 18.3 mph SE29.5 kmh SE 25.9 mph41.7 kmh 28.86 in977.3 mb 0.13 in3.3 mm 0.00 in0.0 mm 0.14 in3.6 mm
06:51 AM 49.5°F9.7°C 42.2°F5.7°C 76% 16.8 mph SE27.0 kmh SE 25.9 mph41.7 kmh 28.86 in977.3 mb 0.13 in3.3 mm 0.00 in0.0 mm 0.14 in3.6 mm
06:52 AM 49.5°F9.7°C 42.2°F5.7°C 76% 10.7 mph SE17.2 kmh SE 25.9 mph41.7 kmh 28.87 in977.7 mb 0.13 in3.3 mm 0.00 in0.0 mm 0.14 in3.6 mm
06:53 AM 49.5°F9.7°C 42.2°F5.7°C 76% 14.5 mph SE23.3 kmh SE 25.9 mph41.7 kmh 28.86 in977.3 mb 0.13 in3.3 mm 0.00 in0.0 mm 0.14 in3.6 mm
06:54 AM 49.5°F9.7°C 42.2°F5.7°C 76% 15.2 mph SE24.5 kmh SE 25.9 mph41.7 kmh 28.87 in977.7 mb 0.13 in3.3 mm 0.00 in0.0 mm 0.14 in3.6 mm
06:55 AM 49.5°F9.7°C 42.2°F5.7°C 76% 13.6 mph SSE21.9 kmh SSE 25.9 mph41.7 kmh 28.87 in977.7 mb 0.13 in3.3 mm 0.00 in0.0 mm 0.14 in3.6 mm
06:56 AM 49.5°F9.7°C 42.2°F5.7°C 76% 15.9 mph SSE25.6 kmh SSE 25.9 mph41.7 kmh 28.87 in977.7 mb 0.13 in3.3 mm 0.00 in0.0 mm 0.14 in3.6 mm
06:57 AM 49.5°F9.7°C 42.2°F5.7°C 76% 15.9 mph SSE25.6 kmh SSE 25.9 mph41.7 kmh 28.87 in977.7 mb 0.13 in3.3 mm 0.00 in0.0 mm 0.14 in3.6 mm
06:58 AM 49.3°F9.6°C 42.0°F5.6°C 76% 10.7 mph SSE17.2 kmh SSE 25.9 mph41.7 kmh 28.87 in977.7 mb 0.13 in3.3 mm 0.00 in0.0 mm 0.14 in3.6 mm
06:59 AM 49.3°F9.6°C 42.0°F5.6°C 76% 13.0 mph SSE20.9 kmh SSE 25.1 mph40.4 kmh 28.87 in977.7 mb 0.13 in3.3 mm 0.00 in0.0 mm 0.14 in3.6 mm
07:00 AM 49.3°F9.6°C 42.0°F5.6°C 76% 11.4 mph SSE18.3 kmh SSE 25.1 mph40.4 kmh 28.87 in977.7 mb 0.13 in3.3 mm 0.00 in0.0 mm 0.14 in3.6 mm
07:01 AM 49.3°F9.6°C 42.4°F5.8°C 77% 10.7 mph SSE17.2 kmh SSE 23.5 mph37.8 kmh 28.87 in977.7 mb 0.13 in3.3 mm 0.00 in0.0 mm 0.14 in3.6 mm
07:02 AM 49.3°F9.6°C 42.4°F5.8°C 77% 13.0 mph SSE20.9 kmh SSE 22.1 mph35.6 kmh 28.87 in977.7 mb 0.13 in3.3 mm 0.00 in0.0 mm 0.14 in3.6 mm
07:03 AM 49.3°F9.6°C 42.4°F5.8°C 77% 13.6 mph SSE21.9 kmh SSE 22.1 mph35.6 kmh 28.87 in977.7 mb 0.13 in3.3 mm 0.00 in0.0 mm 0.14 in3.6 mm
07:04 AM 49.3°F9.6°C 42.4°F5.8°C 77% 13.6 mph SSE21.9 kmh SSE 22.1 mph35.6 kmh 28.87 in977.7 mb 0.13 in3.3 mm 0.00 in0.0 mm 0.14 in3.6 mm
07:05 AM 49.3°F9.6°C 42.4°F5.8°C 77% 12.1 mph SSE19.5 kmh SSE 19.0 mph30.6 kmh 28.87 in977.7 mb 0.13 in3.3 mm 0.00 in0.0 mm 0.14 in3.6 mm
07:06 AM 49.3°F9.6°C 42.4°F5.8°C 77% 13.6 mph SSE21.9 kmh SSE 19.0 mph30.6 kmh 28.87 in977.7 mb 0.07 in1.8 mm 0.00 in0.0 mm 0.14 in3.6 mm
07:07 AM 49.3°F9.6°C 42.4°F5.8°C 77% 13.0 mph SSE20.9 kmh SSE 19.0 mph30.6 kmh 28.87 in977.7 mb 0.07 in1.8 mm 0.00 in0.0 mm 0.14 in3.6 mm
07:08 AM 49.3°F9.6°C 42.4°F5.8°C 77% 13.0 mph SE20.9 kmh SE 19.0 mph30.6 kmh 28.87 in977.7 mb 0.07 in1.8 mm 0.00 in0.0 mm 0.14 in3.6 mm
07:09 AM 49.3°F9.6°C 42.4°F5.8°C 77% 11.4 mph SE18.3 kmh SE 19.0 mph30.6 kmh 28.87 in977.7 mb 0.07 in1.8 mm 0.00 in0.0 mm 0.14 in3.6 mm
07:10 AM 49.1°F9.5°C 42.2°F5.7°C 77% 9.8 mph SE15.8 kmh SE 19.0 mph30.6 kmh 28.88 in978.0 mb 0.07 in1.8 mm 0.00 in0.0 mm 0.14 in3.6 mm
07:11 AM 49.1°F9.5°C 42.2°F5.7°C 77% 15.2 mph SE24.5 kmh SE 18.3 mph29.5 kmh 28.88 in978.0 mb 0.07 in1.8 mm 0.00 in0.0 mm 0.14 in3.6 mm
07:12 AM 49.1°F9.5°C 42.2°F5.7°C 77% 11.4 mph SE18.3 kmh SE 18.3 mph29.5 kmh 28.87 in977.7 mb 0.07 in1.8 mm 0.00 in0.0 mm 0.14 in3.6 mm
07:13 AM 49.1°F9.5°C 42.2°F5.7°C 77% 9.8 mph SE15.8 kmh SE 18.3 mph29.5 kmh 28.87 in977.7 mb 0.07 in1.8 mm 0.00 in0.0 mm 0.14 in3.6 mm
07:14 AM 49.1°F9.5°C 42.2°F5.7°C 77% 12.1 mph SE19.5 kmh SE 17.4 mph28.0 kmh 28.88 in978.0 mb 0.07 in1.8 mm 0.00 in0.0 mm 0.14 in3.6 mm
07:15 AM 49.1°F9.5°C 42.2°F5.7°C 77% 9.8 mph SSE15.8 kmh SSE 17.4 mph28.0 kmh 28.88 in978.0 mb 0.07 in1.8 mm 0.00 in0.0 mm 0.14 in3.6 mm
07:16 AM 49.1°F9.5°C 42.2°F5.7°C 77% 9.8 mph SSE15.8 kmh SSE 17.4 mph28.0 kmh 28.88 in978.0 mb 0.07 in1.8 mm 0.00 in0.0 mm 0.14 in3.6 mm
07:17 AM 49.1°F9.5°C 42.5°F5.8°C 78% 9.2 mph SSE14.8 kmh SSE 17.4 mph28.0 kmh 28.88 in978.0 mb 0.07 in1.8 mm 0.00 in0.0 mm 0.14 in3.6 mm
07:18 AM 49.1°F9.5°C 42.5°F5.8°C 78% 9.2 mph SSE14.8 kmh SSE 17.4 mph28.0 kmh 28.88 in978.0 mb 0.07 in1.8 mm 0.00 in0.0 mm 0.14 in3.6 mm
07:19 AM 49.1°F9.5°C 42.5°F5.8°C 78% 10.7 mph SSE17.2 kmh SSE 17.4 mph28.0 kmh 28.88 in978.0 mb 0.07 in1.8 mm 0.00 in0.0 mm 0.14 in3.6 mm
07:20 AM 49.1°F9.5°C 42.5°F5.8°C 78% 7.6 mph SSE12.2 kmh SSE 17.4 mph28.0 kmh 28.88 in978.0 mb 0.07 in1.8 mm 0.00 in0.0 mm 0.14 in3.6 mm
07:21 AM 49.1°F9.5°C 42.5°F5.8°C 78% 12.1 mph SSE19.5 kmh SSE 18.3 mph29.5 kmh 28.88 in978.0 mb 0.07 in1.8 mm 0.00 in0.0 mm 0.14 in3.6 mm
07:22 AM 49.1°F9.5°C 42.5°F5.8°C 78% 12.1 mph SSE19.5 kmh SSE 18.3 mph29.5 kmh 28.88 in978.0 mb 0.07 in1.8 mm 0.00 in0.0 mm 0.14 in3.6 mm
07:23 AM 49.1°F9.5°C 42.5°F5.8°C 78% 9.2 mph SSE14.8 kmh SSE 18.3 mph29.5 kmh 28.88 in978.0 mb 0.07 in1.8 mm 0.00 in0.0 mm 0.14 in3.6 mm
07:24 AM 49.1°F9.5°C 42.5°F5.8°C 78% 9.8 mph SSE15.8 kmh SSE 18.3 mph29.5 kmh 28.88 in978.0 mb 0.07 in1.8 mm 0.00 in0.0 mm 0.14 in3.6 mm
07:25 AM 48.9°F9.4°C 42.4°F5.8°C 78% 12.1 mph SSE19.5 kmh SSE 19.0 mph30.6 kmh 28.88 in978.0 mb 0.07 in1.8 mm 0.00 in0.0 mm 0.14 in3.6 mm
07:26 AM 48.9°F9.4°C 42.4°F5.8°C 78% 9.8 mph SSE15.8 kmh SSE 19.0 mph30.6 kmh 28.88 in978.0 mb 0.07 in1.8 mm 0.00 in0.0 mm 0.14 in3.6 mm
07:27 AM 48.9°F9.4°C 42.4°F5.8°C 78% 9.8 mph SE15.8 kmh SE 19.0 mph30.6 kmh 28.88 in978.0 mb 0.07 in1.8 mm 0.00 in0.0 mm 0.14 in3.6 mm
07:28 AM 48.9°F9.4°C 42.4°F5.8°C 78% 9.8 mph SE15.8 kmh SE 19.0 mph30.6 kmh 28.88 in978.0 mb 0.07 in1.8 mm 0.00 in0.0 mm 0.14 in3.6 mm
07:29 AM 48.9°F9.4°C 42.7°F5.9°C 79% 13.0 mph SE20.9 kmh SE 19.7 mph31.7 kmh 28.88 in978.0 mb 0.07 in1.8 mm 0.00 in0.0 mm 0.14 in3.6 mm
07:30 AM 48.7°F9.3°C 42.8°F6.0°C 80% 13.0 mph SE20.9 kmh SE 19.7 mph31.7 kmh 28.88 in978.0 mb 0.07 in1.8 mm 0.00 in0.0 mm 0.14 in3.6 mm
07:31 AM 48.7°F9.3°C 42.8°F6.0°C 80% 11.4 mph SE18.3 kmh SE 19.7 mph31.7 kmh 28.88 in978.0 mb 0.07 in1.8 mm 0.00 in0.0 mm 0.14 in3.6 mm
07:32 AM 48.7°F9.3°C 42.8°F6.0°C 80% 13.6 mph SE21.9 kmh SE 19.7 mph31.7 kmh 28.88 in978.0 mb 0.07 in1.8 mm 0.00 in0.0 mm 0.14 in3.6 mm
07:33 AM 48.6°F9.2°C 42.7°F5.9°C 80% 9.8 mph SE15.8 kmh SE 20.6 mph33.2 kmh 28.88 in978.0 mb 0.07 in1.8 mm 0.00 in0.0 mm 0.14 in3.6 mm
07:34 AM 48.6°F9.2°C 42.7°F5.9°C 80% 11.4 mph SE18.3 kmh SE 20.6 mph33.2 kmh 28.88 in978.0 mb 0.07 in1.8 mm 0.00 in0.0 mm 0.14 in3.6 mm
07:35 AM 48.6°F9.2°C 42.7°F5.9°C 80% 10.7 mph SE17.2 kmh SE 20.6 mph33.2 kmh 28.88 in978.0 mb 0.07 in1.8 mm 0.00 in0.0 mm 0.14 in3.6 mm
07:36 AM 48.6°F9.2°C 43.0°F6.1°C 81% 11.4 mph SE18.3 kmh SE 20.6 mph33.2 kmh 28.88 in978.0 mb 0.07 in1.8 mm 0.00 in0.0 mm 0.14 in3.6 mm
07:37 AM 48.4°F9.1°C 42.8°F6.0°C 81% 9.8 mph SE15.8 kmh SE 20.6 mph33.2 kmh 28.88 in978.0 mb 0.07 in1.8 mm 0.00 in0.0 mm 0.14 in3.6 mm
07:38 AM 48.4°F9.1°C 42.8°F6.0°C 81% 9.2 mph SE14.8 kmh SE 20.6 mph33.2 kmh 28.88 in978.0 mb 0.07 in1.8 mm 0.00 in0.0 mm 0.14 in3.6 mm
07:39 AM 48.4°F9.1°C 42.8°F6.0°C 81% 10.7 mph SE17.2 kmh SE 20.6 mph33.2 kmh 28.88 in978.0 mb 0.07 in1.8 mm 0.00 in0.0 mm 0.14 in3.6 mm
07:40 AM 48.4°F9.1°C 43.1°F6.2°C 82% 9.8 mph SE15.8 kmh SE 20.6 mph33.2 kmh 28.88 in978.0 mb 0.07 in1.8 mm 0.00 in0.0 mm 0.14 in3.6 mm
07:41 AM 48.4°F9.1°C 43.1°F6.2°C 82% 12.1 mph SE19.5 kmh SE 20.6 mph33.2 kmh 28.89 in978.3 mb 0.07 in1.8 mm 0.00 in0.0 mm 0.14 in3.6 mm
07:42 AM 48.4°F9.1°C 43.1°F6.2°C 82% 10.7 mph SE17.2 kmh SE 20.6 mph33.2 kmh 28.88 in978.0 mb 0.07 in1.8 mm 0.00 in0.0 mm 0.14 in3.6 mm
07:43 AM 48.4°F9.1°C 43.1°F6.2°C 82% 10.7 mph SSE17.2 kmh SSE 17.4 mph28.0 kmh 28.89 in978.3 mb 0.07 in1.8 mm 0.00 in0.0 mm 0.14 in3.6 mm
07:44 AM 48.4°F9.1°C 43.1°F6.2°C 82% 10.7 mph SSE17.2 kmh SSE 17.4 mph28.0 kmh 28.88 in978.0 mb 0.07 in1.8 mm 0.00 in0.0 mm 0.14 in3.6 mm
07:45 AM 48.4°F9.1°C 43.1°F6.2°C 82% 11.4 mph SSE18.3 kmh SSE 17.4 mph28.0 kmh 28.88 in978.0 mb 0.07 in1.8 mm 0.00 in0.0 mm 0.14 in3.6 mm
07:46 AM 48.4°F9.1°C 43.1°F6.2°C 82% 10.7 mph SSE17.2 kmh SSE 17.4 mph28.0 kmh 28.89 in978.3 mb 0.07 in1.8 mm 0.00 in0.0 mm 0.14 in3.6 mm
07:47 AM 48.4°F9.1°C 43.5°F6.4°C 83% 9.8 mph S15.8 kmh S 17.4 mph28.0 kmh 28.88 in978.0 mb 0.00 in0.0 mm 0.00 in0.0 mm 0.14 in3.6 mm
07:48 AM 48.4°F9.1°C 43.5°F6.4°C 83% 13.0 mph S20.9 kmh S 19.0 mph30.6 kmh 28.89 in978.3 mb 0.00 in0.0 mm 0.00 in0.0 mm 0.14 in3.6 mm
07:49 AM 48.4°F9.1°C 43.1°F6.2°C 82% 12.1 mph S19.5 kmh S 19.0 mph30.6 kmh 28.89 in978.3 mb 0.00 in0.0 mm 0.00 in0.0 mm 0.14 in3.6 mm
07:50 AM 48.4°F9.1°C 43.1°F6.2°C 82% 11.4 mph S18.3 kmh S 19.0 mph30.6 kmh 28.89 in978.3 mb 0.00 in0.0 mm 0.00 in0.0 mm 0.14 in3.6 mm
07:51 AM 48.4°F9.1°C 43.1°F6.2°C 82% 12.1 mph S19.5 kmh S 19.0 mph30.6 kmh 28.89 in978.3 mb 0.00 in0.0 mm 0.00 in0.0 mm 0.14 in3.6 mm
07:52 AM 48.4°F9.1°C 43.1°F6.2°C 82% 12.1 mph SSE19.5 kmh SSE 19.0 mph30.6 kmh 28.89 in978.3 mb 0.00 in0.0 mm 0.00 in0.0 mm 0.14 in3.6 mm
07:53 AM 48.6°F9.2°C 43.3°F6.3°C 82% 10.7 mph SSE17.2 kmh SSE 19.0 mph30.6 kmh 28.89 in978.3 mb 0.00 in0.0 mm 0.00 in0.0 mm 0.14 in3.6 mm
07:54 AM 48.6°F9.2°C 43.3°F6.3°C 82% 11.4 mph SSE18.3 kmh SSE 19.0 mph30.6 kmh 28.89 in978.3 mb 0.00 in0.0 mm 0.00 in0.0 mm 0.14 in3.6 mm
07:55 AM 48.6°F9.2°C 43.3°F6.3°C 82% 11.4 mph SE18.3 kmh SE 19.0 mph30.6 kmh 28.89 in978.3 mb 0.00 in0.0 mm 0.00 in0.0 mm 0.14 in3.6 mm
07:56 AM 48.6°F9.2°C 43.3°F6.3°C 82% 13.0 mph SSE20.9 kmh SSE 21.3 mph34.3 kmh 28.89 in978.3 mb 0.00 in0.0 mm 0.00 in0.0 mm 0.14 in3.6 mm
07:57 AM 48.6°F9.2°C 43.3°F6.3°C 82% 13.0 mph SSE20.9 kmh SSE 21.3 mph34.3 kmh 28.89 in978.3 mb 0.00 in0.0 mm 0.00 in0.0 mm 0.14 in3.6 mm
07:58 AM 48.6°F9.2°C 43.3°F6.3°C 82% 13.0 mph SE20.9 kmh SE 21.3 mph34.3 kmh 28.89 in978.3 mb 0.00 in0.0 mm 0.00 in0.0 mm 0.14 in3.6 mm
07:59 AM 48.6°F9.2°C 43.3°F6.3°C 82% 12.1 mph SE19.5 kmh SE 21.3 mph34.3 kmh 28.89 in978.3 mb 0.00 in0.0 mm 0.00 in0.0 mm 0.14 in3.6 mm
08:00 AM 48.6°F9.2°C 43.3°F6.3°C 82% 13.0 mph SE20.9 kmh SE 21.3 mph34.3 kmh 28.90 in978.7 mb 0.00 in0.0 mm 0.00 in0.0 mm 0.14 in3.6 mm
08:01 AM 48.6°F9.2°C 43.3°F6.3°C 82% 10.7 mph SE17.2 kmh SE 21.3 mph34.3 kmh 28.89 in978.3 mb 0.00 in0.0 mm 0.00 in0.0 mm 0.14 in3.6 mm
08:02 AM 48.6°F9.2°C 43.3°F6.3°C 82% 10.7 mph SE17.2 kmh SE 21.3 mph34.3 kmh 28.89 in978.3 mb 0.00 in0.0 mm 0.00 in0.0 mm 0.14 in3.6 mm
08:03 AM 48.6°F9.2°C 43.3°F6.3°C 82% 10.7 mph SE17.2 kmh SE 21.3 mph34.3 kmh 28.90 in978.7 mb 0.00 in0.0 mm 0.00 in0.0 mm 0.14 in3.6 mm
08:04 AM 48.6°F9.2°C 43.3°F6.3°C 82% 10.7 mph SE17.2 kmh SE 21.3 mph34.3 kmh 28.90 in978.7 mb 0.00 in0.0 mm 0.00 in0.0 mm 0.14 in3.6 mm
08:05 AM 48.6°F9.2°C 43.3°F6.3°C 82% 10.7 mph SE17.2 kmh SE 21.3 mph34.3 kmh 28.90 in978.7 mb 0.00 in0.0 mm 0.00 in0.0 mm 0.14 in3.6 mm
08:06 AM 48.6°F9.2°C 43.3°F6.3°C 82% 10.7 mph SE17.2 kmh SE 20.6 mph33.2 kmh 28.89 in978.3 mb 0.00 in0.0 mm 0.00 in0.0 mm 0.14 in3.6 mm
08:07 AM 48.6°F9.2°C 43.0°F6.1°C 81% 9.2 mph SE14.8 kmh SE 20.6 mph33.2 kmh 28.90 in978.7 mb 0.00 in0.0 mm 0.00 in0.0 mm 0.14 in3.6 mm
08:08 AM 48.6°F9.2°C 43.0°F6.1°C 81% 11.4 mph SE18.3 kmh SE 20.6 mph33.2 kmh 28.89 in978.3 mb 0.00 in0.0 mm 0.00 in0.0 mm 0.14 in3.6 mm
08:09 AM 48.6°F9.2°C 43.0°F6.1°C 81% 11.4 mph SE18.3 kmh SE 20.6 mph33.2 kmh 28.90 in978.7 mb 0.00 in0.0 mm 0.00 in0.0 mm 0.14 in3.6 mm
08:10 AM 48.6°F9.2°C 43.3°F6.3°C 82% 10.7 mph SE17.2 kmh SE 15.2 mph24.5 kmh 28.90 in978.7 mb 0.00 in0.0 mm 0.00 in0.0 mm 0.14 in3.6 mm
08:11 AM 48.6°F9.2°C 43.3°F6.3°C 82% 10.7 mph SE17.2 kmh SE 15.2 mph24.5 kmh 28.90 in978.7 mb 0.00 in0.0 mm 0.00 in0.0 mm 0.14 in3.6 mm
08:12 AM 48.6°F9.2°C 43.3°F6.3°C 82% 9.8 mph SE15.8 kmh SE 15.2 mph24.5 kmh 28.90 in978.7 mb 0.00 in0.0 mm 0.00 in0.0 mm 0.14 in3.6 mm
08:13 AM 48.4°F9.1°C 43.1°F6.2°C 82% 9.2 mph SE14.8 kmh SE 15.2 mph24.5 kmh 28.90 in978.7 mb 0.00 in0.0 mm 0.00 in0.0 mm 0.14 in3.6 mm
08:14 AM 48.4°F9.1°C 43.1°F6.2°C 82% 10.7 mph SE17.2 kmh SE 15.2 mph24.5 kmh 28.90 in978.7 mb 0.00 in0.0 mm 0.00 in0.0 mm 0.14 in3.6 mm
08:15 AM 48.4°F9.1°C 43.1°F6.2°C 82% 10.7 mph SE17.2 kmh SE 15.2 mph24.5 kmh 28.90 in978.7 mb 0.00 in0.0 mm 0.00 in0.0 mm 0.14 in3.6 mm
08:16 AM 48.4°F9.1°C 43.1°F6.2°C 82% 7.6 mph SE12.2 kmh SE 15.2 mph24.5 kmh 28.90 in978.7 mb 0.00 in0.0 mm 0.00 in0.0 mm 0.14 in3.6 mm
08:17 AM 48.4°F9.1°C 43.1°F6.2°C 82% 9.8 mph SSE15.8 kmh SSE 15.2 mph24.5 kmh 28.90 in978.7 mb 0.00 in0.0 mm 0.00 in0.0 mm 0.14 in3.6 mm
08:18 AM 48.4°F9.1°C 43.1°F6.2°C 82% 9.2 mph SSE14.8 kmh SSE 14.5 mph23.3 kmh 28.91 in979.0 mb 0.00 in0.0 mm 0.00 in0.0 mm 0.14 in3.6 mm
08:19 AM 48.4°F9.1°C 43.1°F6.2°C 82% 9.2 mph SSE14.8 kmh SSE 14.5 mph23.3 kmh 28.90 in978.7 mb 0.00 in0.0 mm 0.00 in0.0 mm 0.14 in3.6 mm
08:20 AM 48.4°F9.1°C 43.1°F6.2°C 82% 9.2 mph SSE14.8 kmh SSE 14.5 mph23.3 kmh 28.90 in978.7 mb 0.00 in0.0 mm 0.00 in0.0 mm 0.14 in3.6 mm
08:21 AM 48.4°F9.1°C 43.5°F6.4°C 83% 9.8 mph SSE15.8 kmh SSE 15.2 mph24.5 kmh 28.90 in978.7 mb 0.00 in0.0 mm 0.00 in0.0 mm 0.14 in3.6 mm
08:22 AM 48.4°F9.1°C 43.5°F6.4°C 83% 9.8 mph SSE15.8 kmh SSE 15.2 mph24.5 kmh 28.91 in979.0 mb 0.00 in0.0 mm 0.00 in0.0 mm 0.14 in3.6 mm
08:23 AM 48.2°F9.0°C 43.3°F6.3°C 83% 10.7 mph SE17.2 kmh SE 15.2 mph24.5 kmh 28.90 in978.7 mb 0.00 in0.0 mm 0.00 in0.0 mm 0.14 in3.6 mm
08:24 AM 48.2°F9.0°C 43.3°F6.3°C 83% 9.8 mph SE15.8 kmh SE 15.2 mph24.5 kmh 28.91 in979.0 mb 0.00 in0.0 mm 0.00 in0.0 mm 0.14 in3.6 mm
08:25 AM 48.2°F9.0°C 43.3°F6.3°C 83% 9.2 mph SE14.8 kmh SE 15.2 mph24.5 kmh 28.91 in979.0 mb 0.00 in0.0 mm 0.00 in0.0 mm 0.14 in3.6 mm
08:26 AM 48.2°F9.0°C 43.3°F6.3°C 83% 9.8 mph SE15.8 kmh SE 15.2 mph24.5 kmh 28.91 in979.0 mb 0.00 in0.0 mm 0.00 in0.0 mm 0.14 in3.6 mm
08:27 AM 48.2°F9.0°C 43.3°F6.3°C 83% 11.4 mph SE18.3 kmh SE 18.3 mph29.5 kmh 28.91 in979.0 mb 0.00 in0.0 mm 0.00 in0.0 mm 0.14 in3.6 mm
08:28 AM 48.2°F9.0°C 43.3°F6.3°C 83% 10.7 mph SE17.2 kmh SE 18.3 mph29.5 kmh 28.91 in979.0 mb 0.00 in0.0 mm 0.00 in0.0 mm 0.14 in3.6 mm
08:29 AM 48.2°F9.0°C 43.3°F6.3°C 83% 12.1 mph SE19.5 kmh SE 18.3 mph29.5 kmh 28.91 in979.0 mb 0.00 in0.0 mm 0.00 in0.0 mm 0.14 in3.6 mm
08:30 AM 48.2°F9.0°C 43.3°F6.3°C 83% 12.1 mph SE19.5 kmh SE 21.3 mph34.3 kmh 28.91 in979.0 mb 0.00 in0.0 mm 0.00 in0.0 mm 0.14 in3.6 mm
08:31 AM 48.2°F9.0°C 43.3°F6.3°C 83% 10.7 mph SSE17.2 kmh SSE 21.3 mph34.3 kmh 28.91 in979.0 mb 0.00 in0.0 mm 0.00 in0.0 mm 0.14 in3.6 mm
08:32 AM 48.2°F9.0°C 43.3°F6.3°C 83% 10.7 mph SSE17.2 kmh SSE 21.3 mph34.3 kmh 28.91 in979.0 mb 0.00 in0.0 mm 0.00 in0.0 mm 0.14 in3.6 mm
08:33 AM 48.2°F9.0°C 43.3°F6.3°C 83% 13.0 mph SSE20.9 kmh SSE 21.3 mph34.3 kmh 28.91 in979.0 mb 0.00 in0.0 mm 0.00 in0.0 mm 0.14 in3.6 mm
08:34 AM 48.2°F9.0°C 43.3°F6.3°C 83% 12.1 mph S19.5 kmh S 21.3 mph34.3 kmh 28.91 in979.0 mb 0.00 in0.0 mm 0.00 in0.0 mm 0.14 in3.6 mm
08:35 AM 48.2°F9.0°C 43.3°F6.3°C 83% 11.4 mph S18.3 kmh S 21.3 mph34.3 kmh 28.91 in979.0 mb 0.00 in0.0 mm 0.00 in0.0 mm 0.14 in3.6 mm
08:36 AM 48.2°F9.0°C 43.3°F6.3°C 83% 9.2 mph S14.8 kmh S 21.3 mph34.3 kmh 28.91 in979.0 mb 0.00 in0.0 mm 0.00 in0.0 mm 0.14 in3.6 mm
08:37 AM 48.2°F9.0°C 43.3°F6.3°C 83% 11.4 mph SSE18.3 kmh SSE 21.3 mph34.3 kmh 28.91 in979.0 mb 0.00 in0.0 mm 0.00 in0.0 mm 0.14 in3.6 mm
08:38 AM 48.2°F9.0°C 43.3°F6.3°C 83% 12.1 mph SSE19.5 kmh SSE 21.3 mph34.3 kmh 28.92 in979.3 mb 0.00 in0.0 mm 0.00 in0.0 mm 0.14 in3.6 mm
08:39 AM 48.2°F9.0°C 43.3°F6.3°C 83% 10.7 mph SSE17.2 kmh SSE 21.3 mph34.3 kmh 28.91 in979.0 mb 0.00 in0.0 mm 0.00 in0.0 mm 0.14 in3.6 mm
08:40 AM 48.4°F9.1°C 43.5°F6.4°C 83% 13.0 mph SE20.9 kmh SE 21.3 mph34.3 kmh 28.92 in979.3 mb 0.00 in0.0 mm 0.00 in0.0 mm 0.14 in3.6 mm
08:41 AM 48.4°F9.1°C 43.5°F6.4°C 83% 10.7 mph SE17.2 kmh SE 18.3 mph29.5 kmh 28.92 in979.3 mb 0.00 in0.0 mm 0.00 in0.0 mm 0.14 in3.6 mm
08:42 AM 48.4°F9.1°C 43.5°F6.4°C 83% 14.5 mph SSE23.3 kmh SSE 19.0 mph30.6 kmh 28.92 in979.3 mb 0.00 in0.0 mm 0.00 in0.0 mm 0.14 in3.6 mm
08:43 AM 48.4°F9.1°C 43.5°F6.4°C 83% 9.8 mph SSE15.8 kmh SSE 19.0 mph30.6 kmh 28.92 in979.3 mb 0.00 in0.0 mm 0.00 in0.0 mm 0.14 in3.6 mm
08:44 AM 48.6°F9.2°C 43.3°F6.3°C 82% 8.3 mph SE13.4 kmh SE 19.0 mph30.6 kmh 28.92 in979.3 mb 0.00 in0.0 mm 0.00 in0.0 mm 0.14 in3.6 mm
08:45 AM 48.6°F9.2°C 43.3°F6.3°C 82% 10.7 mph SE17.2 kmh SE 19.0 mph30.6 kmh 28.92 in979.3 mb 0.00 in0.0 mm 0.00 in0.0 mm 0.14 in3.6 mm
08:46 AM 48.6°F9.2°C 43.3°F6.3°C 82% 12.1 mph SE19.5 kmh SE 19.0 mph30.6 kmh 28.93 in979.7 mb 0.00 in0.0 mm 0.00 in0.0 mm 0.14 in3.6 mm
08:47 AM 48.6°F9.2°C 43.3°F6.3°C 82% 9.2 mph SSE14.8 kmh SSE 19.0 mph30.6 kmh 28.93 in979.7 mb 0.00 in0.0 mm 0.00 in0.0 mm 0.14 in3.6 mm
08:48 AM 48.6°F9.2°C 43.3°F6.3°C 82% 8.3 mph SSE13.4 kmh SSE 19.0 mph30.6 kmh 28.93 in979.7 mb 0.00 in0.0 mm 0.00 in0.0 mm 0.14 in3.6 mm
08:49 AM 48.6°F9.2°C 43.3°F6.3°C 82% 9.2 mph SSE14.8 kmh SSE 19.0 mph30.6 kmh 28.93 in979.7 mb 0.00 in0.0 mm 0.00 in0.0 mm 0.14 in3.6 mm
08:50 AM 48.6°F9.2°C 43.0°F6.1°C 81% 9.8 mph S15.8 kmh S 19.0 mph30.6 kmh 28.93 in979.7 mb 0.00 in0.0 mm 0.00 in0.0 mm 0.14 in3.6 mm
08:51 AM 48.6°F9.2°C 43.0°F6.1°C 81% 9.8 mph S15.8 kmh S 19.0 mph30.6 kmh 28.93 in979.7 mb 0.00 in0.0 mm 0.00 in0.0 mm 0.14 in3.6 mm
08:52 AM 48.7°F9.3°C 43.2°F6.2°C 81% 11.4 mph S18.3 kmh S 19.0 mph30.6 kmh 28.93 in979.7 mb 0.00 in0.0 mm 0.00 in0.0 mm 0.14 in3.6 mm
08:53 AM 48.9°F9.4°C 43.3°F6.3°C 81% 10.7 mph SSE17.2 kmh SSE 18.3 mph29.5 kmh 28.93 in979.7 mb 0.00 in0.0 mm 0.00 in0.0 mm 0.14 in3.6 mm
08:54 AM 48.9°F9.4°C 43.3°F6.3°C 81% 12.1 mph SSE19.5 kmh SSE 19.7 mph31.7 kmh 28.93 in979.7 mb 0.00 in0.0 mm 0.00 in0.0 mm 0.14 in3.6 mm
08:55 AM 48.9°F9.4°C 43.0°F6.1°C 80% 9.8 mph SSE15.8 kmh SSE 19.7 mph31.7 kmh 28.93 in979.7 mb 0.00 in0.0 mm 0.00 in0.0 mm 0.14 in3.6 mm
08:56 AM 48.9°F9.4°C 43.0°F6.1°C 80% 8.3 mph S13.4 kmh S 19.7 mph31.7 kmh 28.93 in979.7 mb 0.00 in0.0 mm 0.00 in0.0 mm 0.14 in3.6 mm
08:57 AM 48.9°F9.4°C 43.0°F6.1°C 80% 7.6 mph SSE12.2 kmh SSE 19.7 mph31.7 kmh 28.93 in979.7 mb 0.00 in0.0 mm 0.00 in0.0 mm 0.14 in3.6 mm
08:58 AM 49.1°F9.5°C 43.2°F6.2°C 80% 7.6 mph S12.2 kmh S 19.7 mph31.7 kmh 28.93 in979.7 mb 0.00 in0.0 mm 0.00 in0.0 mm 0.14 in3.6 mm
08:59 AM 49.1°F9.5°C 43.2°F6.2°C 80% 10.7 mph S17.2 kmh S 19.7 mph31.7 kmh 28.93 in979.7 mb 0.01 in0.3 mm 0.60 in15.2 mm 0.15 in3.8 mm
09:00 AM 49.1°F9.5°C 43.2°F6.2°C 80% 13.6 mph S21.9 kmh S 19.7 mph31.7 kmh 28.93 in979.7 mb 0.01 in0.3 mm 0.00 in0.0 mm 0.15 in3.8 mm
09:01 AM 49.1°F9.5°C 42.9°F6.1°C 79% 15.2 mph SSE24.5 kmh SSE 19.7 mph31.7 kmh 28.93 in979.7 mb 0.01 in0.3 mm 0.00 in0.0 mm 0.15 in3.8 mm
09:02 AM 49.3°F9.6°C 42.7°F5.9°C 78% 13.6 mph SE21.9 kmh SE 19.7 mph31.7 kmh 28.93 in979.7 mb 0.01 in0.3 mm 0.00 in0.0 mm 0.15 in3.8 mm
09:03 AM 49.3°F9.6°C 42.7°F5.9°C 78% 14.5 mph SSE23.3 kmh SSE 19.7 mph31.7 kmh 28.93 in979.7 mb 0.01 in0.3 mm 0.00 in0.0 mm 0.15 in3.8 mm
09:04 AM 49.3°F9.6°C 42.7°F5.9°C 78% 18.3 mph SSE29.5 kmh SSE 23.5 mph37.8 kmh 28.93 in979.7 mb 0.01 in0.3 mm 0.00 in0.0 mm 0.15 in3.8 mm
09:05 AM 49.5°F9.7°C 42.5°F5.8°C 77% 10.7 mph SE17.2 kmh SE 23.5 mph37.8 kmh 28.93 in979.7 mb 0.01 in0.3 mm 0.00 in0.0 mm 0.15 in3.8 mm
09:06 AM 49.5°F9.7°C 42.5°F5.8°C 77% 9.2 mph SE14.8 kmh SE 23.5 mph37.8 kmh 28.94 in980.0 mb 0.01 in0.3 mm 0.00 in0.0 mm 0.15 in3.8 mm
09:07 AM 49.5°F9.7°C 42.5°F5.8°C 77% 9.2 mph SE14.8 kmh SE 23.5 mph37.8 kmh 28.94 in980.0 mb 0.01 in0.3 mm 0.00 in0.0 mm 0.15 in3.8 mm
09:08 AM 49.5°F9.7°C 42.5°F5.8°C 77% 14.5 mph SE23.3 kmh SE 23.5 mph37.8 kmh 28.93 in979.7 mb 0.01 in0.3 mm 0.00 in0.0 mm 0.15 in3.8 mm
09:09 AM 49.6°F9.8°C 42.4°F5.8°C 76% 9.2 mph SE14.8 kmh SE 23.5 mph37.8 kmh 28.94 in980.0 mb 0.01 in0.3 mm 0.00 in0.0 mm 0.15 in3.8 mm
09:10 AM 49.6°F9.8°C 42.4°F5.8°C 76% 12.1 mph SE19.5 kmh SE 23.5 mph37.8 kmh 28.94 in980.0 mb 0.01 in0.3 mm 0.00 in0.0 mm 0.15 in3.8 mm
09:11 AM 49.6°F9.8°C 42.4°F5.8°C 76% 9.8 mph SE15.8 kmh SE 23.5 mph37.8 kmh 28.94 in980.0 mb 0.01 in0.3 mm 0.00 in0.0 mm 0.15 in3.8 mm
09:12 AM 49.8°F9.9°C 42.6°F5.9°C 76% 11.4 mph SE18.3 kmh SE 23.5 mph37.8 kmh 28.94 in980.0 mb 0.01 in0.3 mm 0.00 in0.0 mm 0.15 in3.8 mm
09:13 AM 49.8°F9.9°C 42.2°F5.7°C 75% 9.8 mph SE15.8 kmh SE 23.5 mph37.8 kmh 28.94 in980.0 mb 0.01 in0.3 mm 0.00 in0.0 mm 0.15 in3.8 mm
09:14 AM 49.8°F9.9°C 42.2°F5.7°C 75% 11.4 mph SE18.3 kmh SE 20.6 mph33.2 kmh 28.94 in980.0 mb 0.01 in0.3 mm 0.00 in0.0 mm 0.15 in3.8 mm
09:15 AM 50.0°F10.0°C 42.4°F5.8°C 75% 10.7 mph SE17.2 kmh SE 20.6 mph33.2 kmh 28.94 in980.0 mb 0.01 in0.3 mm 0.00 in0.0 mm 0.15 in3.8 mm
09:16 AM 50.0°F10.0°C 42.4°F5.8°C 75% 10.7 mph SSE17.2 kmh SSE 20.6 mph33.2 kmh 28.94 in980.0 mb 0.01 in0.3 mm 0.00 in0.0 mm 0.15 in3.8 mm
09:17 AM 50.0°F10.0°C 42.4°F5.8°C 75% 13.6 mph SSE21.9 kmh SSE 20.6 mph33.2 kmh 28.94 in980.0 mb 0.01 in0.3 mm 0.00 in0.0 mm 0.15 in3.8 mm
09:18 AM 50.0°F10.0°C 42.4°F5.8°C 75% 11.4 mph SSE18.3 kmh SSE 20.6 mph33.2 kmh 28.94 in980.0 mb 0.01 in0.3 mm 0.00 in0.0 mm 0.15 in3.8 mm
09:19 AM 50.0°F10.0°C 42.0°F5.6°C 74% 13.0 mph SSE20.9 kmh SSE 18.3 mph29.5 kmh 28.95 in980.4 mb 0.01 in0.3 mm 0.00 in0.0 mm 0.15 in3.8 mm
09:20 AM 50.0°F10.0°C 42.0°F5.6°C 74% 7.6 mph SSE12.2 kmh SSE 18.3 mph29.5 kmh 28.95 in980.4 mb 0.01 in0.3 mm 0.00 in0.0 mm 0.15 in3.8 mm
09:21 AM 50.0°F10.0°C 42.0°F5.6°C 74% 13.0 mph S20.9 kmh S 18.3 mph29.5 kmh 28.94 in980.0 mb 0.01 in0.3 mm 0.00 in0.0 mm 0.15 in3.8 mm
09:22 AM 50.0°F10.0°C 42.0°F5.6°C 74% 11.4 mph S18.3 kmh S 18.3 mph29.5 kmh 28.95 in980.4 mb 0.01 in0.3 mm 0.00 in0.0 mm 0.15 in3.8 mm
09:23 AM 50.0°F10.0°C 42.0°F5.6°C 74% 10.7 mph S17.2 kmh S 18.3 mph29.5 kmh 28.94 in980.0 mb 0.01 in0.3 mm 0.00 in0.0 mm 0.15 in3.8 mm
09:24 AM 50.0°F10.0°C 42.0°F5.6°C 74% 11.4 mph S18.3 kmh S 18.3 mph29.5 kmh 28.95 in980.4 mb 0.01 in0.3 mm 0.00 in0.0 mm 0.15 in3.8 mm
09:25 AM 50.0°F10.0°C 42.0°F5.6°C 74% 9.8 mph S15.8 kmh S 18.3 mph29.5 kmh 28.95 in980.4 mb 0.01 in0.3 mm 0.00 in0.0 mm 0.15 in3.8 mm
09:26 AM 50.0°F10.0°C 42.0°F5.6°C 74% 15.9 mph S25.6 kmh S 21.3 mph34.3 kmh 28.95 in980.4 mb 0.01 in0.3 mm 0.00 in0.0 mm 0.15 in3.8 mm
09:27 AM 50.0°F10.0°C 41.7°F5.4°C 73% 16.8 mph SSE27.0 kmh SSE 22.8 mph36.7 kmh 28.95 in980.4 mb 0.01 in0.3 mm 0.00 in0.0 mm 0.15 in3.8 mm
09:28 AM 50.2°F10.1°C 41.9°F5.5°C 73% 12.1 mph SSE19.5 kmh SSE 22.8 mph36.7 kmh 28.95 in980.4 mb 0.01 in0.3 mm 0.00 in0.0 mm 0.15 in3.8 mm
09:29 AM 50.2°F10.1°C 41.9°F5.5°C 73% 12.1 mph SSE19.5 kmh SSE 22.8 mph36.7 kmh 28.95 in980.4 mb 0.01 in0.3 mm 0.00 in0.0 mm 0.15 in3.8 mm
09:30 AM 50.2°F10.1°C 41.9°F5.5°C 73% 8.3 mph SSE13.4 kmh SSE 22.8 mph36.7 kmh 28.95 in980.4 mb 0.01 in0.3 mm 0.00 in0.0 mm 0.15 in3.8 mm
09:31 AM 50.2°F10.1°C 41.9°F5.5°C 73% 6.9 mph SE11.1 kmh SE 22.8 mph36.7 kmh 28.95 in980.4 mb 0.01 in0.3 mm 0.00 in0.0 mm 0.15 in3.8 mm
09:32 AM 50.2°F10.1°C 41.9°F5.5°C 73% 13.6 mph SE21.9 kmh SE 22.8 mph36.7 kmh 28.95 in980.4 mb 0.01 in0.3 mm 0.00 in0.0 mm 0.15 in3.8 mm
09:33 AM 50.2°F10.1°C 41.9°F5.5°C 73% 10.7 mph SSE17.2 kmh SSE 22.8 mph36.7 kmh 28.95 in980.4 mb 0.01 in0.3 mm 0.00 in0.0 mm 0.15 in3.8 mm
09:34 AM 50.2°F10.1°C 41.9°F5.5°C 73% 10.7 mph SSE17.2 kmh SSE 22.8 mph36.7 kmh 28.95 in980.4 mb 0.01 in0.3 mm 0.00 in0.0 mm 0.15 in3.8 mm
09:35 AM 50.2°F10.1°C 41.9°F5.5°C 73% 9.8 mph SSE15.8 kmh SSE 22.8 mph36.7 kmh 28.95 in980.4 mb 0.01 in0.3 mm 0.00 in0.0 mm 0.15 in3.8 mm
09:36 AM 50.2°F10.1°C 41.9°F5.5°C 73% 8.3 mph S13.4 kmh S 22.8 mph36.7 kmh 28.95 in980.4 mb 0.01 in0.3 mm 0.00 in0.0 mm 0.15 in3.8 mm
09:37 AM 50.2°F10.1°C 41.9°F5.5°C 73% 8.3 mph S13.4 kmh S 22.8 mph36.7 kmh 28.95 in980.4 mb 0.01 in0.3 mm 0.00 in0.0 mm 0.15 in3.8 mm
09:38 AM 50.2°F10.1°C 41.9°F5.5°C 73% 8.3 mph S13.4 kmh S 19.0 mph30.6 kmh 28.95 in980.4 mb 0.01 in0.3 mm 0.00 in0.0 mm 0.15 in3.8 mm
09:39 AM 50.2°F10.1°C 41.9°F5.5°C 73% 9.8 mph SSW15.8 kmh SSW 19.0 mph30.6 kmh 28.95 in980.4 mb 0.01 in0.3 mm 0.00 in0.0 mm 0.15 in3.8 mm
09:40 AM 50.2°F10.1°C 41.9°F5.5°C 73% 13.0 mph SSW20.9 kmh SSW 19.0 mph30.6 kmh 28.95 in980.4 mb 0.01 in0.3 mm 0.00 in0.0 mm 0.15 in3.8 mm
09:41 AM 50.2°F10.1°C 41.9°F5.5°C 73% 13.0 mph SSW20.9 kmh SSW 19.0 mph30.6 kmh 28.95 in980.4 mb 0.01 in0.3 mm 0.00 in0.0 mm 0.15 in3.8 mm
09:42 AM 50.2°F10.1°C 41.9°F5.5°C 73% 12.1 mph S19.5 kmh S 19.0 mph30.6 kmh 28.95 in980.4 mb 0.01 in0.3 mm 0.00 in0.0 mm 0.15 in3.8 mm
09:43 AM 50.2°F10.1°C 41.9°F5.5°C 73% 11.4 mph S18.3 kmh S 18.3 mph29.5 kmh 28.95 in980.4 mb 0.01 in0.3 mm 0.00 in0.0 mm 0.15 in3.8 mm
09:44 AM 50.2°F10.1°C 41.9°F5.5°C 73% 9.8 mph SSW15.8 kmh SSW 18.3 mph29.5 kmh 28.96 in980.7 mb 0.01 in0.3 mm 0.00 in0.0 mm 0.15 in3.8 mm
09:45 AM 50.2°F10.1°C 41.9°F5.5°C 73% 11.4 mph S18.3 kmh S 18.3 mph29.5 kmh 28.96 in980.7 mb 0.01 in0.3 mm 0.00 in0.0 mm 0.15 in3.8 mm
09:46 AM 50.2°F10.1°C 41.9°F5.5°C 73% 10.7 mph S17.2 kmh S 18.3 mph29.5 kmh 28.95 in980.4 mb 0.01 in0.3 mm 0.00 in0.0 mm 0.15 in3.8 mm
09:47 AM 50.2°F10.1°C 41.9°F5.5°C 73% 6.9 mph S11.1 kmh S 18.3 mph29.5 kmh 28.96 in980.7 mb 0.01 in0.3 mm 0.00 in0.0 mm 0.15 in3.8 mm
09:48 AM 50.2°F10.1°C 41.9°F5.5°C 73% 9.8 mph S15.8 kmh S 18.3 mph29.5 kmh 28.96 in980.7 mb 0.01 in0.3 mm 0.00 in0.0 mm 0.15 in3.8 mm
09:49 AM 50.2°F10.1°C 41.9°F5.5°C 73% 9.2 mph S14.8 kmh S 18.3 mph29.5 kmh 28.96 in980.7 mb 0.01 in0.3 mm 0.00 in0.0 mm 0.15 in3.8 mm
09:50 AM 50.2°F10.1°C 41.9°F5.5°C 73% 9.8 mph S15.8 kmh S 18.3 mph29.5 kmh 28.96 in980.7 mb 0.01 in0.3 mm 0.00 in0.0 mm 0.15 in3.8 mm
09:51 AM 50.2°F10.1°C 41.9°F5.5°C 73% 9.8 mph S15.8 kmh S 18.3 mph29.5 kmh 28.96 in980.7 mb 0.01 in0.3 mm 0.00 in0.0 mm 0.15 in3.8 mm
09:52 AM 50.2°F10.1°C 41.9°F5.5°C 73% 9.2 mph SSE14.8 kmh SSE 18.3 mph29.5 kmh 28.96 in980.7 mb 0.01 in0.3 mm 0.00 in0.0 mm 0.15 in3.8 mm
09:53 AM 50.4°F10.2°C 42.0°F5.6°C 73% 11.4 mph SSE18.3 kmh SSE 15.9 mph25.6 kmh 28.95 in980.4 mb 0.01 in0.3 mm 0.00 in0.0 mm 0.15 in3.8 mm
09:54 AM 50.4°F10.2°C 42.0°F5.6°C 73% 9.2 mph SSE14.8 kmh SSE 15.9 mph25.6 kmh 28.96 in980.7 mb 0.01 in0.3 mm 0.00 in0.0 mm 0.15 in3.8 mm
09:55 AM 50.4°F10.2°C 42.0°F5.6°C 73% 10.7 mph SSE17.2 kmh SSE 15.9 mph25.6 kmh 28.96 in980.7 mb 0.01 in0.3 mm 0.00 in0.0 mm 0.15 in3.8 mm
09:56 AM 50.4°F10.2°C 42.0°F5.6°C 73% 12.1 mph SE19.5 kmh SE 15.9 mph25.6 kmh 28.96 in980.7 mb 0.01 in0.3 mm 0.00 in0.0 mm 0.15 in3.8 mm
09:57 AM 50.4°F10.2°C 42.0°F5.6°C 73% 10.7 mph SE17.2 kmh SE 15.9 mph25.6 kmh 28.96 in980.7 mb 0.01 in0.3 mm 0.00 in0.0 mm 0.15 in3.8 mm
09:58 AM 50.4°F10.2°C 42.0°F5.6°C 73% 10.7 mph SE17.2 kmh SE 15.9 mph25.6 kmh 28.96 in980.7 mb 0.01 in0.3 mm 0.00 in0.0 mm 0.15 in3.8 mm
09:59 AM 50.5°F10.3°C 42.2°F5.7°C 73% 9.8 mph SE15.8 kmh SE 15.9 mph25.6 kmh 28.96 in980.7 mb 0.00 in0.0 mm 0.00 in0.0 mm 0.15 in3.8 mm
10:00 AM 50.5°F10.3°C 42.2°F5.7°C 73% 13.6 mph SE21.9 kmh SE 22.1 mph35.6 kmh 28.96 in980.7 mb 0.00 in0.0 mm 0.00 in0.0 mm 0.15 in3.8 mm
10:01 AM 50.5°F10.3°C 42.2°F5.7°C 73% 13.6 mph SE21.9 kmh SE 22.1 mph35.6 kmh 28.96 in980.7 mb 0.00 in0.0 mm 0.00 in0.0 mm 0.15 in3.8 mm
10:02 AM 50.5°F10.3°C 42.2°F5.7°C 73% 13.6 mph SE21.9 kmh SE 22.1 mph35.6 kmh 28.96 in980.7 mb 0.00 in0.0 mm 0.00 in0.0 mm 0.15 in3.8 mm
10:03 AM 50.5°F10.3°C 42.2°F5.7°C 73% 13.6 mph SSE21.9 kmh SSE 22.1 mph35.6 kmh 28.96 in980.7 mb 0.00 in0.0 mm 0.00 in0.0 mm 0.15 in3.8 mm
10:04 AM 50.5°F10.3°C 42.2°F5.7°C 73% 13.6 mph SSE21.9 kmh SSE 22.1 mph35.6 kmh 28.96 in980.7 mb 0.00 in0.0 mm 0.00 in0.0 mm 0.15 in3.8 mm
10:05 AM 50.5°F10.3°C 42.2°F5.7°C 73% 13.6 mph SSE21.9 kmh SSE 22.1 mph35.6 kmh 28.96 in980.7 mb 0.00 in0.0 mm 0.00 in0.0 mm 0.15 in3.8 mm
10:06 AM 50.5°F10.3°C 42.2°F5.7°C 73% 13.6 mph S21.9 kmh S 22.1 mph35.6 kmh 28.96 in980.7 mb 0.00 in0.0 mm 0.00 in0.0 mm 0.15 in3.8 mm
10:07 AM 50.5°F10.3°C 42.2°F5.7°C 73% 10.7 mph S17.2 kmh S 22.1 mph35.6 kmh 28.96 in980.7 mb 0.00 in0.0 mm 0.00 in0.0 mm 0.15 in3.8 mm
10:08 AM 50.5°F10.3°C 42.2°F5.7°C 73% 10.7 mph S17.2 kmh S 22.1 mph35.6 kmh 28.96 in980.7 mb 0.00 in0.0 mm 0.00 in0.0 mm 0.15 in3.8 mm
10:09 AM 50.5°F10.3°C 42.2°F5.7°C 73% 11.4 mph S18.3 kmh S 22.1 mph35.6 kmh 28.96 in980.7 mb 0.00 in0.0 mm 0.00 in0.0 mm 0.15 in3.8 mm
10:10 AM 50.5°F10.3°C 42.2°F5.7°C 73% 11.4 mph S18.3 kmh S 22.1 mph35.6 kmh 28.96 in980.7 mb 0.00 in0.0 mm 0.00 in0.0 mm 0.15 in3.8 mm
10:11 AM 50.5°F10.3°C 42.2°F5.7°C 73% 13.6 mph S21.9 kmh S 22.1 mph35.6 kmh 28.96 in980.7 mb 0.00 in0.0 mm 0.00 in0.0 mm 0.15 in3.8 mm
10:12 AM 50.5°F10.3°C 42.2°F5.7°C 73% 13.6 mph SSW21.9 kmh SSW 22.1 mph35.6 kmh 28.96 in980.7 mb 0.00 in0.0 mm 0.00 in0.0 mm 0.15 in3.8 mm
10:13 AM 50.7°F10.4°C 42.4°F5.8°C 73% 9.2 mph SSW14.8 kmh SSW 22.1 mph35.6 kmh 28.96 in980.7 mb 0.00 in0.0 mm 0.00 in0.0 mm 0.15 in3.8 mm
10:14 AM 50.7°F10.4°C 42.4°F5.8°C 73% 9.2 mph SSW14.8 kmh SSW 22.1 mph35.6 kmh 28.96 in980.7 mb 0.00 in0.0 mm 0.00 in0.0 mm 0.15 in3.8 mm
10:15 AM 50.9°F10.5°C 42.6°F5.9°C 73% 12.1 mph SSW19.5 kmh SSW 22.1 mph35.6 kmh 28.96 in980.7 mb 0.00 in0.0 mm 0.00 in0.0 mm 0.15 in3.8 mm
10:16 AM 50.9°F10.5°C 42.6°F5.9°C 73% 9.8 mph SSW15.8 kmh SSW 22.1 mph35.6 kmh 28.96 in980.7 mb 0.00 in0.0 mm 0.00 in0.0 mm 0.15 in3.8 mm
10:17 AM 51.1°F10.6°C 43.1°F6.2°C 74% 9.8 mph SSW15.8 kmh SSW 19.7 mph31.7 kmh 28.96 in980.7 mb 0.00 in0.0 mm 0.00 in0.0 mm 0.15 in3.8 mm
10:18 AM 51.1°F10.6°C 43.1°F6.2°C 74% 7.6 mph S12.2 kmh S 19.7 mph31.7 kmh 28.97 in981.0 mb 0.00 in0.0 mm 0.00 in0.0 mm 0.15 in3.8 mm
10:19 AM 51.3°F10.7°C 43.3°F6.3°C 74% 9.8 mph S15.8 kmh S 19.7 mph31.7 kmh 28.97 in981.0 mb 0.00 in0.0 mm 0.00 in0.0 mm 0.15 in3.8 mm
10:20 AM 51.3°F10.7°C 43.3°F6.3°C 74% 7.6 mph S12.2 kmh S 19.7 mph31.7 kmh 28.97 in981.0 mb 0.00 in0.0 mm 0.00 in0.0 mm 0.15 in3.8 mm
10:21 AM 51.4°F10.8°C 43.1°F6.2°C 73% 8.3 mph S13.4 kmh S 19.7 mph31.7 kmh 28.97 in981.0 mb 0.00 in0.0 mm 0.00 in0.0 mm 0.15 in3.8 mm
10:22 AM 51.4°F10.8°C 43.1°F6.2°C 73% 11.4 mph SSE18.3 kmh SSE 15.9 mph25.6 kmh 28.97 in981.0 mb 0.00 in0.0 mm 0.00 in0.0 mm 0.15 in3.8 mm
10:23 AM 51.4°F10.8°C 43.1°F6.2°C 73% 9.2 mph SSE14.8 kmh SSE 15.9 mph25.6 kmh 28.97 in981.0 mb 0.00 in0.0 mm 0.00 in0.0 mm 0.15 in3.8 mm
10:24 AM 51.4°F10.8°C 43.1°F6.2°C 73% 9.2 mph SSE14.8 kmh SSE 15.9 mph25.6 kmh 28.97 in981.0 mb 0.00 in0.0 mm 0.00 in0.0 mm 0.15 in3.8 mm
10:25 AM 51.3°F10.7°C 42.9°F6.1°C 73% 13.6 mph S21.9 kmh S 17.4 mph28.0 kmh 28.97 in981.0 mb 0.00 in0.0 mm 0.00 in0.0 mm 0.15 in3.8 mm
10:26 AM 51.3°F10.7°C 42.9°F6.1°C 73% 12.1 mph SSE19.5 kmh SSE 19.7 mph31.7 kmh 28.98 in981.4 mb 0.00 in0.0 mm 0.00 in0.0 mm 0.15 in3.8 mm
10:27 AM 51.3°F10.7°C 42.9°F6.1°C 73% 10.7 mph SSE17.2 kmh SSE 19.7 mph31.7 kmh 28.97 in981.0 mb 0.00 in0.0 mm 0.00 in0.0 mm 0.15 in3.8 mm
10:28 AM 51.3°F10.7°C 42.9°F6.1°C 73% 11.4 mph SSE18.3 kmh SSE 19.7 mph31.7 kmh 28.97 in981.0 mb 0.00 in0.0 mm 0.00 in0.0 mm 0.15 in3.8 mm
10:29 AM 51.3°F10.7°C 42.9°F6.1°C 73% 11.4 mph SSE18.3 kmh SSE 21.3 mph34.3 kmh 28.97 in981.0 mb 0.00 in0.0 mm 0.00 in0.0 mm 0.15 in3.8 mm
10:30 AM 51.3°F10.7°C 42.9°F6.1°C 73% 10.7 mph S17.2 kmh S 21.3 mph34.3 kmh 28.97 in981.0 mb 0.00 in0.0 mm 0.00 in0.0 mm 0.15 in3.8 mm
10:31 AM 51.4°F10.8°C 43.1°F6.2°C 73% 11.4 mph S18.3 kmh S 21.3 mph34.3 kmh 28.97 in981.0 mb 0.00 in0.0 mm 0.00 in0.0 mm 0.15 in3.8 mm
10:32 AM 51.4°F10.8°C 43.1°F6.2°C 73% 11.4 mph S18.3 kmh S 21.3 mph34.3 kmh 28.97 in981.0 mb 0.00 in0.0 mm 0.00 in0.0 mm 0.15 in3.8 mm
10:33 AM 51.4°F10.8°C 42.7°F5.9°C 72% 9.8 mph SSE15.8 kmh SSE 21.3 mph34.3 kmh 28.97 in981.0 mb 0.00 in0.0 mm 0.00 in0.0 mm 0.15 in3.8 mm
10:34 AM 51.4°F10.8°C 42.7°F5.9°C 72% 14.5 mph SSE23.3 kmh SSE 21.3 mph34.3 kmh 28.97 in981.0 mb 0.00 in0.0 mm 0.00 in0.0 mm 0.15 in3.8 mm
10:35 AM 51.6°F10.9°C 42.9°F6.1°C 72% 11.4 mph SSE18.3 kmh SSE 21.3 mph34.3 kmh 28.98 in981.4 mb 0.00 in0.0 mm 0.00 in0.0 mm 0.15 in3.8 mm
10:36 AM 51.8°F11.0°C 43.1°F6.2°C 72% 11.4 mph S18.3 kmh S 21.3 mph34.3 kmh 28.97 in981.0 mb 0.00 in0.0 mm 0.00 in0.0 mm 0.15 in3.8 mm
10:37 AM 52.0°F11.1°C 43.2°F6.2°C 72% 11.4 mph S18.3 kmh S 21.3 mph34.3 kmh 28.97 in981.0 mb 0.00 in0.0 mm 0.00 in0.0 mm 0.15 in3.8 mm
10:38 AM 52.0°F11.1°C 43.2°F6.2°C 72% 11.4 mph S18.3 kmh S 21.3 mph34.3 kmh 28.97 in981.0 mb 0.00 in0.0 mm 0.00 in0.0 mm 0.15 in3.8 mm
10:39 AM 52.2°F11.2°C 43.0°F6.1°C 71% 13.6 mph SSE21.9 kmh SSE 21.3 mph34.3 kmh 28.98 in981.4 mb 0.00 in0.0 mm 0.00 in0.0 mm 0.15 in3.8 mm
10:40 AM 52.2°F11.2°C 43.0°F6.1°C 71% 15.2 mph SSE24.5 kmh SSE 19.0 mph30.6 kmh 28.98 in981.4 mb 0.00 in0.0 mm 0.00 in0.0 mm 0.15 in3.8 mm
10:41 AM 52.0°F11.1°C 42.5°F5.8°C 70% 13.6 mph SSE21.9 kmh SSE 19.7 mph31.7 kmh 28.98 in981.4 mb 0.00 in0.0 mm 0.00 in0.0 mm 0.15 in3.8 mm
10:42 AM 52.2°F11.2°C 42.7°F5.9°C 70% 13.0 mph S20.9 kmh S 19.7 mph31.7 kmh 28.98 in981.4 mb 0.00 in0.0 mm 0.00 in0.0 mm 0.15 in3.8 mm
10:43 AM 52.2°F11.2°C 42.7°F5.9°C 70% 14.5 mph S23.3 kmh S 19.7 mph31.7 kmh 28.98 in981.4 mb 0.00 in0.0 mm 0.00 in0.0 mm 0.15 in3.8 mm
10:44 AM 52.2°F11.2°C 42.7°F5.9°C 70% 12.1 mph S19.5 kmh S 19.7 mph31.7 kmh 28.98 in981.4 mb 0.00 in0.0 mm 0.00 in0.0 mm 0.15 in3.8 mm
10:45 AM 52.2°F11.2°C 42.7°F5.9°C 70% 9.2 mph S14.8 kmh S 19.7 mph31.7 kmh 28.98 in981.4 mb 0.00 in0.0 mm 0.00 in0.0 mm 0.15 in3.8 mm
10:46 AM 52.3°F11.3°C 42.8°F6.0°C 70% 7.6 mph S12.2 kmh S 19.7 mph31.7 kmh 28.98 in981.4 mb 0.00 in0.0 mm 0.00 in0.0 mm 0.15 in3.8 mm
10:47 AM 52.3°F11.3°C 42.8°F6.0°C 70% 10.7 mph SSE17.2 kmh SSE 19.7 mph31.7 kmh 28.98 in981.4 mb 0.00 in0.0 mm 0.00 in0.0 mm 0.15 in3.8 mm
10:48 AM 52.3°F11.3°C 42.8°F6.0°C 70% 9.8 mph S15.8 kmh S 19.7 mph31.7 kmh 28.98 in981.4 mb 0.00 in0.0 mm 0.00 in0.0 mm 0.15 in3.8 mm
10:49 AM 52.3°F11.3°C 42.8°F6.0°C 70% 11.4 mph S18.3 kmh S 19.7 mph31.7 kmh 28.98 in981.4 mb 0.00 in0.0 mm 0.00 in0.0 mm 0.15 in3.8 mm
10:50 AM 52.2°F11.2°C 42.7°F5.9°C 70% 11.4 mph SW18.3 kmh SW 19.7 mph31.7 kmh 28.98 in981.4 mb 0.00 in0.0 mm 0.00 in0.0 mm 0.15 in3.8 mm
10:51 AM 52.2°F11.2°C 42.7°F5.9°C 70% 11.4 mph SE18.3 kmh SE 19.7 mph31.7 kmh 28.98 in981.4 mb 0.00 in0.0 mm 0.00 in0.0 mm 0.15 in3.8 mm
10:52 AM 52.2°F11.2°C 42.7°F5.9°C 70% 11.4 mph SE18.3 kmh SE 17.4 mph28.0 kmh 28.98 in981.4 mb 0.00 in0.0 mm 0.00 in0.0 mm 0.15 in3.8 mm
10:53 AM 52.3°F11.3°C 42.8°F6.0°C 70% 9.2 mph ESE14.8 kmh ESE 17.4 mph28.0 kmh 28.98 in981.4 mb 0.00 in0.0 mm 0.00 in0.0 mm 0.15 in3.8 mm
10:54 AM 52.3°F11.3°C 42.8°F6.0°C 70% 9.2 mph SE14.8 kmh SE 16.8 mph27.0 kmh 28.99 in981.7 mb 0.00 in0.0 mm 0.00 in0.0 mm 0.15 in3.8 mm
10:55 AM 52.3°F11.3°C 42.8°F6.0°C 70% 9.2 mph E14.8 kmh E 15.2 mph24.5 kmh 28.98 in981.4 mb 0.00 in0.0 mm 0.00 in0.0 mm 0.15 in3.8 mm
10:56 AM 52.2°F11.2°C 42.3°F5.7°C 69% 13.0 mph ESE20.9 kmh ESE 19.7 mph31.7 kmh 28.98 in981.4 mb 0.00 in0.0 mm 0.00 in0.0 mm 0.15 in3.8 mm
10:57 AM 52.0°F11.1°C 41.7°F5.4°C 68% 13.6 mph ESE21.9 kmh ESE 19.7 mph31.7 kmh 28.98 in981.4 mb 0.00 in0.0 mm 0.00 in0.0 mm 0.15 in3.8 mm
10:58 AM 52.0°F11.1°C 41.7°F5.4°C 68% 10.7 mph ESE17.2 kmh ESE 19.7 mph31.7 kmh 28.98 in981.4 mb 0.00 in0.0 mm 0.00 in0.0 mm 0.15 in3.8 mm
10:59 AM 51.8°F11.0°C 41.6°F5.3°C 68% 12.1 mph SE19.5 kmh SE 19.7 mph31.7 kmh 28.99 in981.7 mb 0.00 in0.0 mm 0.00 in0.0 mm 0.15 in3.8 mm
11:00 AM 51.8°F11.0°C 41.6°F5.3°C 68% 13.6 mph SE21.9 kmh SE 19.7 mph31.7 kmh 28.98 in981.4 mb 0.00 in0.0 mm 0.00 in0.0 mm 0.15 in3.8 mm
11:01 AM 51.6°F10.9°C 41.0°F5.0°C 67% 16.8 mph ESE27.0 kmh ESE 19.7 mph31.7 kmh 28.99 in981.7 mb 0.00 in0.0 mm 0.00 in0.0 mm 0.15 in3.8 mm
11:02 AM 51.6°F10.9°C 41.0°F5.0°C 67% 13.0 mph SE20.9 kmh SE 19.7 mph31.7 kmh 28.99 in981.7 mb 0.00 in0.0 mm 0.00 in0.0 mm 0.15 in3.8 mm
11:03 AM 51.4°F10.8°C 40.8°F4.9°C 67% 14.5 mph SE23.3 kmh SE 19.7 mph31.7 kmh 28.99 in981.7 mb 0.00 in0.0 mm 0.00 in0.0 mm 0.15 in3.8 mm
11:04 AM 51.6°F10.9°C 41.4°F5.2°C 68% 9.2 mph SE14.8 kmh SE 19.7 mph31.7 kmh 28.99 in981.7 mb 0.00 in0.0 mm 0.00 in0.0 mm 0.15 in3.8 mm
11:05 AM 51.6°F10.9°C 41.8°F5.4°C 69% 12.1 mph SE19.5 kmh SE 19.7 mph31.7 kmh 28.99 in981.7 mb 0.00 in0.0 mm 0.00 in0.0 mm 0.15 in3.8 mm
11:06 AM 51.6°F10.9°C 41.8°F5.4°C 69% 7.6 mph ESE12.2 kmh ESE 19.7 mph31.7 kmh 28.99 in981.7 mb 0.00 in0.0 mm 0.00 in0.0 mm 0.15 in3.8 mm
11:07 AM 51.8°F11.0°C 41.9°F5.5°C 69% 7.6 mph ESE12.2 kmh ESE 19.7 mph31.7 kmh 28.99 in981.7 mb 0.00 in0.0 mm 0.00 in0.0 mm 0.15 in3.8 mm
11:08 AM 51.8°F11.0°C 41.9°F5.5°C 69% 15.2 mph ESE24.5 kmh ESE 23.5 mph37.8 kmh 28.99 in981.7 mb 0.00 in0.0 mm 0.00 in0.0 mm 0.15 in3.8 mm
11:09 AM 51.4°F10.8°C 41.6°F5.3°C 69% 15.2 mph ESE24.5 kmh ESE 23.5 mph37.8 kmh 28.99 in981.7 mb 0.00 in0.0 mm 0.00 in0.0 mm 0.15 in3.8 mm
11:10 AM 51.4°F10.8°C 41.6°F5.3°C 69% 14.5 mph ESE23.3 kmh ESE 23.5 mph37.8 kmh 28.99 in981.7 mb 0.00 in0.0 mm 0.00 in0.0 mm 0.15 in3.8 mm
11:11 AM 51.3°F10.7°C 41.4°F5.2°C 69% 12.1 mph ESE19.5 kmh ESE 23.5 mph37.8 kmh 28.99 in981.7 mb 0.00 in0.0 mm 0.00 in0.0 mm 0.15 in3.8 mm
11:12 AM 51.3°F10.7°C 41.8°F5.4°C 70% 9.2 mph ESE14.8 kmh ESE 23.5 mph37.8 kmh 28.99 in981.7 mb 0.00 in0.0 mm 0.00 in0.0 mm 0.15 in3.8 mm
11:13 AM 51.3°F10.7°C 41.8°F5.4°C 70% 9.8 mph SE15.8 kmh SE 23.5 mph37.8 kmh 28.99 in981.7 mb 0.00 in0.0 mm 0.00 in0.0 mm 0.15 in3.8 mm
11:14 AM 51.3°F10.7°C 41.8°F5.4°C 70% 9.8 mph SE15.8 kmh SE 23.5 mph37.8 kmh 28.99 in981.7 mb 0.00 in0.0 mm 0.00 in0.0 mm 0.15 in3.8 mm
11:15 AM 51.3°F10.7°C 41.8°F5.4°C 70% 10.7 mph SE17.2 kmh SE 23.5 mph37.8 kmh 28.99 in981.7 mb 0.00 in0.0 mm 0.00 in0.0 mm 0.15 in3.8 mm
11:16 AM 51.1°F10.6°C 41.6°F5.3°C 70% 9.8 mph S15.8 kmh S 23.5 mph37.8 kmh 28.99 in981.7 mb 0.00 in0.0 mm 0.00 in0.0 mm 0.15 in3.8 mm
11:17 AM 51.1°F10.6°C 42.0°F5.6°C 71% 9.2 mph SSE14.8 kmh SSE 23.5 mph37.8 kmh 29.00 in982.1 mb 0.00 in0.0 mm 0.00 in0.0 mm 0.15 in3.8 mm
11:18 AM 50.7°F10.4°C 41.7°F5.4°C 71% 13.0 mph SSE20.9 kmh SSE 22.8 mph36.7 kmh 29.00 in982.1 mb 0.00 in0.0 mm 0.00 in0.0 mm 0.15 in3.8 mm
11:19 AM 50.5°F10.3°C 41.8°F5.4°C 72% 13.0 mph SSE20.9 kmh SSE 20.6 mph33.2 kmh 29.00 in982.1 mb 0.00 in0.0 mm 0.00 in0.0 mm 0.15 in3.8 mm
11:20 AM 50.5°F10.3°C 41.8°F5.4°C 72% 11.4 mph S18.3 kmh S 20.6 mph33.2 kmh 29.00 in982.1 mb 0.00 in0.0 mm 0.00 in0.0 mm 0.15 in3.8 mm
11:21 AM 50.4°F10.2°C 42.0°F5.6°C 73% 14.5 mph S23.3 kmh S 22.1 mph35.6 kmh 29.00 in982.1 mb 0.00 in0.0 mm 0.00 in0.0 mm 0.15 in3.8 mm
11:22 AM 50.4°F10.2°C 42.0°F5.6°C 73% 12.1 mph SSE19.5 kmh SSE 22.1 mph35.6 kmh 29.00 in982.1 mb 0.00 in0.0 mm 0.00 in0.0 mm 0.15 in3.8 mm
11:23 AM 50.4°F10.2°C 42.0°F5.6°C 73% 12.1 mph SE19.5 kmh SE 22.1 mph35.6 kmh 29.00 in982.1 mb 0.00 in0.0 mm 0.00 in0.0 mm 0.15 in3.8 mm
11:24 AM 50.4°F10.2°C 42.0°F5.6°C 73% 12.1 mph SE19.5 kmh SE 22.1 mph35.6 kmh 29.00 in982.1 mb 0.00 in0.0 mm 0.00 in0.0 mm 0.15 in3.8 mm
11:25 AM 50.5°F10.3°C 42.6°F5.9°C 74% 15.2 mph SE24.5 kmh SE 22.1 mph35.6 kmh 29.00 in982.1 mb 0.00 in0.0 mm 0.00 in0.0 mm 0.15 in3.8 mm
11:26 AM 50.5°F10.3°C 42.6°F5.9°C 74% 15.2 mph SE24.5 kmh SE 22.1 mph35.6 kmh 29.00 in982.1 mb 0.00 in0.0 mm 0.00 in0.0 mm 0.15 in3.8 mm
11:27 AM 50.5°F10.3°C 42.6°F5.9°C 74% 13.0 mph SE20.9 kmh SE 22.1 mph35.6 kmh 29.00 in982.1 mb 0.00 in0.0 mm 0.00 in0.0 mm 0.15 in3.8 mm
11:28 AM 50.7°F10.4°C 42.7°F5.9°C 74% 11.4 mph SE18.3 kmh SE 22.1 mph35.6 kmh 29.00 in982.1 mb 0.00 in0.0 mm 0.00 in0.0 mm 0.15 in3.8 mm
11:29 AM 50.7°F10.4°C 42.7°F5.9°C 74% 13.0 mph SE20.9 kmh SE 22.1 mph35.6 kmh 29.00 in982.1 mb 0.00 in0.0 mm 0.00 in0.0 mm 0.15 in3.8 mm
11:30 AM 50.7°F10.4°C 42.7°F5.9°C 74% 11.4 mph SE18.3 kmh SE 22.1 mph35.6 kmh 29.00 in982.1 mb 0.00 in0.0 mm 0.00 in0.0 mm 0.15 in3.8 mm
11:31 AM 50.9°F10.5°C 42.9°F6.1°C 74% 11.4 mph SE18.3 kmh SE 22.1 mph35.6 kmh 29.00 in982.1 mb 0.00 in0.0 mm 0.00 in0.0 mm 0.15 in3.8 mm
11:32 AM 51.1°F10.6°C 43.1°F6.2°C 74% 10.7 mph SE17.2 kmh SE 19.7 mph31.7 kmh 29.00 in982.1 mb 0.00 in0.0 mm 0.00 in0.0 mm 0.15 in3.8 mm
11:33 AM 51.1°F10.6°C 43.1°F6.2°C 74% 12.1 mph SSE19.5 kmh SSE 19.7 mph31.7 kmh 29.00 in982.1 mb 0.00 in0.0 mm 0.00 in0.0 mm 0.15 in3.8 mm
11:34 AM 51.1°F10.6°C 42.7°F5.9°C 73% 13.6 mph SSE21.9 kmh SSE 19.7 mph31.7 kmh 29.00 in982.1 mb 0.00 in0.0 mm 0.00 in0.0 mm 0.15 in3.8 mm
11:35 AM 51.3°F10.7°C 42.9°F6.1°C 73% 10.7 mph S17.2 kmh S 19.7 mph31.7 kmh 29.00 in982.1 mb 0.00 in0.0 mm 0.00 in0.0 mm 0.15 in3.8 mm
11:36 AM 51.3°F10.7°C 42.9°F6.1°C 73% 10.7 mph S17.2 kmh S 19.7 mph31.7 kmh 29.00 in982.1 mb 0.00 in0.0 mm 0.00 in0.0 mm 0.15 in3.8 mm
11:37 AM 51.3°F10.7°C 42.9°F6.1°C 73% 14.5 mph S23.3 kmh S 20.6 mph33.2 kmh 29.00 in982.1 mb 0.00 in0.0 mm 0.00 in0.0 mm 0.15 in3.8 mm
11:38 AM 51.3°F10.7°C 42.9°F6.1°C 73% 10.7 mph S17.2 kmh S 20.6 mph33.2 kmh 29.00 in982.1 mb 0.00 in0.0 mm 0.00 in0.0 mm 0.15 in3.8 mm
11:39 AM 51.1°F10.6°C 42.7°F5.9°C 73% 13.0 mph S20.9 kmh S 20.6 mph33.2 kmh 29.00 in982.1 mb 0.00 in0.0 mm 0.00 in0.0 mm 0.15 in3.8 mm
11:40 AM 51.1°F10.6°C 42.7°F5.9°C 73% 11.4 mph S18.3 kmh S 20.6 mph33.2 kmh 29.00 in982.1 mb 0.00 in0.0 mm 0.00 in0.0 mm 0.15 in3.8 mm
11:41 AM 51.1°F10.6°C 42.4°F5.8°C 72% 14.5 mph S23.3 kmh S 20.6 mph33.2 kmh 29.00 in982.1 mb 0.00 in0.0 mm 0.00 in0.0 mm 0.15 in3.8 mm
11:42 AM 51.1°F10.6°C 42.4°F5.8°C 72% 12.1 mph SSE19.5 kmh SSE 20.6 mph33.2 kmh 29.00 in982.1 mb 0.00 in0.0 mm 0.00 in0.0 mm 0.15 in3.8 mm
11:43 AM 51.1°F10.6°C 42.4°F5.8°C 72% 13.0 mph S20.9 kmh S 20.6 mph33.2 kmh 29.00 in982.1 mb 0.00 in0.0 mm 0.00 in0.0 mm 0.15 in3.8 mm
11:44 AM 51.1°F10.6°C 42.4°F5.8°C 72% 13.0 mph SSE20.9 kmh SSE 20.6 mph33.2 kmh 29.00 in982.1 mb 0.00 in0.0 mm 0.00 in0.0 mm 0.15 in3.8 mm
11:45 AM 51.3°F10.7°C 42.5°F5.8°C 72% 11.4 mph SSE18.3 kmh SSE 20.6 mph33.2 kmh 29.00 in982.1 mb 0.00 in0.0 mm 0.00 in0.0 mm 0.15 in3.8 mm
11:46 AM 51.3°F10.7°C 42.5°F5.8°C 72% 11.4 mph S18.3 kmh S 20.6 mph33.2 kmh 29.00 in982.1 mb 0.00 in0.0 mm 0.00 in0.0 mm 0.15 in3.8 mm
11:47 AM 51.3°F10.7°C 42.5°F5.8°C 72% 13.0 mph SSE20.9 kmh SSE 20.6 mph33.2 kmh 29.00 in982.1 mb 0.00 in0.0 mm 0.00 in0.0 mm 0.15 in3.8 mm
11:48 AM 51.3°F10.7°C 42.5°F5.8°C 72% 13.0 mph SSE20.9 kmh SSE 20.6 mph33.2 kmh 29.00 in982.1 mb 0.00 in0.0 mm 0.00 in0.0 mm 0.15 in3.8 mm
11:49 AM 51.4°F10.8°C 42.7°F5.9°C 72% 16.8 mph SSE27.0 kmh SSE 20.6 mph33.2 kmh 29.00 in982.1 mb 0.01 in0.3 mm 0.60 in15.2 mm 0.17 in4.3 mm
11:50 AM 51.4°F10.8°C 42.3°F5.7°C 71% 15.2 mph SSE24.5 kmh SSE 20.6 mph33.2 kmh 29.00 in982.1 mb 0.01 in0.3 mm 0.00 in0.0 mm 0.17 in4.3 mm
11:51 AM 51.4°F10.8°C 42.3°F5.7°C 71% 13.0 mph S20.9 kmh S 20.6 mph33.2 kmh 29.00 in982.1 mb 0.01 in0.3 mm 0.00 in0.0 mm 0.17 in4.3 mm
11:52 AM 51.4°F10.8°C 42.3°F5.7°C 71% 12.1 mph S19.5 kmh S 20.6 mph33.2 kmh 29.00 in982.1 mb 0.01 in0.3 mm 0.00 in0.0 mm 0.17 in4.3 mm
11:53 AM 51.6°F10.9°C 42.5°F5.8°C 71% 13.6 mph S21.9 kmh S 20.6 mph33.2 kmh 29.00 in982.1 mb 0.01 in0.3 mm 0.00 in0.0 mm 0.17 in4.3 mm
11:54 AM 51.6°F10.9°C 42.5°F5.8°C 71% 11.4 mph S18.3 kmh S 20.6 mph33.2 kmh 29.01 in982.4 mb 0.01 in0.3 mm 0.00 in0.0 mm 0.17 in4.3 mm
11:55 AM 51.8°F11.0°C 42.7°F5.9°C 71% 9.8 mph S15.8 kmh S 20.6 mph33.2 kmh 29.00 in982.1 mb 0.01 in0.3 mm 0.00 in0.0 mm 0.17 in4.3 mm
11:56 AM 51.8°F11.0°C 42.7°F5.9°C 71% 11.4 mph SSE18.3 kmh SSE 20.6 mph33.2 kmh 29.00 in982.1 mb 0.01 in0.3 mm 0.00 in0.0 mm 0.17 in4.3 mm
11:57 AM 51.8°F11.0°C 42.7°F5.9°C 71% 10.7 mph SSE17.2 kmh SSE 20.6 mph33.2 kmh 29.01 in982.4 mb 0.01 in0.3 mm 0.00 in0.0 mm 0.17 in4.3 mm
11:58 AM 52.0°F11.1°C 42.9°F6.1°C 71% 11.4 mph SSE18.3 kmh SSE 20.6 mph33.2 kmh 29.00 in982.1 mb 0.01 in0.3 mm 0.00 in0.0 mm 0.17 in4.3 mm
11:59 AM 52.0°F11.1°C 42.9°F6.1°C 71% 11.4 mph SSE18.3 kmh SSE 20.6 mph33.2 kmh 29.01 in982.4 mb 0.01 in0.3 mm 0.00 in0.0 mm 0.17 in4.3 mm
12:00 PM 52.0°F11.1°C 42.9°F6.1°C 71% 13.6 mph SSE21.9 kmh SSE 20.6 mph33.2 kmh 29.01 in982.4 mb 0.01 in0.3 mm 0.00 in0.0 mm 0.17 in4.3 mm
12:01 PM 52.0°F11.1°C 42.9°F6.1°C 71% 15.2 mph SE24.5 kmh SE 22.1 mph35.6 kmh 29.01 in982.4 mb 0.01 in0.3 mm 0.00 in0.0 mm 0.17 in4.3 mm
12:02 PM 52.0°F11.1°C 42.9°F6.1°C 71% 15.2 mph SE24.5 kmh SE 22.1 mph35.6 kmh 29.01 in982.4 mb 0.01 in0.3 mm 0.00 in0.0 mm 0.17 in4.3 mm
12:03 PM 52.0°F11.1°C 42.9°F6.1°C 71% 15.2 mph ESE24.5 kmh ESE 22.1 mph35.6 kmh 29.01 in982.4 mb 0.01 in0.3 mm 0.00 in0.0 mm 0.17 in4.3 mm
12:04 PM 52.0°F11.1°C 42.9°F6.1°C 71% 15.2 mph E24.5 kmh E 22.1 mph35.6 kmh 29.00 in982.1 mb 0.01 in0.3 mm 0.00 in0.0 mm 0.17 in4.3 mm
12:05 PM 52.0°F11.1°C 42.9°F6.1°C 71% 15.2 mph ENE24.5 kmh ENE 22.1 mph35.6 kmh 29.01 in982.4 mb 0.01 in0.3 mm 0.00 in0.0 mm 0.17 in4.3 mm
12:06 PM 52.0°F11.1°C 42.9°F6.1°C 71% 15.2 mph ENE24.5 kmh ENE 22.1 mph35.6 kmh 29.00 in982.1 mb 0.01 in0.3 mm 0.00 in0.0 mm 0.17 in4.3 mm
12:07 PM 52.0°F11.1°C 42.5°F5.8°C 70% 13.6 mph ENE21.9 kmh ENE 22.1 mph35.6 kmh 29.01 in982.4 mb 0.01 in0.3 mm 0.00 in0.0 mm 0.17 in4.3 mm
12:08 PM 52.0°F11.1°C 42.5°F5.8°C 70% 10.7 mph ENE17.2 kmh ENE 22.1 mph35.6 kmh 29.01 in982.4 mb 0.01 in0.3 mm 0.00 in0.0 mm 0.17 in4.3 mm
12:09 PM 52.2°F11.2°C 42.7°F5.9°C 70% 10.7 mph ENE17.2 kmh ENE 22.1 mph35.6 kmh 29.00 in982.1 mb 0.01 in0.3 mm 0.00 in0.0 mm 0.17 in4.3 mm
12:10 PM 52.2°F11.2°C 42.7°F5.9°C 70% 10.7 mph ENE17.2 kmh ENE 22.1 mph35.6 kmh 29.01 in982.4 mb 0.01 in0.3 mm 0.00 in0.0 mm 0.17 in4.3 mm
12:11 PM 52.3°F11.3°C 42.8°F6.0°C 70% 16.8 mph ENE27.0 kmh ENE 25.1 mph40.4 kmh 29.01 in982.4 mb 0.01 in0.3 mm 0.00 in0.0 mm 0.17 in4.3 mm
12:12 PM 52.5°F11.4°C 43.0°F6.1°C 70% 10.7 mph E17.2 kmh E 25.1 mph40.4 kmh 29.00 in982.1 mb 0.01 in0.3 mm 0.00 in0.0 mm 0.17 in4.3 mm
12:13 PM 52.7°F11.5°C 43.2°F6.2°C 70% 14.5 mph E23.3 kmh E 25.1 mph40.4 kmh 29.00 in982.1 mb 0.02 in0.5 mm 0.60 in15.2 mm 0.18 in4.6 mm
12:14 PM 52.7°F11.5°C 43.2°F6.2°C 70% 14.5 mph E23.3 kmh E 25.1 mph40.4 kmh 29.01 in982.4 mb 0.02 in0.5 mm 0.00 in0.0 mm 0.18 in4.6 mm
12:15 PM 52.9°F11.6°C 43.4°F6.3°C 70% 11.4 mph E18.3 kmh E 25.1 mph40.4 kmh 29.01 in982.4 mb 0.02 in0.5 mm 0.00 in0.0 mm 0.18 in4.6 mm
12:16 PM 53.1°F11.7°C 43.2°F6.2°C 69% 11.4 mph ESE18.3 kmh ESE 25.1 mph40.4 kmh 29.01 in982.4 mb 0.02 in0.5 mm 0.00 in0.0 mm 0.18 in4.6 mm
12:17 PM 53.2°F11.8°C 43.3°F6.3°C 69% 9.8 mph SE15.8 kmh SE 25.1 mph40.4 kmh 29.01 in982.4 mb 0.02 in0.5 mm 0.00 in0.0 mm 0.18 in4.6 mm
12:18 PM 53.4°F11.9°C 43.5°F6.4°C 69% 9.8 mph ESE15.8 kmh ESE 25.1 mph40.4 kmh 29.01 in982.4 mb 0.02 in0.5 mm 0.00 in0.0 mm 0.18 in4.6 mm
12:19 PM 53.4°F11.9°C 43.5°F6.4°C 69% 15.2 mph ESE24.5 kmh ESE 25.9 mph41.7 kmh 29.01 in982.4 mb 0.02 in0.5 mm 0.00 in0.0 mm 0.18 in4.6 mm
12:20 PM 53.4°F11.9°C 43.1°F6.2°C 68% 15.2 mph SE24.5 kmh SE 25.9 mph41.7 kmh 29.01 in982.4 mb 0.02 in0.5 mm 0.00 in0.0 mm 0.18 in4.6 mm
12:21 PM 53.6°F12.0°C 43.3°F6.3°C 68% 9.2 mph SE14.8 kmh SE 25.9 mph41.7 kmh 29.01 in982.4 mb 0.02 in0.5 mm 0.00 in0.0 mm 0.18 in4.6 mm
12:22 PM 53.4°F11.9°C 42.7°F5.9°C 67% 16.8 mph SE27.0 kmh SE 25.9 mph41.7 kmh 29.01 in982.4 mb 0.02 in0.5 mm 0.00 in0.0 mm 0.18 in4.6 mm
12:23 PM 53.4°F11.9°C 42.7°F5.9°C 67% 16.8 mph SE27.0 kmh SE 25.9 mph41.7 kmh 29.01 in982.4 mb 0.02 in0.5 mm 0.00 in0.0 mm 0.18 in4.6 mm
12:24 PM 53.4°F11.9°C 42.7°F5.9°C 67% 16.8 mph SE27.0 kmh SE 25.9 mph41.7 kmh 29.01 in982.4 mb 0.02 in0.5 mm 0.00 in0.0 mm 0.18 in4.6 mm
12:25 PM 53.2°F11.8°C 42.2°F5.7°C 66% 17.4 mph SSE28.0 kmh SSE 25.9 mph41.7 kmh 29.01 in982.4 mb 0.08 in2.0 mm 3.60 in91.4 mm 0.24 in6.1 mm
12:26 PM 53.2°F11.8°C 42.2°F5.7°C 66% 17.4 mph SSE28.0 kmh SSE 25.9 mph41.7 kmh 29.01 in982.4 mb 0.08 in2.0 mm 0.00 in0.0 mm 0.24 in6.1 mm
12:27 PM 53.2°F11.8°C 42.2°F5.7°C 66% 15.9 mph S25.6 kmh S 25.9 mph41.7 kmh 29.01 in982.4 mb 0.09 in2.3 mm 0.60 in15.2 mm 0.25 in6.4 mm
12:28 PM 53.1°F11.7°C 42.0°F5.6°C 66% 16.8 mph S27.0 kmh S 25.9 mph41.7 kmh 29.01 in982.4 mb 0.09 in2.3 mm 0.00 in0.0 mm 0.25 in6.4 mm
12:29 PM 53.1°F11.7°C 42.0°F5.6°C 66% 12.1 mph S19.5 kmh S 25.9 mph41.7 kmh 29.01 in982.4 mb 0.09 in2.3 mm 0.00 in0.0 mm 0.25 in6.4 mm
12:30 PM 53.1°F11.7°C 42.0°F5.6°C 66% 16.8 mph S27.0 kmh S 25.9 mph41.7 kmh 29.01 in982.4 mb 0.13 in3.3 mm 2.40 in61.0 mm 0.28 in7.1 mm
12:31 PM 53.1°F11.7°C 42.0°F5.6°C 66% 16.8 mph SSE27.0 kmh SSE 25.9 mph41.7 kmh 29.01 in982.4 mb 0.13 in3.3 mm 0.00 in0.0 mm 0.28 in7.1 mm
12:32 PM 52.7°F11.5°C 41.7°F5.4°C 66% 13.0 mph S20.9 kmh S 25.9 mph41.7 kmh 29.01 in982.4 mb 0.17 in4.3 mm 2.40 in61.0 mm 0.32 in8.1 mm
12:33 PM 52.7°F11.5°C 41.7°F5.4°C 66% 14.5 mph SSE23.3 kmh SSE 25.9 mph41.7 kmh 29.01 in982.4 mb 0.17 in4.3 mm 0.00 in0.0 mm 0.32 in8.1 mm
12:34 PM 52.7°F11.5°C 41.7°F5.4°C 66% 15.2 mph S24.5 kmh S 25.9 mph41.7 kmh 29.01 in982.4 mb 0.17 in4.3 mm 0.00 in0.0 mm 0.32 in8.1 mm
12:35 PM 52.7°F11.5°C 41.7°F5.4°C 66% 18.3 mph SSW29.5 kmh SSW 25.9 mph41.7 kmh 29.01 in982.4 mb 0.21 in5.3 mm 2.40 in61.0 mm 0.37 in9.4 mm
12:36 PM 52.7°F11.5°C 42.0°F5.6°C 67% 13.6 mph SE21.9 kmh SE 25.9 mph41.7 kmh 29.02 in982.7 mb 0.21 in5.3 mm 0.00 in0.0 mm 0.37 in9.4 mm
12:37 PM 52.7°F11.5°C 42.0°F5.6°C 67% 12.1 mph ESE19.5 kmh ESE 25.9 mph41.7 kmh 29.02 in982.7 mb 0.21 in5.3 mm 0.00 in0.0 mm 0.37 in9.4 mm
12:38 PM 52.7°F11.5°C 42.0°F5.6°C 67% 9.2 mph SE14.8 kmh SE 25.1 mph40.4 kmh 29.02 in982.7 mb 0.21 in5.3 mm 0.00 in0.0 mm 0.37 in9.4 mm
12:39 PM 52.7°F11.5°C 42.0°F5.6°C 67% 19.0 mph SE30.6 kmh SE 25.1 mph40.4 kmh 29.02 in982.7 mb 0.21 in5.3 mm 0.00 in0.0 mm 0.37 in9.4 mm
12:40 PM 52.7°F11.5°C 41.7°F5.4°C 66% 13.6 mph SE21.9 kmh SE 25.1 mph40.4 kmh 29.01 in982.4 mb 0.21 in5.3 mm 0.00 in0.0 mm 0.37 in9.4 mm
12:41 PM 52.7°F11.5°C 41.7°F5.4°C 66% 13.0 mph SE20.9 kmh SE 25.1 mph40.4 kmh 29.02 in982.7 mb 0.21 in5.3 mm 0.00 in0.0 mm 0.37 in9.4 mm
12:42 PM 52.7°F11.5°C 41.7°F5.4°C 66% 13.0 mph SE20.9 kmh SE 25.1 mph40.4 kmh 29.02 in982.7 mb 0.21 in5.3 mm 0.00 in0.0 mm 0.37 in9.4 mm
12:43 PM 52.7°F11.5°C 41.7°F5.4°C 66% 11.4 mph SSE18.3 kmh SSE 25.1 mph40.4 kmh 29.02 in982.7 mb 0.21 in5.3 mm 0.00 in0.0 mm 0.37 in9.4 mm
12:44 PM 52.7°F11.5°C 41.7°F5.4°C 66% 19.0 mph SSE30.6 kmh SSE 25.1 mph40.4 kmh 29.02 in982.7 mb 0.22 in5.6 mm 0.60 in15.2 mm 0.38 in9.7 mm
12:45 PM 52.7°F11.5°C 41.7°F5.4°C 66% 18.3 mph SSE29.5 kmh SSE 25.1 mph40.4 kmh 29.02 in982.7 mb 0.22 in5.6 mm 0.00 in0.0 mm 0.38 in9.7 mm
12:46 PM 52.7°F11.5°C 41.7°F5.4°C 66% 13.6 mph SSE21.9 kmh SSE 25.1 mph40.4 kmh 29.02 in982.7 mb 0.22 in5.6 mm 0.00 in0.0 mm 0.38 in9.7 mm
12:47 PM 52.7°F11.5°C 41.7°F5.4°C 66% 14.5 mph S23.3 kmh S 25.1 mph40.4 kmh 29.02 in982.7 mb 0.22 in5.6 mm 0.00 in0.0 mm 0.38 in9.7 mm
12:48 PM 52.7°F11.5°C 41.7°F5.4°C 66% 13.0 mph S20.9 kmh S 25.1 mph40.4 kmh 29.02 in982.7 mb 0.21 in5.3 mm 0.00 in0.0 mm 0.38 in9.7 mm
12:49 PM 52.7°F11.5°C 41.7°F5.4°C 66% 12.1 mph S19.5 kmh S 25.1 mph40.4 kmh 29.02 in982.7 mb 0.21 in5.3 mm 0.00 in0.0 mm 0.38 in9.7 mm
12:50 PM 52.7°F11.5°C 41.7°F5.4°C 66% 16.8 mph S27.0 kmh S 25.1 mph40.4 kmh 29.02 in982.7 mb 0.21 in5.3 mm 0.00 in0.0 mm 0.38 in9.7 mm
12:51 PM 52.7°F11.5°C 41.7°F5.4°C 66% 15.9 mph SSE25.6 kmh SSE 25.1 mph40.4 kmh 29.02 in982.7 mb 0.21 in5.3 mm 0.00 in0.0 mm 0.38 in9.7 mm
12:52 PM 52.7°F11.5°C 41.7°F5.4°C 66% 16.8 mph SE27.0 kmh SE 25.1 mph40.4 kmh 29.02 in982.7 mb 0.21 in5.3 mm 0.00 in0.0 mm 0.38 in9.7 mm
12:53 PM 52.7°F11.5°C 41.7°F5.4°C 66% 14.5 mph SE23.3 kmh SE 25.1 mph40.4 kmh 29.02 in982.7 mb 0.21 in5.3 mm 0.00 in0.0 mm 0.38 in9.7 mm
12:54 PM 52.7°F11.5°C 41.7°F5.4°C 66% 12.1 mph SE19.5 kmh SE 25.1 mph40.4 kmh 29.02 in982.7 mb 0.21 in5.3 mm 0.00 in0.0 mm 0.38 in9.7 mm
12:55 PM 52.7°F11.5°C 41.7°F5.4°C 66% 14.5 mph SE23.3 kmh SE 23.5 mph37.8 kmh 29.02 in982.7 mb 0.21 in5.3 mm 0.00 in0.0 mm 0.38 in9.7 mm
12:56 PM 52.9°F11.6°C 41.4°F5.2°C 65% 11.4 mph SE18.3 kmh SE 23.5 mph37.8 kmh 29.03 in983.1 mb 0.21 in5.3 mm 0.00 in0.0 mm 0.38 in9.7 mm
12:57 PM 52.9°F11.6°C 41.4°F5.2°C 65% 13.0 mph SE20.9 kmh SE 23.5 mph37.8 kmh 29.02 in982.7 mb 0.21 in5.3 mm 0.00 in0.0 mm 0.38 in9.7 mm
12:58 PM 52.9°F11.6°C 41.4°F5.2°C 65% 14.5 mph SE23.3 kmh SE 23.5 mph37.8 kmh 29.02 in982.7 mb 0.21 in5.3 mm 0.00 in0.0 mm 0.38 in9.7 mm
12:59 PM 53.1°F11.7°C 41.6°F5.3°C 65% 15.2 mph SE24.5 kmh SE 23.5 mph37.8 kmh 29.02 in982.7 mb 0.21 in5.3 mm 0.00 in0.0 mm 0.38 in9.7 mm
01:00 PM 52.9°F11.6°C 41.0°F5.0°C 64% 14.5 mph ESE23.3 kmh ESE 23.5 mph37.8 kmh 29.02 in982.7 mb 0.26 in6.6 mm 0.05 in1.3 mm 0.43 in10.9 mm
01:01 PM 52.9°F11.6°C 41.0°F5.0°C 64% 13.0 mph ESE20.9 kmh ESE 23.5 mph37.8 kmh 29.02 in982.7 mb 0.27 in6.9 mm 0.60 in15.2 mm 0.44 in11.2 mm
01:02 PM 52.9°F11.6°C 41.0°F5.0°C 64% 12.1 mph SE19.5 kmh SE 22.1 mph35.6 kmh 29.02 in982.7 mb 0.27 in6.9 mm 0.00 in0.0 mm 0.44 in11.2 mm
01:03 PM 52.9°F11.6°C 41.0°F5.0°C 64% 12.1 mph SE19.5 kmh SE 22.1 mph35.6 kmh 29.02 in982.7 mb 0.27 in6.9 mm 0.00 in0.0 mm 0.44 in11.2 mm
01:04 PM 52.9°F11.6°C 41.4°F5.2°C 65% 14.5 mph SE23.3 kmh SE 21.3 mph34.3 kmh 29.02 in982.7 mb 0.27 in6.9 mm 0.00 in0.0 mm 0.44 in11.2 mm
01:05 PM 52.9°F11.6°C 41.4°F5.2°C 65% 17.4 mph SSE28.0 kmh SSE 22.1 mph35.6 kmh 29.02 in982.7 mb 0.27 in6.9 mm 0.00 in0.0 mm 0.44 in11.2 mm
01:06 PM 52.9°F11.6°C 41.4°F5.2°C 65% 13.0 mph SSE20.9 kmh SSE 22.1 mph35.6 kmh 29.02 in982.7 mb 0.27 in6.9 mm 0.00 in0.0 mm 0.44 in11.2 mm
01:07 PM 52.9°F11.6°C 41.4°F5.2°C 65% 15.9 mph SE25.6 kmh SE 23.5 mph37.8 kmh 29.02 in982.7 mb 0.27 in6.9 mm 0.00 in0.0 mm 0.44 in11.2 mm
01:08 PM 52.9°F11.6°C 41.4°F5.2°C 65% 16.8 mph SSE27.0 kmh SSE 23.5 mph37.8 kmh 29.02 in982.7 mb 0.27 in6.9 mm 0.00 in0.0 mm 0.44 in11.2 mm
01:09 PM 52.9°F11.6°C 41.4°F5.2°C 65% 12.1 mph SSE19.5 kmh SSE 23.5 mph37.8 kmh 29.02 in982.7 mb 0.27 in6.9 mm 0.00 in0.0 mm 0.44 in11.2 mm
01:10 PM 52.9°F11.6°C 41.4°F5.2°C 65% 12.1 mph S19.5 kmh S 23.5 mph37.8 kmh 29.02 in982.7 mb 0.27 in6.9 mm 0.00 in0.0 mm 0.44 in11.2 mm
01:11 PM 53.1°F11.7°C 41.6°F5.3°C 65% 11.4 mph S18.3 kmh S 23.5 mph37.8 kmh 29.02 in982.7 mb 0.27 in6.9 mm 0.00 in0.0 mm 0.44 in11.2 mm
01:12 PM 53.1°F11.7°C 41.6°F5.3°C 65% 11.4 mph SSW18.3 kmh SSW 23.5 mph37.8 kmh 29.02 in982.7 mb 0.26 in6.6 mm 0.00 in0.0 mm 0.44 in11.2 mm
01:13 PM 53.2°F11.8°C 41.8°F5.4°C 65% 13.6 mph S21.9 kmh S 23.5 mph37.8 kmh 29.02 in982.7 mb 0.26 in6.6 mm 0.00 in0.0 mm 0.44 in11.2 mm
01:14 PM 53.2°F11.8°C 41.8°F5.4°C 65% 14.5 mph S23.3 kmh S 23.5 mph37.8 kmh 29.02 in982.7 mb 0.26 in6.6 mm 0.00 in0.0 mm 0.44 in11.2 mm
01:15 PM 53.2°F11.8°C 41.8°F5.4°C 65% 15.9 mph SSE25.6 kmh SSE 23.5 mph37.8 kmh 29.02 in982.7 mb 0.26 in6.6 mm 0.00 in0.0 mm 0.44 in11.2 mm
01:16 PM 53.2°F11.8°C 41.8°F5.4°C 65% 9.8 mph SE15.8 kmh SE 23.5 mph37.8 kmh 29.03 in983.1 mb 0.26 in6.6 mm 0.00 in0.0 mm 0.44 in11.2 mm
01:17 PM 53.4°F11.9°C 41.9°F5.5°C 65% 9.2 mph SSE14.8 kmh SSE 23.5 mph37.8 kmh 29.03 in983.1 mb 0.26 in6.6 mm 0.00 in0.0 mm 0.44 in11.2 mm
01:18 PM 53.4°F11.9°C 41.9°F5.5°C 65% 9.2 mph SSE14.8 kmh SSE 22.1 mph35.6 kmh 29.02 in982.7 mb 0.26 in6.6 mm 0.00 in0.0 mm 0.44 in11.2 mm
01:19 PM 53.4°F11.9°C 41.9°F5.5°C 65% 11.4 mph S18.3 kmh S 22.1 mph35.6 kmh 29.02 in982.7 mb 0.26 in6.6 mm 0.00 in0.0 mm 0.44 in11.2 mm
01:20 PM 53.4°F11.9°C 41.5°F5.3°C 64% 11.4 mph SSE18.3 kmh SSE 22.1 mph35.6 kmh 29.02 in982.7 mb 0.26 in6.6 mm 0.00 in0.0 mm 0.44 in11.2 mm
01:21 PM 53.6°F12.0°C 41.7°F5.4°C 64% 10.7 mph SE17.2 kmh SE 22.1 mph35.6 kmh 29.02 in982.7 mb 0.26 in6.6 mm 0.00 in0.0 mm 0.44 in11.2 mm
01:22 PM 53.6°F12.0°C 41.7°F5.4°C 64% 15.2 mph ESE24.5 kmh ESE 22.1 mph35.6 kmh 29.02 in982.7 mb 0.26 in6.6 mm 0.00 in0.0 mm 0.44 in11.2 mm
01:23 PM 53.4°F11.9°C 41.5°F5.3°C 64% 16.8 mph SE27.0 kmh SE 26.6 mph42.8 kmh 29.02 in982.7 mb 0.26 in6.6 mm 0.00 in0.0 mm 0.44 in11.2 mm
01:24 PM 53.4°F11.9°C 41.5°F5.3°C 64% 11.4 mph SE18.3 kmh SE 26.6 mph42.8 kmh 29.02 in982.7 mb 0.26 in6.6 mm 0.00 in0.0 mm 0.44 in11.2 mm
01:25 PM 53.6°F12.0°C 41.7°F5.4°C 64% 12.1 mph SSE19.5 kmh SSE 26.6 mph42.8 kmh 29.02 in982.7 mb 0.20 in5.1 mm 0.00 in0.0 mm 0.44 in11.2 mm
01:26 PM 53.6°F12.0°C 41.3°F5.2°C 63% 12.1 mph SSE19.5 kmh SSE 26.6 mph42.8 kmh 29.03 in983.1 mb 0.19 in4.8 mm 0.00 in0.0 mm 0.44 in11.2 mm
01:27 PM 53.6°F12.0°C 41.3°F5.2°C 63% 12.1 mph SE19.5 kmh SE 26.6 mph42.8 kmh 29.02 in982.7 mb 0.19 in4.8 mm 0.00 in0.0 mm 0.44 in11.2 mm
01:28 PM 53.6°F12.0°C 41.3°F5.2°C 63% 9.2 mph SE14.8 kmh SE 26.6 mph42.8 kmh 29.02 in982.7 mb 0.19 in4.8 mm 0.00 in0.0 mm 0.44 in11.2 mm
01:29 PM 53.6°F12.0°C 41.3°F5.2°C 63% 10.7 mph SE17.2 kmh SE 26.6 mph42.8 kmh 29.02 in982.7 mb 0.19 in4.8 mm 0.00 in0.0 mm 0.44 in11.2 mm
01:30 PM 53.6°F12.0°C 41.3°F5.2°C 63% 12.1 mph SE19.5 kmh SE 26.6 mph42.8 kmh 29.02 in982.7 mb 0.15 in3.8 mm 0.00 in0.0 mm 0.44 in11.2 mm
01:31 PM 53.6°F12.0°C 41.3°F5.2°C 63% 9.8 mph SE15.8 kmh SE 26.6 mph42.8 kmh 29.02 in982.7 mb 0.12 in3.0 mm 0.00 in0.0 mm 0.44 in11.2 mm
01:32 PM 53.6°F12.0°C 41.3°F5.2°C 63% 9.8 mph SE15.8 kmh SE 26.6 mph42.8 kmh 29.02 in982.7 mb 0.12 in3.0 mm 0.00 in0.0 mm 0.44 in11.2 mm
01:33 PM 53.8°F12.1°C 41.5°F5.3°C 63% 9.8 mph SSE15.8 kmh SSE 26.6 mph42.8 kmh 29.02 in982.7 mb 0.12 in3.0 mm 0.00 in0.0 mm 0.44 in11.2 mm
01:34 PM 53.8°F12.1°C 41.5°F5.3°C 63% 7.6 mph SSE12.2 kmh SSE 17.4 mph28.0 kmh 29.02 in982.7 mb 0.12 in3.0 mm 0.00 in0.0 mm 0.44 in11.2 mm
01:35 PM 53.8°F12.1°C 41.5°F5.3°C 63% 9.2 mph SSE14.8 kmh SSE 17.4 mph28.0 kmh 29.03 in983.1 mb 0.07 in1.8 mm 0.00 in0.0 mm 0.44 in11.2 mm
01:36 PM 54.0°F12.2°C 41.6°F5.3°C 63% 10.7 mph SSE17.2 kmh SSE 17.4 mph28.0 kmh 29.02 in982.7 mb 0.07 in1.8 mm 0.00 in0.0 mm 0.44 in11.2 mm
01:37 PM 54.0°F12.2°C 41.6°F5.3°C 63% 11.4 mph SE18.3 kmh SE 19.0 mph30.6 kmh 29.02 in982.7 mb 0.07 in1.8 mm 0.00 in0.0 mm 0.44 in11.2 mm
01:38 PM 54.0°F12.2°C 41.6°F5.3°C 63% 11.4 mph SE18.3 kmh SE 19.0 mph30.6 kmh 29.02 in982.7 mb 0.07 in1.8 mm 0.00 in0.0 mm 0.44 in11.2 mm
01:39 PM 54.1°F12.3°C 41.8°F5.4°C 63% 11.4 mph SSE18.3 kmh SSE 19.0 mph30.6 kmh 29.02 in982.7 mb 0.07 in1.8 mm 0.00 in0.0 mm 0.44 in11.2 mm
01:40 PM 54.1°F12.3°C 41.8°F5.4°C 63% 11.4 mph SE18.3 kmh SE 19.0 mph30.6 kmh 29.02 in982.7 mb 0.07 in1.8 mm 0.00 in0.0 mm 0.44 in11.2 mm
01:41 PM 54.5°F12.5°C 40.9°F4.9°C 60% 10.7 mph SE17.2 kmh SE 19.0 mph30.6 kmh 29.02 in982.7 mb 0.07 in1.8 mm 0.00 in0.0 mm 0.44 in11.2 mm
01:42 PM 54.7°F12.6°C 41.1°F5.1°C 60% 13.6 mph SSE21.9 kmh SSE 21.3 mph34.3 kmh 29.02 in982.7 mb 0.07 in1.8 mm 0.00 in0.0 mm 0.44 in11.2 mm
01:43 PM 54.7°F12.6°C 41.1°F5.1°C 60% 13.6 mph S21.9 kmh S 21.3 mph34.3 kmh 29.02 in982.7 mb 0.06 in1.5 mm 0.00 in0.0 mm 0.44 in11.2 mm
01:44 PM 55.0°F12.8°C 41.4°F5.2°C 60% 10.7 mph SSE17.2 kmh SSE 21.3 mph34.3 kmh 29.02 in982.7 mb 0.06 in1.5 mm 0.00 in0.0 mm 0.44 in11.2 mm
01:45 PM 55.0°F12.8°C 41.0°F5.0°C 59% 13.0 mph SSE20.9 kmh SSE 21.3 mph34.3 kmh 29.02 in982.7 mb 0.06 in1.5 mm 0.00 in0.0 mm 0.44 in11.2 mm
01:46 PM 55.0°F12.8°C 40.5°F4.7°C 58% 13.0 mph SSE20.9 kmh SSE 21.3 mph34.3 kmh 29.02 in982.7 mb 0.06 in1.5 mm 0.00 in0.0 mm 0.44 in11.2 mm
01:47 PM 55.0°F12.8°C 40.5°F4.7°C 58% 13.0 mph SSE20.9 kmh SSE 21.3 mph34.3 kmh 29.02 in982.7 mb 0.06 in1.5 mm 0.00 in0.0 mm 0.44 in11.2 mm
01:48 PM 54.9°F12.7°C 40.4°F4.7°C 58% 9.8 mph SE15.8 kmh SE 21.3 mph34.3 kmh 29.02 in982.7 mb 0.06 in1.5 mm 0.00 in0.0 mm 0.44 in11.2 mm
01:49 PM 54.7°F12.6°C 40.2°F4.6°C 58% 12.1 mph SSE19.5 kmh SSE 22.8 mph36.7 kmh 29.02 in982.7 mb 0.06 in1.5 mm 0.00 in0.0 mm 0.44 in11.2 mm
01:50 PM 54.7°F12.6°C 40.2°F4.6°C 58% 14.5 mph SSE23.3 kmh SSE 22.8 mph36.7 kmh 29.02 in982.7 mb 0.06 in1.5 mm 0.00 in0.0 mm 0.44 in11.2 mm
01:51 PM 54.7°F12.6°C 40.2°F4.6°C 58% 14.5 mph SE23.3 kmh SE 22.8 mph36.7 kmh 29.02 in982.7 mb 0.06 in1.5 mm 0.00 in0.0 mm 0.44 in11.2 mm
01:52 PM 54.5°F12.5°C 40.5°F4.7°C 59% 10.7 mph E17.2 kmh E 22.8 mph36.7 kmh 29.02 in982.7 mb 0.06 in1.5 mm 0.00 in0.0 mm 0.44 in11.2 mm
01:53 PM 54.0°F12.2°C 41.2°F5.1°C 62% 15.9 mph E25.6 kmh E 22.8 mph36.7 kmh 29.03 in983.1 mb 0.06 in1.5 mm 0.00 in0.0 mm 0.44 in11.2 mm
01:54 PM 53.6°F12.0°C 41.3°F5.2°C 63% 20.6 mph E33.2 kmh E 25.1 mph40.4 kmh 29.03 in983.1 mb 0.08 in2.0 mm 1.20 in30.5 mm 0.46 in11.7 mm
01:55 PM 53.2°F11.8°C 41.4°F5.2°C 64% 19.7 mph NE31.7 kmh NE 31.1 mph50.1 kmh 29.03 in983.1 mb 0.11 in2.8 mm 1.80 in45.7 mm 0.48 in12.2 mm
01:56 PM 52.9°F11.6°C 41.4°F5.2°C 65% 13.0 mph NE20.9 kmh NE 31.1 mph50.1 kmh 29.03 in983.1 mb 0.11 in2.8 mm 0.00 in0.0 mm 0.48 in12.2 mm
01:57 PM 52.3°F11.3°C 42.1°F5.6°C 68% 12.1 mph ESE19.5 kmh ESE 31.1 mph50.1 kmh 29.03 in983.1 mb 0.11 in2.8 mm 0.00 in0.0 mm 0.48 in12.2 mm
01:58 PM 52.0°F11.1°C 42.5°F5.8°C 70% 15.2 mph SSE24.5 kmh SSE 31.1 mph50.1 kmh 29.03 in983.1 mb 0.11 in2.8 mm 0.00 in0.0 mm 0.48 in12.2 mm
01:59 PM 51.8°F11.0°C 42.3°F5.7°C 70% 11.4 mph SE18.3 kmh SE 31.1 mph50.1 kmh 29.03 in983.1 mb 0.11 in2.8 mm 0.00 in0.0 mm 0.48 in12.2 mm
02:00 PM 51.6°F10.9°C 42.5°F5.8°C 71% 12.1 mph SE19.5 kmh SE 31.1 mph50.1 kmh 29.03 in983.1 mb 0.05 in1.3 mm 0.00 in0.0 mm 0.48 in12.2 mm
02:01 PM 51.4°F10.8°C 42.3°F5.7°C 71% 10.7 mph SE17.2 kmh SE 31.1 mph50.1 kmh 29.03 in983.1 mb 0.05 in1.3 mm 0.00 in0.0 mm 0.48 in12.2 mm
02:02 PM 51.4°F10.8°C 42.3°F5.7°C 71% 10.7 mph S17.2 kmh S 31.1 mph50.1 kmh 29.02 in982.7 mb 0.05 in1.3 mm 0.00 in0.0 mm 0.48 in12.2 mm
02:03 PM 51.4°F10.8°C 42.3°F5.7°C 71% 10.7 mph WSW17.2 kmh WSW 31.1 mph50.1 kmh 29.02 in982.7 mb 0.05 in1.3 mm 0.00 in0.0 mm 0.48 in12.2 mm
02:04 PM 51.4°F10.8°C 42.3°F5.7°C 71% 10.7 mph W17.2 kmh W 31.1 mph50.1 kmh 29.03 in983.1 mb 0.05 in1.3 mm 0.00 in0.0 mm 0.48 in12.2 mm
02:05 PM 51.4°F10.8°C 42.3°F5.7°C 71% 10.7 mph W17.2 kmh W 31.1 mph50.1 kmh 29.03 in983.1 mb 0.05 in1.3 mm 0.00 in0.0 mm 0.48 in12.2 mm
02:06 PM 51.4°F10.8°C 42.3°F5.7°C 71% 10.7 mph NW17.2 kmh NW 20.6 mph33.2 kmh 29.03 in983.1 mb 0.05 in1.3 mm 0.00 in0.0 mm 0.48 in12.2 mm
02:07 PM 53.1°F11.7°C 44.3°F6.8°C 72% 11.4 mph NW18.3 kmh NW 20.6 mph33.2 kmh 29.02 in982.7 mb 0.05 in1.3 mm 0.00 in0.0 mm 0.48 in12.2 mm
02:08 PM 53.2°F11.8°C 44.4°F6.9°C 72% 10.7 mph NW17.2 kmh NW 20.6 mph33.2 kmh 29.02 in982.7 mb 0.05 in1.3 mm 0.00 in0.0 mm 0.48 in12.2 mm
02:09 PM 53.4°F11.9°C 44.2°F6.8°C 71% 13.6 mph NW21.9 kmh NW 21.3 mph34.3 kmh 29.03 in983.1 mb 0.05 in1.3 mm 0.00 in0.0 mm 0.48 in12.2 mm
02:10 PM 53.6°F12.0°C 44.4°F6.9°C 71% 15.2 mph WNW24.5 kmh WNW 21.3 mph34.3 kmh 29.03 in983.1 mb 0.05 in1.3 mm 0.00 in0.0 mm 0.48 in12.2 mm
02:11 PM 53.8°F12.1°C 44.6°F7.0°C 71% 11.4 mph W18.3 kmh W 21.3 mph34.3 kmh 29.03 in983.1 mb 0.05 in1.3 mm 0.00 in0.0 mm 0.48 in12.2 mm
02:12 PM 53.8°F12.1°C 44.6°F7.0°C 71% 14.5 mph WNW23.3 kmh WNW 21.3 mph34.3 kmh 29.03 in983.1 mb 0.05 in1.3 mm 0.00 in0.0 mm 0.48 in12.2 mm
02:13 PM 54.0°F12.2°C 44.4°F6.9°C 70% 15.2 mph WSW24.5 kmh WSW 21.3 mph34.3 kmh 29.03 in983.1 mb 0.05 in1.3 mm 0.00 in0.0 mm 0.48 in12.2 mm
02:14 PM 54.1°F12.3°C 44.6°F7.0°C 70% 9.8 mph SW15.8 kmh SW 21.3 mph34.3 kmh 29.03 in983.1 mb 0.05 in1.3 mm 0.00 in0.0 mm 0.48 in12.2 mm
02:15 PM 54.1°F12.3°C 44.6°F7.0°C 70% 8.3 mph SSW13.4 kmh SSW 21.3 mph34.3 kmh 29.03 in983.1 mb 0.05 in1.3 mm 0.00 in0.0 mm 0.48 in12.2 mm
02:16 PM 54.1°F12.3°C 44.6°F7.0°C 70% 9.2 mph S14.8 kmh S 21.3 mph34.3 kmh 29.02 in982.7 mb 0.05 in1.3 mm 0.00 in0.0 mm 0.48 in12.2 mm
02:17 PM 54.3°F12.4°C 44.0°F6.7°C 68% 13.0 mph S20.9 kmh S 21.3 mph34.3 kmh 29.03 in983.1 mb 0.05 in1.3 mm 0.00 in0.0 mm 0.48 in12.2 mm
02:18 PM 54.3°F12.4°C 43.6°F6.4°C 67% 10.7 mph S17.2 kmh S 21.3 mph34.3 kmh 29.02 in982.7 mb 0.05 in1.3 mm 0.00 in0.0 mm 0.48 in12.2 mm
02:19 PM 54.3°F12.4°C 43.6°F6.4°C 67% 10.7 mph S17.2 kmh S 19.7 mph31.7 kmh 29.03 in983.1 mb 0.05 in1.3 mm 0.00 in0.0 mm 0.48 in12.2 mm
02:20 PM 54.3°F12.4°C 43.6°F6.4°C 67% 7.6 mph S12.2 kmh S 19.7 mph31.7 kmh 29.03 in983.1 mb 0.05 in1.3 mm 0.00 in0.0 mm 0.48 in12.2 mm
02:21 PM 54.7°F12.6°C 42.3°F5.7°C 63% 7.6 mph SSE12.2 kmh SSE 19.7 mph31.7 kmh 29.03 in983.1 mb 0.05 in1.3 mm 0.00 in0.0 mm 0.48 in12.2 mm
02:22 PM 54.9°F12.7°C 42.5°F5.8°C 63% 8.3 mph SSE13.4 kmh SSE 19.0 mph30.6 kmh 29.03 in983.1 mb 0.05 in1.3 mm 0.00 in0.0 mm 0.48 in12.2 mm
02:23 PM 54.9°F12.7°C 42.5°F5.8°C 63% 8.3 mph SSE13.4 kmh SSE 19.0 mph30.6 kmh 29.03 in983.1 mb 0.05 in1.3 mm 0.00 in0.0 mm 0.48 in12.2 mm
02:24 PM 54.7°F12.6°C 41.9°F5.5°C 62% 9.2 mph SE14.8 kmh SE 15.9 mph25.6 kmh 29.03 in983.1 mb 0.05 in1.3 mm 0.00 in0.0 mm 0.48 in12.2 mm
02:25 PM 54.5°F12.5°C 41.7°F5.4°C 62% 11.4 mph SSE18.3 kmh SSE 15.9 mph25.6 kmh 29.03 in983.1 mb 0.05 in1.3 mm 0.00 in0.0 mm 0.48 in12.2 mm
02:26 PM 54.5°F12.5°C 41.7°F5.4°C 62% 11.4 mph SSE18.3 kmh SSE 15.9 mph25.6 kmh 29.03 in983.1 mb 0.05 in1.3 mm 0.00 in0.0 mm 0.48 in12.2 mm
02:27 PM 54.3°F12.4°C 42.8°F6.0°C 65% 12.1 mph SE19.5 kmh SE 15.9 mph25.6 kmh 29.03 in983.1 mb 0.05 in1.3 mm 0.00 in0.0 mm 0.48 in12.2 mm
02:28 PM 54.3°F12.4°C 42.8°F6.0°C 65% 11.4 mph ESE18.3 kmh ESE 16.8 mph27.0 kmh 29.03 in983.1 mb 0.05 in1.3 mm 0.00 in0.0 mm 0.48 in12.2 mm
02:29 PM 54.5°F12.5°C 41.7°F5.4°C 62% 9.2 mph ESE14.8 kmh ESE 16.8 mph27.0 kmh 29.03 in983.1 mb 0.05 in1.3 mm 0.00 in0.0 mm 0.48 in12.2 mm
02:30 PM 54.7°F12.6°C 41.9°F5.5°C 62% 13.6 mph ESE21.9 kmh ESE 19.7 mph31.7 kmh 29.03 in983.1 mb 0.05 in1.3 mm 0.00 in0.0 mm 0.48 in12.2 mm
02:31 PM 54.7°F12.6°C 41.9°F5.5°C 62% 13.6 mph SE21.9 kmh SE 19.7 mph31.7 kmh 29.03 in983.1 mb 0.05 in1.3 mm 0.00 in0.0 mm 0.48 in12.2 mm
02:32 PM 54.9°F12.7°C 42.1°F5.6°C 62% 15.2 mph SSE24.5 kmh SSE 20.6 mph33.2 kmh 29.03 in983.1 mb 0.05 in1.3 mm 0.00 in0.0 mm 0.48 in12.2 mm
02:33 PM 55.2°F12.9°C 42.0°F5.6°C 61% 13.6 mph SSE21.9 kmh SSE 20.6 mph33.2 kmh 29.03 in983.1 mb 0.05 in1.3 mm 0.00 in0.0 mm 0.48 in12.2 mm
02:34 PM 55.4°F13.0°C 42.2°F5.7°C 61% 13.6 mph S21.9 kmh S 20.6 mph33.2 kmh 29.03 in983.1 mb 0.05 in1.3 mm 0.00 in0.0 mm 0.48 in12.2 mm
02:35 PM 55.6°F13.1°C 41.9°F5.5°C 60% 9.8 mph S15.8 kmh S 20.6 mph33.2 kmh 29.03 in983.1 mb 0.05 in1.3 mm 0.00 in0.0 mm 0.48 in12.2 mm
02:36 PM 55.8°F13.2°C 42.1°F5.6°C 60% 8.3 mph S13.4 kmh S 20.6 mph33.2 kmh 29.03 in983.1 mb 0.05 in1.3 mm 0.00 in0.0 mm 0.48 in12.2 mm
02:37 PM 56.5°F13.6°C 42.8°F6.0°C 60% 10.7 mph SSW17.2 kmh SSW 20.6 mph33.2 kmh 29.03 in983.1 mb 0.05 in1.3 mm 0.00 in0.0 mm 0.48 in12.2 mm
02:38 PM 56.8°F13.8°C 43.1°F6.2°C 60% 11.4 mph SW18.3 kmh SW 20.6 mph33.2 kmh 29.03 in983.1 mb 0.05 in1.3 mm 0.00 in0.0 mm 0.48 in12.2 mm
02:39 PM 56.8°F13.8°C 42.7°F5.9°C 59% 9.8 mph SW15.8 kmh SW 20.6 mph33.2 kmh 29.03 in983.1 mb 0.05 in1.3 mm 0.00 in0.0 mm 0.48 in12.2 mm
02:40 PM 56.8°F13.8°C 42.2°F5.7°C 58% 15.2 mph SSW24.5 kmh SSW 23.5 mph37.8 kmh 29.04 in983.4 mb 0.05 in1.3 mm 0.00 in0.0 mm 0.48 in12.2 mm
02:41 PM 56.3°F13.5°C 40.8°F4.9°C 56% 13.6 mph S21.9 kmh S 23.5 mph37.8 kmh 29.03 in983.1 mb 0.05 in1.3 mm 0.00 in0.0 mm 0.48 in12.2 mm
02:42 PM 56.3°F13.5°C 40.8°F4.9°C 56% 13.6 mph S21.9 kmh S 23.5 mph37.8 kmh 29.03 in983.1 mb 0.05 in1.3 mm 0.00 in0.0 mm 0.48 in12.2 mm
02:43 PM 55.8°F13.2°C 40.3°F4.6°C 56% 13.0 mph SSW20.9 kmh SSW 23.5 mph37.8 kmh 29.04 in983.4 mb 0.05 in1.3 mm 0.00 in0.0 mm 0.48 in12.2 mm
02:44 PM 55.6°F13.1°C 40.6°F4.8°C 57% 11.4 mph S18.3 kmh S 23.5 mph37.8 kmh 29.04 in983.4 mb 0.05 in1.3 mm 0.00 in0.0 mm 0.48 in12.2 mm
02:45 PM 55.6°F13.1°C 41.0°F5.0°C 58% 10.7 mph SSE17.2 kmh SSE 23.5 mph37.8 kmh 29.04 in983.4 mb 0.05 in1.3 mm 0.00 in0.0 mm 0.48 in12.2 mm
02:46 PM 55.4°F13.0°C 40.9°F4.9°C 58% 8.3 mph SE13.4 kmh SE 23.5 mph37.8 kmh 29.03 in983.1 mb 0.05 in1.3 mm 0.00 in0.0 mm 0.48 in12.2 mm
02:47 PM 55.6°F13.1°C 41.0°F5.0°C 58% 6.9 mph SE11.1 kmh SE 23.5 mph37.8 kmh 29.04 in983.4 mb 0.05 in1.3 mm 0.00 in0.0 mm 0.48 in12.2 mm
02:48 PM 55.4°F13.0°C 40.9°F4.9°C 58% 9.2 mph SE14.8 kmh SE 23.5 mph37.8 kmh 29.03 in983.1 mb 0.05 in1.3 mm 0.00 in0.0 mm 0.48 in12.2 mm
02:49 PM 55.4°F13.0°C 41.3°F5.2°C 59% 11.4 mph SE18.3 kmh SE 23.5 mph37.8 kmh 29.03 in983.1 mb 0.05 in1.3 mm 0.00 in0.0 mm 0.48 in12.2 mm
02:50 PM 55.4°F13.0°C 41.3°F5.2°C 59% 9.8 mph SE15.8 kmh SE 23.5 mph37.8 kmh 29.03 in983.1 mb 0.05 in1.3 mm 0.00 in0.0 mm 0.48 in12.2 mm
02:51 PM 55.2°F12.9°C 41.1°F5.1°C 59% 13.0 mph SE20.9 kmh SE 17.4 mph28.0 kmh 29.04 in983.4 mb 0.05 in1.3 mm 0.00 in0.0 mm 0.48 in12.2 mm
02:52 PM 55.2°F12.9°C 41.1°F5.1°C 59% 13.0 mph SE20.9 kmh SE 17.4 mph28.0 kmh 29.03 in983.1 mb 0.05 in1.3 mm 0.00 in0.0 mm 0.48 in12.2 mm
02:53 PM 55.2°F12.9°C 40.7°F4.8°C 58% 13.6 mph SE21.9 kmh SE 19.0 mph30.6 kmh 29.03 in983.1 mb 0.02 in0.5 mm 0.00 in0.0 mm 0.48 in12.2 mm
02:54 PM 55.2°F12.9°C 40.7°F4.8°C 58% 11.4 mph SE18.3 kmh SE 19.0 mph30.6 kmh 29.03 in983.1 mb 0.02 in0.5 mm 0.00 in0.0 mm 0.48 in12.2 mm
02:55 PM 55.4°F13.0°C 40.9°F4.9°C 58% 13.0 mph S20.9 kmh S 19.0 mph30.6 kmh 29.04 in983.4 mb 0.00 in0.0 mm 0.00 in0.0 mm 0.48 in12.2 mm
02:56 PM 55.4°F13.0°C 41.3°F5.2°C 59% 9.8 mph SSW15.8 kmh SSW 19.0 mph30.6 kmh 29.03 in983.1 mb 0.00 in0.0 mm 0.00 in0.0 mm 0.48 in12.2 mm
02:57 PM 55.8°F13.2°C 41.2°F5.1°C 58% 10.7 mph SW17.2 kmh SW 19.0 mph30.6 kmh 29.04 in983.4 mb 0.00 in0.0 mm 0.00 in0.0 mm 0.48 in12.2 mm
02:58 PM 56.1°F13.4°C 41.1°F5.1°C 57% 12.1 mph SW19.5 kmh SW 19.7 mph31.7 kmh 29.04 in983.4 mb 0.00 in0.0 mm 0.00 in0.0 mm 0.48 in12.2 mm
02:59 PM 56.5°F13.6°C 41.9°F5.5°C 58% 10.7 mph SW17.2 kmh SW 19.7 mph31.7 kmh 29.03 in983.1 mb 0.00 in0.0 mm 0.00 in0.0 mm 0.48 in12.2 mm
03:00 PM 56.8°F13.8°C 41.8°F5.4°C 57% 11.4 mph SW18.3 kmh SW 19.7 mph31.7 kmh 29.04 in983.4 mb 0.00 in0.0 mm 0.00 in0.0 mm 0.48 in12.2 mm
03:01 PM 57.0°F13.9°C 41.0°F5.0°C 55% 13.6 mph SW21.9 kmh SW 19.7 mph31.7 kmh 29.03 in983.1 mb 0.04 in1.0 mm 2.40 in61.0 mm 0.52 in13.2 mm
03:02 PM 57.2°F14.0°C 40.7°F4.8°C 54% 13.6 mph SW21.9 kmh SW 25.1 mph40.4 kmh 29.04 in983.4 mb 0.04 in1.0 mm 0.00 in0.0 mm 0.52 in13.2 mm
03:03 PM 57.0°F13.9°C 40.0°F4.4°C 53% 14.5 mph SSW23.3 kmh SSW 25.1 mph40.4 kmh 29.04 in983.4 mb 0.04 in1.0 mm 0.00 in0.0 mm 0.52 in13.2 mm
03:04 PM 57.0°F13.9°C 40.0°F4.4°C 53% 13.6 mph S21.9 kmh S 25.1 mph40.4 kmh 29.04 in983.4 mb 0.04 in1.0 mm 0.00 in0.0 mm 0.52 in13.2 mm
03:05 PM 57.2°F14.0°C 40.2°F4.6°C 53% 12.1 mph S19.5 kmh S 25.1 mph40.4 kmh 29.04 in983.4 mb 0.04 in1.0 mm 0.00 in0.0 mm 0.52 in13.2 mm
03:06 PM 57.2°F14.0°C 40.7°F4.8°C 54% 12.1 mph S19.5 kmh S 25.1 mph40.4 kmh 29.04 in983.4 mb 0.04 in1.0 mm 0.00 in0.0 mm 0.52 in13.2 mm
03:07 PM 57.2°F14.0°C 40.7°F4.8°C 54% 9.8 mph S15.8 kmh S 25.1 mph40.4 kmh 29.04 in983.4 mb 0.04 in1.0 mm 0.00 in0.0 mm 0.52 in13.2 mm
03:08 PM 57.2°F14.0°C 40.7°F4.8°C 54% 9.8 mph S15.8 kmh S 25.1 mph40.4 kmh 29.04 in983.4 mb 0.04 in1.0 mm 0.00 in0.0 mm 0.52 in13.2 mm
03:09 PM 57.4°F14.1°C 40.9°F4.9°C 54% 10.7 mph S17.2 kmh S 25.1 mph40.4 kmh 29.04 in983.4 mb 0.04 in1.0 mm 0.00 in0.0 mm 0.52 in13.2 mm
03:10 PM 57.6°F14.2°C 40.5°F4.7°C 53% 11.4 mph S18.3 kmh S 25.1 mph40.4 kmh 29.04 in983.4 mb 0.04 in1.0 mm 0.00 in0.0 mm 0.52 in13.2 mm
03:11 PM 57.4°F14.1°C 39.9°F4.4°C 52% 9.8 mph S15.8 kmh S 25.1 mph40.4 kmh 29.04 in983.4 mb 0.04 in1.0 mm 0.00 in0.0 mm 0.52 in13.2 mm
03:12 PM 57.2°F14.0°C 39.7°F4.3°C 52% 9.8 mph S15.8 kmh S 25.1 mph40.4 kmh 29.04 in983.4 mb 0.04 in1.0 mm 0.00 in0.0 mm 0.52 in13.2 mm
03:13 PM 57.0°F13.9°C 40.0°F4.4°C 53% 11.4 mph S18.3 kmh S 20.6 mph33.2 kmh 29.04 in983.4 mb 0.04 in1.0 mm 0.00 in0.0 mm 0.52 in13.2 mm
03:14 PM 57.0°F13.9°C 40.0°F4.4°C 53% 11.4 mph S18.3 kmh S 19.7 mph31.7 kmh 29.04 in983.4 mb 0.04 in1.0 mm 0.00 in0.0 mm 0.52 in13.2 mm
03:15 PM 57.0°F13.9°C 40.0°F4.4°C 53% 11.4 mph SSW18.3 kmh SSW 18.3 mph29.5 kmh 29.04 in983.4 mb 0.04 in1.0 mm 0.00 in0.0 mm 0.52 in13.2 mm
03:16 PM 56.8°F13.8°C 39.4°F4.1°C 52% 17.4 mph S28.0 kmh S 24.4 mph39.3 kmh 29.04 in983.4 mb 0.04 in1.0 mm 0.00 in0.0 mm 0.52 in13.2 mm
03:17 PM 56.7°F13.7°C 39.2°F4.0°C 52% 12.1 mph S19.5 kmh S 24.4 mph39.3 kmh 29.04 in983.4 mb 0.04 in1.0 mm 0.00 in0.0 mm 0.52 in13.2 mm
03:18 PM 56.8°F13.8°C 39.4°F4.1°C 52% 13.6 mph S21.9 kmh S 24.4 mph39.3 kmh 29.04 in983.4 mb 0.04 in1.0 mm 0.00 in0.0 mm 0.52 in13.2 mm
03:19 PM 56.8°F13.8°C 38.9°F3.8°C 51% 15.9 mph S25.6 kmh S 24.4 mph39.3 kmh 29.04 in983.4 mb 0.05 in1.3 mm 0.60 in15.2 mm 0.53 in13.5 mm
03:20 PM 56.8°F13.8°C 38.9°F3.8°C 51% 16.8 mph S27.0 kmh S 24.4 mph39.3 kmh 29.04 in983.4 mb 0.05 in1.3 mm 0.00 in0.0 mm 0.53 in13.5 mm
03:21 PM 57.0°F13.9°C 39.1°F3.9°C 51% 11.4 mph S18.3 kmh S 24.4 mph39.3 kmh 29.04 in983.4 mb 0.05 in1.3 mm 0.00 in0.0 mm 0.53 in13.5 mm
03:22 PM 57.0°F13.9°C 39.6°F4.2°C 52% 9.2 mph SSW14.8 kmh SSW 24.4 mph39.3 kmh 29.04 in983.4 mb 0.05 in1.3 mm 0.00 in0.0 mm 0.53 in13.5 mm
03:23 PM 56.8°F13.8°C 39.4°F4.1°C 52% 13.0 mph SSW20.9 kmh SSW 24.4 mph39.3 kmh 29.04 in983.4 mb 0.05 in1.3 mm 0.00 in0.0 mm 0.53 in13.5 mm
03:24 PM 57.0°F13.9°C 39.6°F4.2°C 52% 14.5 mph SSW23.3 kmh SSW 24.4 mph39.3 kmh 29.04 in983.4 mb 0.05 in1.3 mm 0.00 in0.0 mm 0.53 in13.5 mm
03:25 PM 57.0°F13.9°C 39.6°F4.2°C 52% 15.2 mph SSW24.5 kmh SSW 24.4 mph39.3 kmh 29.04 in983.4 mb 0.06 in1.5 mm 0.60 in15.2 mm 0.54 in13.7 mm
03:26 PM 56.8°F13.8°C 39.4°F4.1°C 52% 14.5 mph SSW23.3 kmh SSW 24.4 mph39.3 kmh 29.05 in983.7 mb 0.06 in1.5 mm 0.00 in0.0 mm 0.54 in13.7 mm
03:27 PM 56.5°F13.6°C 39.1°F3.9°C 52% 11.4 mph SSW18.3 kmh SSW 24.4 mph39.3 kmh 29.05 in983.7 mb 0.06 in1.5 mm 0.00 in0.0 mm 0.54 in13.7 mm
03:28 PM 56.1°F13.4°C 38.7°F3.7°C 52% 9.8 mph SSW15.8 kmh SSW 24.4 mph39.3 kmh 29.05 in983.7 mb 0.06 in1.5 mm 0.00 in0.0 mm 0.54 in13.7 mm
03:29 PM 55.6°F13.1°C 38.2°F3.4°C 52% 15.2 mph SSW24.5 kmh SSW 24.4 mph39.3 kmh 29.05 in983.7 mb 0.09 in2.3 mm 1.80 in45.7 mm 0.58 in14.7 mm
03:30 PM 55.6°F13.1°C 38.2°F3.4°C 52% 12.1 mph SSW19.5 kmh SSW 24.4 mph39.3 kmh 29.05 in983.7 mb 0.09 in2.3 mm 0.00 in0.0 mm 0.58 in14.7 mm
03:31 PM 55.4°F13.0°C 38.1°F3.4°C 52% 17.4 mph SSW28.0 kmh SSW 20.6 mph33.2 kmh 29.05 in983.7 mb 0.09 in2.3 mm 0.00 in0.0 mm 0.58 in14.7 mm
03:32 PM 55.8°F13.2°C 38.9°F3.8°C 53% 15.2 mph S24.5 kmh S 22.1 mph35.6 kmh 29.05 in983.7 mb 0.09 in2.3 mm 0.00 in0.0 mm 0.58 in14.7 mm
03:33 PM 55.8°F13.2°C 38.9°F3.8°C 53% 15.2 mph S24.5 kmh S 22.1 mph35.6 kmh 29.05 in983.7 mb 0.09 in2.3 mm 0.00 in0.0 mm 0.58 in14.7 mm
03:34 PM 55.8°F13.2°C 39.8°F4.3°C 55% 15.2 mph S24.5 kmh S 22.1 mph35.6 kmh 29.05 in983.7 mb 0.09 in2.3 mm 0.00 in0.0 mm 0.58 in14.7 mm
03:35 PM 55.8°F13.2°C 39.8°F4.3°C 55% 15.2 mph S24.5 kmh S 22.1 mph35.6 kmh 29.05 in983.7 mb 0.09 in2.3 mm 0.00 in0.0 mm 0.58 in14.7 mm
03:36 PM 55.4°F13.0°C 40.0°F4.4°C 56% 9.8 mph S15.8 kmh S 22.1 mph35.6 kmh 29.05 in983.7 mb 0.09 in2.3 mm 0.00 in0.0 mm 0.58 in14.7 mm
03:37 PM 55.2°F12.9°C 39.8°F4.3°C 56% 9.8 mph SE15.8 kmh SE 22.1 mph35.6 kmh 29.05 in983.7 mb 0.09 in2.3 mm 0.00 in0.0 mm 0.58 in14.7 mm
03:38 PM 55.4°F13.0°C 40.4°F4.7°C 57% 12.1 mph ESE19.5 kmh ESE 22.1 mph35.6 kmh 29.05 in983.7 mb 0.09 in2.3 mm 0.00 in0.0 mm 0.58 in14.7 mm
03:39 PM 55.6°F13.1°C 40.6°F4.8°C 57% 10.7 mph E17.2 kmh E 22.1 mph35.6 kmh 29.05 in983.7 mb 0.09 in2.3 mm 0.00 in0.0 mm 0.58 in14.7 mm
03:40 PM 56.1°F13.4°C 41.1°F5.1°C 57% 9.2 mph N14.8 kmh N 22.1 mph35.6 kmh 29.05 in983.7 mb 0.09 in2.3 mm 0.00 in0.0 mm 0.58 in14.7 mm
03:41 PM 56.1°F13.4°C 41.1°F5.1°C 57% 9.2 mph E14.8 kmh E 22.1 mph35.6 kmh 29.05 in983.7 mb 0.09 in2.3 mm 0.00 in0.0 mm 0.58 in14.7 mm
03:42 PM 56.5°F13.6°C 40.0°F4.4°C 54% 18.3 mph W29.5 kmh W 23.5 mph37.8 kmh 29.05 in983.7 mb 0.12 in3.0 mm 1.80 in45.7 mm 0.60 in15.2 mm
03:43 PM 56.5°F13.6°C 39.5°F4.2°C 53% 13.6 mph WSW21.9 kmh WSW 23.5 mph37.8 kmh 29.05 in983.7 mb 0.12 in3.0 mm 0.00 in0.0 mm 0.60 in15.2 mm
03:44 PM 56.7°F13.7°C 39.2°F4.0°C 52% 14.5 mph SW23.3 kmh SW 23.5 mph37.8 kmh 29.05 in983.7 mb 0.12 in3.0 mm 0.00 in0.0 mm 0.60 in15.2 mm
03:45 PM 56.7°F13.7°C 39.2°F4.0°C 52% 14.5 mph SSW23.3 kmh SSW 23.5 mph37.8 kmh 29.05 in983.7 mb 0.12 in3.0 mm 0.00 in0.0 mm 0.60 in15.2 mm
03:46 PM 56.8°F13.8°C 39.4°F4.1°C 52% 9.8 mph SW15.8 kmh SW 23.5 mph37.8 kmh 29.05 in983.7 mb 0.12 in3.0 mm 0.00 in0.0 mm 0.60 in15.2 mm
03:47 PM 56.8°F13.8°C 39.4°F4.1°C 52% 19.7 mph SW31.7 kmh SW 23.5 mph37.8 kmh 29.05 in983.7 mb 0.19 in4.8 mm 4.20 in106.7 mm 0.67 in17.0 mm
03:48 PM 56.8°F13.8°C 39.4°F4.1°C 52% 13.0 mph SW20.9 kmh SW 23.5 mph37.8 kmh 29.05 in983.7 mb 0.19 in4.8 mm 0.00 in0.0 mm 0.67 in17.0 mm
03:49 PM 56.8°F13.8°C 39.4°F4.1°C 52% 12.1 mph SSW19.5 kmh SSW 23.5 mph37.8 kmh 29.05 in983.7 mb 0.19 in4.8 mm 0.00 in0.0 mm 0.67 in17.0 mm
03:50 PM 57.0°F13.9°C 39.6°F4.2°C 52% 9.2 mph SSW14.8 kmh SSW 23.5 mph37.8 kmh 29.05 in983.7 mb 0.19 in4.8 mm 0.00 in0.0 mm 0.67 in17.0 mm
03:51 PM 57.0°F13.9°C 39.1°F3.9°C 51% 13.0 mph SSW20.9 kmh SSW 23.5 mph37.8 kmh 29.05 in983.7 mb 0.19 in4.8 mm 0.00 in0.0 mm 0.67 in17.0 mm
03:52 PM 57.0°F13.9°C 39.1°F3.9°C 51% 11.4 mph SSW18.3 kmh SSW 23.5 mph37.8 kmh 29.05 in983.7 mb 0.19 in4.8 mm 0.00 in0.0 mm 0.67 in17.0 mm
03:53 PM 57.0°F13.9°C 39.1°F3.9°C 51% 14.5 mph SSW23.3 kmh SSW 22.8 mph36.7 kmh 29.06 in984.1 mb 0.20 in5.1 mm 0.60 in15.2 mm 0.69 in17.5 mm
03:54 PM 57.0°F13.9°C 39.1°F3.9°C 51% 15.2 mph SSW24.5 kmh SSW 22.8 mph36.7 kmh 29.05 in983.7 mb 0.20 in5.1 mm 0.00 in0.0 mm 0.69 in17.5 mm
03:55 PM 57.2°F14.0°C 38.7°F3.7°C 50% 12.1 mph S19.5 kmh S 22.8 mph36.7 kmh 29.05 in983.7 mb 0.20 in5.1 mm 0.00 in0.0 mm 0.69 in17.5 mm
03:56 PM 56.7°F13.7°C 38.2°F3.4°C 50% 16.8 mph S27.0 kmh S 25.9 mph41.7 kmh 29.05 in983.7 mb 0.24 in6.1 mm 2.40 in61.0 mm 0.72 in18.3 mm
03:57 PM 56.3°F13.5°C 38.4°F3.6°C 51% 13.0 mph S20.9 kmh S 25.9 mph41.7 kmh 29.05 in983.7 mb 0.24 in6.1 mm 0.00 in0.0 mm 0.72 in18.3 mm
03:58 PM 56.1°F13.4°C 38.2°F3.4°C 51% 10.7 mph S17.2 kmh S 25.9 mph41.7 kmh 29.05 in983.7 mb 0.24 in6.1 mm 0.00 in0.0 mm 0.72 in18.3 mm
03:59 PM 56.1°F13.4°C 38.2°F3.4°C 51% 10.7 mph S17.2 kmh S 25.9 mph41.7 kmh 29.05 in983.7 mb 0.24 in6.1 mm 0.00 in0.0 mm 0.72 in18.3 mm
04:00 PM 55.6°F13.1°C 38.2°F3.4°C 52% 13.0 mph S20.9 kmh S 25.9 mph41.7 kmh 29.05 in983.7 mb 0.20 in5.1 mm 0.00 in0.0 mm 0.72 in18.3 mm
04:01 PM 55.6°F13.1°C 38.2°F3.4°C 52% 13.0 mph S20.9 kmh S 25.9 mph41.7 kmh 29.05 in983.7 mb 0.20 in5.1 mm 0.00 in0.0 mm 0.72 in18.3 mm
04:02 PM 55.6°F13.1°C 38.2°F3.4°C 52% 13.0 mph S20.9 kmh S 25.9 mph41.7 kmh 29.05 in983.7 mb 0.20 in5.1 mm 0.00 in0.0 mm 0.72 in18.3 mm
04:03 PM 55.6°F13.1°C 38.2°F3.4°C 52% 13.0 mph S20.9 kmh S 25.9 mph41.7 kmh 29.06 in984.1 mb 0.20 in5.1 mm 0.00 in0.0 mm 0.72 in18.3 mm
04:04 PM 55.6°F13.1°C 38.2°F3.4°C 52% 13.0 mph S20.9 kmh S 25.9 mph41.7 kmh 29.06 in984.1 mb 0.20 in5.1 mm 0.00 in0.0 mm 0.72 in18.3 mm
04:05 PM 55.6°F13.1°C 38.2°F3.4°C 52% 13.0 mph SSW20.9 kmh SSW 25.9 mph41.7 kmh 29.06 in984.1 mb 0.20 in5.1 mm 0.00 in0.0 mm 0.72 in18.3 mm
04:06 PM 55.6°F13.1°C 38.2°F3.4°C 52% 13.0 mph SSW20.9 kmh SSW 21.3 mph34.3 kmh 29.07 in984.4 mb 0.20 in5.1 mm 0.00 in0.0 mm 0.72 in18.3 mm
04:07 PM 55.6°F13.1°C 38.2°F3.4°C 52% 13.0 mph SSW20.9 kmh SSW 18.3 mph29.5 kmh 29.06 in984.1 mb 0.20 in5.1 mm 0.00 in0.0 mm 0.72 in18.3 mm
04:08 PM 55.6°F13.1°C 38.2°F3.4°C 52% 13.0 mph SSW20.9 kmh SSW 18.3 mph29.5 kmh 29.07 in984.4 mb 0.20 in5.1 mm 0.00 in0.0 mm 0.72 in18.3 mm
04:09 PM 52.3°F11.3°C 39.3°F4.1°C 61% 14.5 mph SSW23.3 kmh SSW 22.8 mph36.7 kmh 29.07 in984.4 mb 0.22 in5.6 mm 1.20 in30.5 mm 0.74 in18.8 mm
04:10 PM 52.0°F11.1°C 39.4°F4.1°C 62% 14.5 mph SSW23.3 kmh SSW 22.8 mph36.7 kmh 29.07 in984.4 mb 0.22 in5.6 mm 0.00 in0.0 mm 0.74 in18.8 mm
04:11 PM 51.8°F11.0°C 39.6°F4.2°C 63% 8.3 mph SSW13.4 kmh SSW 22.8 mph36.7 kmh 29.07 in984.4 mb 0.22 in5.6 mm 0.00 in0.0 mm 0.74 in18.8 mm
04:12 PM 51.6°F10.9°C 39.8°F4.3°C 64% 9.2 mph SW14.8 kmh SW 22.8 mph36.7 kmh 29.07 in984.4 mb 0.22 in5.6 mm 0.00 in0.0 mm 0.74 in18.8 mm
04:13 PM 51.3°F10.7°C 39.9°F4.4°C 65% 11.4 mph SW18.3 kmh SW 22.8 mph36.7 kmh 29.07 in984.4 mb 0.22 in5.6 mm 0.00 in0.0 mm 0.74 in18.8 mm
04:14 PM 51.3°F10.7°C 39.9°F4.4°C 65% 9.8 mph SW15.8 kmh SW 22.8 mph36.7 kmh 29.07 in984.4 mb 0.22 in5.6 mm 0.00 in0.0 mm 0.74 in18.8 mm
04:15 PM 51.1°F10.6°C 40.1°F4.5°C 66% 8.3 mph SW13.4 kmh SW 22.8 mph36.7 kmh 29.07 in984.4 mb 0.22 in5.6 mm 0.00 in0.0 mm 0.74 in18.8 mm
04:16 PM 51.1°F10.6°C 39.7°F4.3°C 65% 15.2 mph SW24.5 kmh SW 22.8 mph36.7 kmh 29.07 in984.4 mb 0.22 in5.6 mm 0.00 in0.0 mm 0.74 in18.8 mm
04:17 PM 51.3°F10.7°C 40.3°F4.6°C 66% 8.3 mph WSW13.4 kmh WSW 22.8 mph36.7 kmh 29.07 in984.4 mb 0.22 in5.6 mm 0.00 in0.0 mm 0.74 in18.8 mm
04:18 PM 51.4°F10.8°C 40.5°F4.7°C 66% 7.6 mph WSW12.2 kmh WSW 22.8 mph36.7 kmh 29.07 in984.4 mb 0.22 in5.6 mm 0.00 in0.0 mm 0.74 in18.8 mm
04:19 PM 51.8°F11.0°C 40.8°F4.9°C 66% 5.4 mph WSW8.7 kmh WSW 21.3 mph34.3 kmh 29.07 in984.4 mb 0.21 in5.3 mm 0.00 in0.0 mm 0.74 in18.8 mm
04:20 PM 52.2°F11.2°C 41.1°F5.1°C 66% 9.8 mph WSW15.8 kmh WSW 21.3 mph34.3 kmh 29.07 in984.4 mb 0.21 in5.3 mm 0.00 in0.0 mm 0.74 in18.8 mm
04:21 PM 52.5°F11.4°C 41.1°F5.1°C 65% 9.2 mph SW14.8 kmh SW 21.3 mph34.3 kmh 29.07 in984.4 mb 0.21 in5.3 mm 0.00 in0.0 mm 0.74 in18.8 mm
04:22 PM 52.5°F11.4°C 41.1°F5.1°C 65% 9.2 mph SW14.8 kmh SW 21.3 mph34.3 kmh 29.06 in984.1 mb 0.21 in5.3 mm 0.00 in0.0 mm 0.74 in18.8 mm
04:23 PM 53.6°F12.0°C 41.7°F5.4°C 64% 7.6 mph SW12.2 kmh SW 21.3 mph34.3 kmh 29.06 in984.1 mb 0.21 in5.3 mm 0.00 in0.0 mm 0.74 in18.8 mm
04:24 PM 53.8°F12.1°C 41.5°F5.3°C 63% 9.8 mph SW15.8 kmh SW 21.3 mph34.3 kmh 29.07 in984.4 mb 0.21 in5.3 mm 0.00 in0.0 mm 0.74 in18.8 mm
04:25 PM 54.1°F12.3°C 41.4°F5.2°C 62% 8.3 mph SW13.4 kmh SW 21.3 mph34.3 kmh 29.07 in984.4 mb 0.20 in5.1 mm 0.00 in0.0 mm 0.74 in18.8 mm
04:26 PM 54.1°F12.3°C 41.4°F5.2°C 62% 8.3 mph SW13.4 kmh SW 15.9 mph25.6 kmh 29.07 in984.4 mb 0.20 in5.1 mm 0.00 in0.0 mm 0.74 in18.8 mm
04:27 PM 54.3°F12.4°C 41.1°F5.1°C 61% 9.8 mph SW15.8 kmh SW 13.6 mph21.9 kmh 29.07 in984.4 mb 0.20 in5.1 mm 0.00 in0.0 mm 0.74 in18.8 mm
04:28 PM 54.1°F12.3°C 41.0°F5.0°C 61% 11.4 mph SW18.3 kmh SW 17.4 mph28.0 kmh 29.07 in984.4 mb 0.20 in5.1 mm 0.00 in0.0 mm 0.74 in18.8 mm
04:29 PM 54.1°F12.3°C 41.0°F5.0°C 61% 13.0 mph SW20.9 kmh SW 21.3 mph34.3 kmh 29.07 in984.4 mb 0.17 in4.3 mm 0.00 in0.0 mm 0.74 in18.8 mm
04:30 PM 54.1°F12.3°C 41.0°F5.0°C 61% 13.0 mph SW20.9 kmh SW 21.3 mph34.3 kmh 29.07 in984.4 mb 0.17 in4.3 mm 0.00 in0.0 mm 0.74 in18.8 mm
04:31 PM 54.3°F12.4°C 41.1°F5.1°C 61% 9.8 mph SSW15.8 kmh SSW 21.3 mph34.3 kmh 29.07 in984.4 mb 0.17 in4.3 mm 0.00 in0.0 mm 0.74 in18.8 mm
04:32 PM 54.3°F12.4°C 41.1°F5.1°C 61% 10.7 mph SSW17.2 kmh SSW 21.3 mph34.3 kmh 29.07 in984.4 mb 0.17 in4.3 mm 0.00 in0.0 mm 0.74 in18.8 mm
04:33 PM 54.3°F12.4°C 41.1°F5.1°C 61% 10.7 mph S17.2 kmh S 21.3 mph34.3 kmh 29.07 in984.4 mb 0.17 in4.3 mm 0.00 in0.0 mm 0.74 in18.8 mm
04:34 PM 54.9°F12.7°C 39.5°F4.2°C 56% 8.3 mph S13.4 kmh S 21.3 mph34.3 kmh 29.07 in984.4 mb 0.17 in4.3 mm 0.00 in0.0 mm 0.74 in18.8 mm
04:35 PM 54.9°F12.7°C 39.5°F4.2°C 56% 11.4 mph S18.3 kmh S 21.3 mph34.3 kmh 29.07 in984.4 mb 0.17 in4.3 mm 0.00 in0.0 mm 0.74 in18.8 mm
04:36 PM 55.0°F12.8°C 39.2°F4.0°C 55% 12.1 mph S19.5 kmh S 21.3 mph34.3 kmh 29.07 in984.4 mb 0.17 in4.3 mm 0.00 in0.0 mm 0.74 in18.8 mm
04:37 PM 55.0°F12.8°C 39.2°F4.0°C 55% 12.1 mph S19.5 kmh S 21.3 mph34.3 kmh 29.07 in984.4 mb 0.17 in4.3 mm 0.00 in0.0 mm 0.74 in18.8 mm
04:38 PM 54.9°F12.7°C 39.5°F4.2°C 56% 14.5 mph SSE23.3 kmh SSE 21.3 mph34.3 kmh 29.07 in984.4 mb 0.17 in4.3 mm 0.00 in0.0 mm 0.74 in18.8 mm
04:39 PM 54.9°F12.7°C 39.5°F4.2°C 56% 12.1 mph SSE19.5 kmh SSE 21.3 mph34.3 kmh 29.07 in984.4 mb 0.20 in5.1 mm 1.80 in45.7 mm 0.78 in19.8 mm
04:40 PM 54.9°F12.7°C 39.5°F4.2°C 56% 11.4 mph S18.3 kmh S 21.3 mph34.3 kmh 29.07 in984.4 mb 0.20 in5.1 mm 0.00 in0.0 mm 0.78 in19.8 mm
04:41 PM 54.9°F12.7°C 39.5°F4.2°C 56% 11.4 mph S18.3 kmh S 20.6 mph33.2 kmh 29.07 in984.4 mb 0.20 in5.1 mm 0.00 in0.0 mm 0.78 in19.8 mm
04:42 PM 55.0°F12.8°C 39.6°F4.2°C 56% 9.8 mph S15.8 kmh S 20.6 mph33.2 kmh 29.08 in984.8 mb 0.19 in4.8 mm 0.00 in0.0 mm 0.79 in20.1 mm
04:43 PM 55.0°F12.8°C 39.6°F4.2°C 56% 9.8 mph SSW15.8 kmh SSW 20.6 mph33.2 kmh 29.07 in984.4 mb 0.19 in4.8 mm 0.00 in0.0 mm 0.79 in20.1 mm
04:44 PM 55.0°F12.8°C 40.1°F4.5°C 57% 13.0 mph SSW20.9 kmh SSW 20.6 mph33.2 kmh 29.07 in984.4 mb 0.19 in4.8 mm 0.00 in0.0 mm 0.79 in20.1 mm
04:45 PM 55.0°F12.8°C 40.1°F4.5°C 57% 9.8 mph S15.8 kmh S 20.6 mph33.2 kmh 29.07 in984.4 mb 0.19 in4.8 mm 0.00 in0.0 mm 0.79 in20.1 mm
04:46 PM 55.2°F12.9°C 40.2°F4.6°C 57% 10.7 mph S17.2 kmh S 20.6 mph33.2 kmh 29.07 in984.4 mb 0.12 in3.0 mm 0.00 in0.0 mm 0.79 in20.1 mm
04:47 PM 55.2°F12.9°C 40.2°F4.6°C 57% 13.0 mph S20.9 kmh S 20.6 mph33.2 kmh 29.07 in984.4 mb 0.12 in3.0 mm 0.00 in0.0 mm 0.79 in20.1 mm
04:48 PM 55.0°F12.8°C 39.6°F4.2°C 56% 11.4 mph S18.3 kmh S 20.6 mph33.2 kmh 29.07 in984.4 mb 0.12 in3.0 mm 0.00 in0.0 mm 0.79 in20.1 mm
04:49 PM 54.5°F12.5°C 39.1°F3.9°C 56% 13.0 mph SSE20.9 kmh SSE 20.6 mph33.2 kmh 29.07 in984.4 mb 0.12 in3.0 mm 0.00 in0.0 mm 0.79 in20.1 mm
04:50 PM 54.1°F12.3°C 40.6°F4.8°C 60% 10.7 mph SSE17.2 kmh SSE 20.6 mph33.2 kmh 29.07 in984.4 mb 0.12 in3.0 mm 0.00 in0.0 mm 0.79 in20.1 mm
04:51 PM 54.0°F12.2°C 40.8°F4.9°C 61% 12.1 mph SE19.5 kmh SE 20.6 mph33.2 kmh 29.08 in984.8 mb 0.12 in3.0 mm 0.00 in0.0 mm 0.79 in20.1 mm
04:52 PM 53.8°F12.1°C 40.6°F4.8°C 61% 13.6 mph SE21.9 kmh SE 20.6 mph33.2 kmh 29.08 in984.8 mb 0.11 in2.8 mm 0.00 in0.0 mm 0.79 in20.1 mm
04:53 PM 53.6°F12.0°C 40.5°F4.7°C 61% 8.3 mph SE13.4 kmh SE 20.6 mph33.2 kmh 29.08 in984.8 mb 0.11 in2.8 mm 0.00 in0.0 mm 0.79 in20.1 mm
04:54 PM 53.6°F12.0°C 40.5°F4.7°C 61% 8.3 mph SE13.4 kmh SE 18.3 mph29.5 kmh 29.08 in984.8 mb 0.11 in2.8 mm 0.00 in0.0 mm 0.79 in20.1 mm
04:55 PM 53.6°F12.0°C 40.9°F4.9°C 62% 6.9 mph SE11.1 kmh SE 18.3 mph29.5 kmh 29.08 in984.8 mb 0.11 in2.8 mm 0.00 in0.0 mm 0.79 in20.1 mm
04:56 PM 53.4°F11.9°C 40.7°F4.8°C 62% 7.6 mph SE12.2 kmh SE 18.3 mph29.5 kmh 29.07 in984.4 mb 0.07 in1.8 mm 0.00 in0.0 mm 0.79 in20.1 mm
04:57 PM 53.4°F11.9°C 40.7°F4.8°C 62% 12.1 mph SE19.5 kmh SE 18.3 mph29.5 kmh 29.08 in984.8 mb 0.07 in1.8 mm 0.00 in0.0 mm 0.79 in20.1 mm
04:58 PM 53.4°F11.9°C 40.7°F4.8°C 62% 10.7 mph SE17.2 kmh SE 17.4 mph28.0 kmh 29.08 in984.8 mb 0.07 in1.8 mm 0.00 in0.0 mm 0.79 in20.1 mm
04:59 PM 53.2°F11.8°C 40.5°F4.7°C 62% 13.0 mph S20.9 kmh S 18.3 mph29.5 kmh 29.08 in984.8 mb 0.07 in1.8 mm 0.00 in0.0 mm 0.79 in20.1 mm
05:00 PM 53.2°F11.8°C 40.5°F4.7°C 62% 14.5 mph SSW23.3 kmh SSW 18.3 mph29.5 kmh 29.08 in984.8 mb 0.07 in1.8 mm 0.00 in0.0 mm 0.79 in20.1 mm
05:01 PM 53.1°F11.7°C 40.4°F4.7°C 62% 11.4 mph SSW18.3 kmh SSW 18.3 mph29.5 kmh 29.08 in984.8 mb 0.07 in1.8 mm 0.00 in0.0 mm 0.79 in20.1 mm
05:02 PM 53.1°F11.7°C 40.8°F4.9°C 63% 9.2 mph SW14.8 kmh SW 18.3 mph29.5 kmh 29.08 in984.8 mb 0.07 in1.8 mm 0.00 in0.0 mm 0.79 in20.1 mm
05:03 PM 52.9°F11.6°C 40.6°F4.8°C 63% 7.6 mph SSW12.2 kmh SSW 18.3 mph29.5 kmh 29.08 in984.8 mb 0.07 in1.8 mm 0.00 in0.0 mm 0.79 in20.1 mm
05:04 PM 52.9°F11.6°C 40.6°F4.8°C 63% 5.4 mph SW8.7 kmh SW 18.3 mph29.5 kmh 29.08 in984.8 mb 0.07 in1.8 mm 0.00 in0.0 mm 0.79 in20.1 mm
05:05 PM 52.3°F11.3°C 40.9°F4.9°C 65% 6.9 mph SW11.1 kmh SW 18.3 mph29.5 kmh 29.08 in984.8 mb 0.07 in1.8 mm 0.00 in0.0 mm 0.79 in20.1 mm
05:06 PM 52.0°F11.1°C 41.0°F5.0°C 66% 6.0 mph SW9.7 kmh SW 18.3 mph29.5 kmh 29.09 in985.1 mb 0.07 in1.8 mm 0.00 in0.0 mm 0.79 in20.1 mm
05:07 PM 51.6°F10.9°C 41.0°F5.0°C 67% 7.6 mph SW12.2 kmh SW 18.3 mph29.5 kmh 29.09 in985.1 mb 0.07 in1.8 mm 0.00 in0.0 mm 0.79 in20.1 mm
05:08 PM 51.3°F10.7°C 41.1°F5.1°C 68% 10.7 mph SW17.2 kmh SW 18.3 mph29.5 kmh 29.09 in985.1 mb 0.07 in1.8 mm 0.00 in0.0 mm 0.79 in20.1 mm
05:09 PM 50.5°F10.3°C 41.1°F5.1°C 70% 10.7 mph SW17.2 kmh SW 18.3 mph29.5 kmh 29.09 in985.1 mb 0.05 in1.3 mm 0.00 in0.0 mm 0.79 in20.1 mm
05:10 PM 50.5°F10.3°C 41.1°F5.1°C 70% 10.7 mph SW17.2 kmh SW 15.9 mph25.6 kmh 29.09 in985.1 mb 0.05 in1.3 mm 0.00 in0.0 mm 0.79 in20.1 mm
05:11 PM 50.0°F10.0°C 41.0°F5.0°C 71% 9.2 mph SW14.8 kmh SW 15.9 mph25.6 kmh 29.09 in985.1 mb 0.06 in1.5 mm 0.60 in15.2 mm 0.80 in20.3 mm
05:12 PM 49.5°F9.7°C 40.4°F4.7°C 71% 10.7 mph SW17.2 kmh SW 15.9 mph25.6 kmh 29.09 in985.1 mb 0.07 in1.8 mm 0.60 in15.2 mm 0.81 in20.6 mm
05:13 PM 49.1°F9.5°C 40.5°F4.7°C 72% 9.2 mph SW14.8 kmh SW 15.9 mph25.6 kmh 29.09 in985.1 mb 0.07 in1.8 mm 0.00 in0.0 mm 0.81 in20.6 mm
05:14 PM 48.9°F9.4°C 40.3°F4.6°C 72% 10.7 mph SW17.2 kmh SW 15.9 mph25.6 kmh 29.09 in985.1 mb 0.07 in1.8 mm 0.00 in0.0 mm 0.81 in20.6 mm
05:15 PM 48.7°F9.3°C 40.5°F4.7°C 73% 9.2 mph SW14.8 kmh SW 15.9 mph25.6 kmh 29.09 in985.1 mb 0.08 in2.0 mm 0.60 in15.2 mm 0.83 in21.1 mm
05:16 PM 48.7°F9.3°C 40.8°F4.9°C 74% 9.2 mph SSW14.8 kmh SSW 15.9 mph25.6 kmh 29.09 in985.1 mb 0.08 in2.0 mm 0.00 in0.0 mm 0.83 in21.1 mm
05:17 PM 48.6°F9.2°C 41.0°F5.0°C 75% 5.4 mph SW8.7 kmh SW 15.9 mph25.6 kmh 29.10 in985.4 mb 0.08 in2.0 mm 0.00 in0.0 mm 0.83 in21.1 mm
05:18 PM 48.6°F9.2°C 41.0°F5.0°C 75% 12.1 mph SW19.5 kmh SW 15.9 mph25.6 kmh 29.10 in985.4 mb 0.08 in2.0 mm 0.00 in0.0 mm 0.83 in21.1 mm
05:19 PM 48.6°F9.2°C 41.3°F5.2°C 76% 8.3 mph SW13.4 kmh SW 15.9 mph25.6 kmh 29.10 in985.4 mb 0.09 in2.3 mm 0.60 in15.2 mm 0.84 in21.3 mm
05:20 PM 48.6°F9.2°C 41.3°F5.2°C 76% 8.3 mph SSW13.4 kmh SSW 15.9 mph25.6 kmh 29.10 in985.4 mb 0.09 in2.3 mm 0.00 in0.0 mm 0.84 in21.3 mm
05:21 PM 48.4°F9.1°C 41.5°F5.3°C 77% 8.3 mph SSW13.4 kmh SSW 17.4 mph28.0 kmh 29.10 in985.4 mb 0.09 in2.3 mm 0.00 in0.0 mm 0.84 in21.3 mm
05:22 PM 48.4°F9.1°C 41.5°F5.3°C 77% 8.3 mph SSW13.4 kmh SSW 17.4 mph28.0 kmh 29.10 in985.4 mb 0.09 in2.3 mm 0.00 in0.0 mm 0.84 in21.3 mm
05:23 PM 48.2°F9.0°C 41.3°F5.2°C 77% 9.2 mph SW14.8 kmh SW 17.4 mph28.0 kmh 29.10 in985.4 mb 0.09 in2.3 mm 0.00 in0.0 mm 0.84 in21.3 mm
05:24 PM 48.2°F9.0°C 41.3°F5.2°C 77% 9.2 mph SW14.8 kmh SW 17.4 mph28.0 kmh 29.10 in985.4 mb 0.09 in2.3 mm 0.00 in0.0 mm 0.84 in21.3 mm
05:25 PM 48.0°F8.9°C 41.2°F5.1°C 77% 14.5 mph SW23.3 kmh SW 19.0 mph30.6 kmh 29.10 in985.4 mb 0.11 in2.8 mm 1.20 in30.5 mm 0.85 in21.6 mm
05:26 PM 48.0°F8.9°C 41.2°F5.1°C 77% 14.5 mph WSW23.3 kmh WSW 19.0 mph30.6 kmh 29.10 in985.4 mb 0.11 in2.8 mm 0.00 in0.0 mm 0.85 in21.6 mm
05:27 PM 47.8°F8.8°C 41.0°F5.0°C 77% 11.4 mph WSW18.3 kmh WSW 19.0 mph30.6 kmh 29.10 in985.4 mb 0.11 in2.8 mm 0.00 in0.0 mm 0.85 in21.6 mm
05:28 PM 47.8°F8.8°C 40.6°F4.8°C 76% 8.3 mph WSW13.4 kmh WSW 19.0 mph30.6 kmh 29.10 in985.4 mb 0.11 in2.8 mm 0.00 in0.0 mm 0.85 in21.6 mm
05:29 PM 47.8°F8.8°C 40.6°F4.8°C 76% 10.7 mph WSW17.2 kmh WSW 19.0 mph30.6 kmh 29.10 in985.4 mb 0.11 in2.8 mm 0.00 in0.0 mm 0.85 in21.6 mm
05:30 PM 47.8°F8.8°C 40.6°F4.8°C 76% 10.7 mph WSW17.2 kmh WSW 19.0 mph30.6 kmh 29.10 in985.4 mb 0.11 in2.8 mm 0.00 in0.0 mm 0.85 in21.6 mm
05:31 PM 47.8°F8.8°C 40.6°F4.8°C 76% 11.4 mph WSW18.3 kmh WSW 19.0 mph30.6 kmh 29.10 in985.4 mb 0.11 in2.8 mm 0.00 in0.0 mm 0.85 in21.6 mm
05:32 PM 47.8°F8.8°C 40.6°F4.8°C 76% 9.8 mph WSW15.8 kmh WSW 19.0 mph30.6 kmh 29.10 in985.4 mb 0.12 in3.0 mm 0.60 in15.2 mm 0.86 in21.8 mm
05:33 PM 47.7°F8.7°C 40.5°F4.7°C 76% 9.8 mph WSW15.8 kmh WSW 19.0 mph30.6 kmh 29.10 in985.4 mb 0.12 in3.0 mm 0.00 in0.0 mm 0.86 in21.8 mm
05:34 PM 47.7°F8.7°C 40.5°F4.7°C 76% 10.7 mph SW17.2 kmh SW 19.0 mph30.6 kmh 29.10 in985.4 mb 0.12 in3.0 mm 0.00 in0.0 mm 0.86 in21.8 mm
05:35 PM 47.7°F8.7°C 40.5°F4.7°C 76% 8.3 mph SW13.4 kmh SW 19.0 mph30.6 kmh 29.10 in985.4 mb 0.13 in3.3 mm 0.60 in15.2 mm 0.87 in22.1 mm
05:36 PM 47.7°F8.7°C 40.5°F4.7°C 76% 8.3 mph SW13.4 kmh SW 19.0 mph30.6 kmh 29.10 in985.4 mb 0.13 in3.3 mm 0.00 in0.0 mm 0.87 in22.1 mm
05:37 PM 47.7°F8.7°C 40.5°F4.7°C 76% 7.6 mph SW12.2 kmh SW 15.2 mph24.5 kmh 29.10 in985.4 mb 0.13 in3.3 mm 0.00 in0.0 mm 0.87 in22.1 mm
05:38 PM 47.8°F8.8°C 40.6°F4.8°C 76% 6.0 mph SW9.7 kmh SW 15.2 mph24.5 kmh 29.10 in985.4 mb 0.09 in2.3 mm 0.00 in0.0 mm 0.87 in22.1 mm
05:39 PM 47.8°F8.8°C 40.6°F4.8°C 76% 6.0 mph SW9.7 kmh SW 15.2 mph24.5 kmh 29.10 in985.4 mb 0.09 in2.3 mm 0.00 in0.0 mm 0.87 in22.1 mm
05:40 PM 47.8°F8.8°C 40.6°F4.8°C 76% 9.8 mph SW15.8 kmh SW 15.2 mph24.5 kmh 29.10 in985.4 mb 0.09 in2.3 mm 0.00 in0.0 mm 0.87 in22.1 mm
05:41 PM 47.8°F8.8°C 40.6°F4.8°C 76% 7.6 mph WSW12.2 kmh WSW 15.2 mph24.5 kmh 29.10 in985.4 mb 0.09 in2.3 mm 0.00 in0.0 mm 0.87 in22.1 mm
05:42 PM 47.8°F8.8°C 40.6°F4.8°C 76% 7.6 mph WSW12.2 kmh WSW 14.5 mph23.3 kmh 29.10 in985.4 mb 0.08 in2.0 mm 0.00 in0.0 mm 0.87 in22.1 mm
05:43 PM 48.0°F8.9°C 40.8°F4.9°C 76% 6.0 mph WSW9.7 kmh WSW 13.6 mph21.9 kmh 29.10 in985.4 mb 0.08 in2.0 mm 0.00 in0.0 mm 0.87 in22.1 mm
05:44 PM 48.0°F8.9°C 40.8°F4.9°C 76% 6.0 mph WSW9.7 kmh WSW 13.6 mph21.9 kmh 29.10 in985.4 mb 0.08 in2.0 mm 0.00 in0.0 mm 0.87 in22.1 mm
05:45 PM 48.0°F8.9°C 40.8°F4.9°C 76% 7.6 mph WSW12.2 kmh WSW 13.0 mph20.9 kmh 29.11 in985.8 mb 0.08 in2.0 mm 0.00 in0.0 mm 0.87 in22.1 mm
05:46 PM 48.0°F8.9°C 40.8°F4.9°C 76% 9.2 mph WSW14.8 kmh WSW 13.0 mph20.9 kmh 29.11 in985.8 mb 0.08 in2.0 mm 0.00 in0.0 mm 0.87 in22.1 mm
05:47 PM 48.0°F8.9°C 40.8°F4.9°C 76% 8.3 mph WSW13.4 kmh WSW 13.0 mph20.9 kmh 29.11 in985.8 mb 0.08 in2.0 mm 0.00 in0.0 mm 0.87 in22.1 mm
05:48 PM 48.2°F9.0°C 41.0°F5.0°C 76% 6.0 mph SW9.7 kmh SW 13.0 mph20.9 kmh 29.10 in985.4 mb 0.08 in2.0 mm 0.00 in0.0 mm 0.87 in22.1 mm
05:49 PM 48.2°F9.0°C 41.0°F5.0°C 76% 4.5 mph SW7.2 kmh SW 13.0 mph20.9 kmh 29.11 in985.8 mb 0.08 in2.0 mm 0.00 in0.0 mm 0.87 in22.1 mm
05:50 PM 48.2°F9.0°C 41.0°F5.0°C 76% 4.5 mph SW7.2 kmh SW 12.1 mph19.5 kmh 29.11 in985.8 mb 0.08 in2.0 mm 0.00 in0.0 mm 0.87 in22.1 mm
05:51 PM 48.2°F9.0°C 41.0°F5.0°C 76% 6.0 mph SW9.7 kmh SW 12.1 mph19.5 kmh 29.11 in985.8 mb 0.08 in2.0 mm 0.00 in0.0 mm 0.87 in22.1 mm
05:52 PM 48.2°F9.0°C 41.0°F5.0°C 76% 6.0 mph SW9.7 kmh SW 12.1 mph19.5 kmh 29.11 in985.8 mb 0.08 in2.0 mm 0.00 in0.0 mm 0.87 in22.1 mm
05:53 PM 48.4°F9.1°C 41.5°F5.3°C 77% 6.0 mph WSW9.7 kmh WSW 12.1 mph19.5 kmh 29.11 in985.8 mb 0.08 in2.0 mm 0.00 in0.0 mm 0.87 in22.1 mm
05:54 PM 48.4°F9.1°C 41.5°F5.3°C 77% 5.4 mph WSW8.7 kmh WSW 12.1 mph19.5 kmh 29.11 in985.8 mb 0.08 in2.0 mm 0.00 in0.0 mm 0.87 in22.1 mm
05:55 PM 48.4°F9.1°C 41.5°F5.3°C 77% 5.4 mph WSW8.7 kmh WSW 12.1 mph19.5 kmh 29.11 in985.8 mb 0.08 in2.0 mm 0.00 in0.0 mm 0.87 in22.1 mm
05:56 PM 48.6°F9.2°C 41.7°F5.4°C 77% 8.3 mph W13.4 kmh W 12.1 mph19.5 kmh 29.11 in985.8 mb 0.11 in2.8 mm 1.80 in45.7 mm 0.90 in22.9 mm
05:57 PM 48.6°F9.2°C 41.3°F5.2°C 76% 6.0 mph NW9.7 kmh NW 12.1 mph19.5 kmh 29.11 in985.8 mb 0.11 in2.8 mm 0.00 in0.0 mm 0.90 in22.9 mm
05:58 PM 48.6°F9.2°C 41.3°F5.2°C 76% 6.0 mph NW9.7 kmh NW 11.4 mph18.3 kmh 29.11 in985.8 mb 0.11 in2.8 mm 0.00 in0.0 mm 0.90 in22.9 mm
05:59 PM 48.7°F9.3°C 41.5°F5.3°C 76% 6.0 mph WNW9.7 kmh WNW 11.4 mph18.3 kmh 29.11 in985.8 mb 0.11 in2.8 mm 0.00 in0.0 mm 0.90 in22.9 mm
06:00 PM 48.7°F9.3°C 41.5°F5.3°C 76% 9.2 mph WNW14.8 kmh WNW 11.4 mph18.3 kmh 29.11 in985.8 mb 0.11 in2.8 mm 0.00 in0.0 mm 0.90 in22.9 mm
06:01 PM 48.9°F9.4°C 41.7°F5.4°C 76% 6.0 mph WNW9.7 kmh WNW 11.4 mph18.3 kmh 29.11 in985.8 mb 0.11 in2.8 mm 0.00 in0.0 mm 0.90 in22.9 mm
06:02 PM 48.9°F9.4°C 41.7°F5.4°C 76% 6.0 mph WNW9.7 kmh WNW 11.4 mph18.3 kmh 29.11 in985.8 mb 0.11 in2.8 mm 0.00 in0.0 mm 0.90 in22.9 mm
06:03 PM 48.9°F9.4°C 41.7°F5.4°C 76% 6.0 mph E9.7 kmh E 11.4 mph18.3 kmh 29.11 in985.8 mb 0.11 in2.8 mm 0.00 in0.0 mm 0.90 in22.9 mm
06:04 PM 48.9°F9.4°C 41.7°F5.4°C 76% 6.0 mph E9.7 kmh E 11.4 mph18.3 kmh 29.11 in985.8 mb 0.11 in2.8 mm 0.00 in0.0 mm 0.90 in22.9 mm
06:05 PM 48.9°F9.4°C 41.7°F5.4°C 76% 6.0 mph E9.7 kmh E 11.4 mph18.3 kmh 29.11 in985.8 mb 0.11 in2.8 mm 0.00 in0.0 mm 0.90 in22.9 mm
06:06 PM 48.9°F9.4°C 41.7°F5.4°C 76% 6.0 mph E9.7 kmh E 11.4 mph18.3 kmh 29.12 in986.1 mb 0.11 in2.8 mm 0.00 in0.0 mm 0.90 in22.9 mm
06:07 PM 48.9°F9.4°C 41.3°F5.2°C 75% 8.3 mph E13.4 kmh E 12.1 mph19.5 kmh 29.11 in985.8 mb 0.11 in2.8 mm 0.00 in0.0 mm 0.90 in22.9 mm
06:08 PM 48.7°F9.3°C 41.2°F5.1°C 75% 6.0 mph E9.7 kmh E 12.1 mph19.5 kmh 29.11 in985.8 mb 0.11 in2.8 mm 0.00 in0.0 mm 0.90 in22.9 mm
06:09 PM 48.7°F9.3°C 40.8°F4.9°C 74% 11.4 mph E18.3 kmh E 13.0 mph20.9 kmh 29.12 in986.1 mb 0.11 in2.8 mm 0.00 in0.0 mm 0.90 in22.9 mm
06:10 PM 48.7°F9.3°C 40.8°F4.9°C 74% 8.3 mph E13.4 kmh E 13.0 mph20.9 kmh 29.12 in986.1 mb 0.11 in2.8 mm 0.00 in0.0 mm 0.90 in22.9 mm
06:11 PM 48.6°F9.2°C 40.6°F4.8°C 74% 9.2 mph ESE14.8 kmh ESE 13.0 mph20.9 kmh 29.12 in986.1 mb 0.09 in2.3 mm 0.00 in0.0 mm 0.90 in22.9 mm
06:12 PM 48.6°F9.2°C 40.6°F4.8°C 74% 7.6 mph SW12.2 kmh SW 13.0 mph20.9 kmh 29.12 in986.1 mb 0.08 in2.0 mm 0.00 in0.0 mm 0.90 in22.9 mm
06:13 PM 48.6°F9.2°C 40.6°F4.8°C 74% 6.9 mph SW11.1 kmh SW 13.6 mph21.9 kmh 29.12 in986.1 mb 0.08 in2.0 mm 0.00 in0.0 mm 0.90 in22.9 mm
06:14 PM 48.6°F9.2°C 40.6°F4.8°C 74% 6.9 mph SW11.1 kmh SW 13.6 mph21.9 kmh 29.12 in986.1 mb 0.07 in1.8 mm 0.00 in0.0 mm 0.90 in22.9 mm
06:15 PM 48.6°F9.2°C 40.6°F4.8°C 74% 8.3 mph WSW13.4 kmh WSW 13.6 mph21.9 kmh 29.12 in986.1 mb 0.07 in1.8 mm 0.00 in0.0 mm 0.90 in22.9 mm
06:16 PM 48.6°F9.2°C 40.6°F4.8°C 74% 7.6 mph WSW12.2 kmh WSW 13.6 mph21.9 kmh 29.12 in986.1 mb 0.07 in1.8 mm 0.00 in0.0 mm 0.90 in22.9 mm
06:17 PM 48.6°F9.2°C 40.6°F4.8°C 74% 7.6 mph SW12.2 kmh SW 13.6 mph21.9 kmh 29.12 in986.1 mb 0.07 in1.8 mm 0.00 in0.0 mm 0.90 in22.9 mm
06:18 PM 48.6°F9.2°C 40.6°F4.8°C 74% 7.6 mph SW12.2 kmh SW 13.6 mph21.9 kmh 29.12 in986.1 mb 0.07 in1.8 mm 0.00 in0.0 mm 0.90 in22.9 mm
06:19 PM 48.7°F9.3°C 40.8°F4.9°C 74% 9.8 mph SW15.8 kmh SW 13.6 mph21.9 kmh 29.12 in986.1 mb 0.06 in1.5 mm 0.00 in0.0 mm 0.90 in22.9 mm
06:20 PM 48.7°F9.3°C 40.8°F4.9°C 74% 6.9 mph SW11.1 kmh SW 13.6 mph21.9 kmh 29.12 in986.1 mb 0.06 in1.5 mm 0.00 in0.0 mm 0.90 in22.9 mm
06:21 PM 48.9°F9.4°C 41.0°F5.0°C 74% 6.0 mph SW9.7 kmh SW 13.6 mph21.9 kmh 29.12 in986.1 mb 0.06 in1.5 mm 0.00 in0.0 mm 0.90 in22.9 mm
06:22 PM 48.9°F9.4°C 41.0°F5.0°C 74% 7.6 mph SW12.2 kmh SW 13.6 mph21.9 kmh 29.13 in986.5 mb 0.06 in1.5 mm 0.00 in0.0 mm 0.90 in22.9 mm
06:23 PM 48.9°F9.4°C 41.0°F5.0°C 74% 6.9 mph SW11.1 kmh SW 13.6 mph21.9 kmh 29.13 in986.5 mb 0.06 in1.5 mm 0.00 in0.0 mm 0.90 in22.9 mm
06:24 PM 48.7°F9.3°C 40.8°F4.9°C 74% 6.9 mph SW11.1 kmh SW 13.6 mph21.9 kmh 29.13 in986.5 mb 0.06 in1.5 mm 0.00 in0.0 mm 0.90 in22.9 mm
06:25 PM 48.7°F9.3°C 40.8°F4.9°C 74% 7.6 mph SSW12.2 kmh SSW 13.6 mph21.9 kmh 29.13 in986.5 mb 0.05 in1.3 mm 0.00 in0.0 mm 0.90 in22.9 mm
06:26 PM 48.7°F9.3°C 40.8°F4.9°C 74% 7.6 mph SSW12.2 kmh SSW 13.6 mph21.9 kmh 29.12 in986.1 mb 0.05 in1.3 mm 0.00 in0.0 mm 0.90 in22.9 mm
06:27 PM 48.6°F9.2°C 40.6°F4.8°C 74% 8.3 mph SSW13.4 kmh SSW 13.6 mph21.9 kmh 29.12 in986.1 mb 0.05 in1.3 mm 0.00 in0.0 mm 0.90 in22.9 mm
06:28 PM 48.6°F9.2°C 40.6°F4.8°C 74% 9.8 mph S15.8 kmh S 14.5 mph23.3 kmh 29.12 in986.1 mb 0.05 in1.3 mm 0.00 in0.0 mm 0.90 in22.9 mm
06:29 PM 48.6°F9.2°C 40.6°F4.8°C 74% 8.3 mph SSW13.4 kmh SSW 14.5 mph23.3 kmh 29.13 in986.5 mb 0.05 in1.3 mm 0.00 in0.0 mm 0.90 in22.9 mm
06:30 PM 48.4°F9.1°C 40.5°F4.7°C 74% 8.3 mph S13.4 kmh S 14.5 mph23.3 kmh 29.12 in986.1 mb 0.05 in1.3 mm 0.00 in0.0 mm 0.90 in22.9 mm
06:31 PM 48.4°F9.1°C 40.5°F4.7°C 74% 4.5 mph SSE7.2 kmh SSE 14.5 mph23.3 kmh 29.12 in986.1 mb 0.04 in1.0 mm 0.00 in0.0 mm 0.90 in22.9 mm
06:32 PM 48.4°F9.1°C 40.5°F4.7°C 74% 5.4 mph SSE8.7 kmh SSE 14.5 mph23.3 kmh 29.13 in986.5 mb 0.04 in1.0 mm 0.00 in0.0 mm 0.90 in22.9 mm
06:33 PM 48.4°F9.1°C 40.5°F4.7°C 74% 8.3 mph SSE13.4 kmh SSE 14.5 mph23.3 kmh 29.13 in986.5 mb 0.04 in1.0 mm 0.00 in0.0 mm 0.90 in22.9 mm
06:34 PM 48.4°F9.1°C 40.5°F4.7°C 74% 6.0 mph S9.7 kmh S 14.5 mph23.3 kmh 29.13 in986.5 mb 0.04 in1.0 mm 0.00 in0.0 mm 0.90 in22.9 mm
06:35 PM 48.4°F9.1°C 40.5°F4.7°C 74% 6.0 mph S9.7 kmh S 14.5 mph23.3 kmh 29.13 in986.5 mb 0.02 in0.5 mm 0.00 in0.0 mm 0.90 in22.9 mm
06:36 PM 48.4°F9.1°C 40.8°F4.9°C 75% 6.9 mph S11.1 kmh S 14.5 mph23.3 kmh 29.13 in986.5 mb 0.02 in0.5 mm 0.00 in0.0 mm 0.90 in22.9 mm
06:37 PM 48.4°F9.1°C 40.5°F4.7°C 74% 7.6 mph SW12.2 kmh SW 14.5 mph23.3 kmh 29.13 in986.5 mb 0.02 in0.5 mm 0.00 in0.0 mm 0.90 in22.9 mm
06:38 PM 48.4°F9.1°C 40.5°F4.7°C 74% 6.9 mph SW11.1 kmh SW 12.1 mph19.5 kmh 29.13 in986.5 mb 0.02 in0.5 mm 0.00 in0.0 mm 0.90 in22.9 mm
06:39 PM 48.4°F9.1°C 40.5°F4.7°C 74% 5.4 mph SW8.7 kmh SW 12.1 mph19.5 kmh 29.13 in986.5 mb 0.02 in0.5 mm 0.00 in0.0 mm 0.90 in22.9 mm
06:40 PM 48.4°F9.1°C 40.5°F4.7°C 74% 5.4 mph SSW8.7 kmh SSW 12.1 mph19.5 kmh 29.13 in986.5 mb 0.02 in0.5 mm 0.00 in0.0 mm 0.90 in22.9 mm
06:41 PM 48.2°F9.0°C 40.3°F4.6°C 74% 6.9 mph SW11.1 kmh SW 12.1 mph19.5 kmh 29.13 in986.5 mb 0.02 in0.5 mm 0.00 in0.0 mm 0.90 in22.9 mm
06:42 PM 48.2°F9.0°C 40.3°F4.6°C 74% 6.9 mph WSW11.1 kmh WSW 12.1 mph19.5 kmh 29.13 in986.5 mb 0.02 in0.5 mm 0.00 in0.0 mm 0.90 in22.9 mm
06:43 PM 48.2°F9.0°C 40.3°F4.6°C 74% 6.9 mph W11.1 kmh W 12.1 mph19.5 kmh 29.13 in986.5 mb 0.02 in0.5 mm 0.00 in0.0 mm 0.90 in22.9 mm
06:44 PM 48.2°F9.0°C 40.3°F4.6°C 74% 5.4 mph W8.7 kmh W 11.4 mph18.3 kmh 29.13 in986.5 mb 0.02 in0.5 mm 0.00 in0.0 mm 0.90 in22.9 mm
06:45 PM 48.2°F9.0°C 40.3°F4.6°C 74% 7.6 mph SE12.2 kmh SE 11.4 mph18.3 kmh 29.14 in986.8 mb 0.02 in0.5 mm 0.00 in0.0 mm 0.90 in22.9 mm
06:46 PM 48.2°F9.0°C 40.3°F4.6°C 74% 7.6 mph SSE12.2 kmh SSE 11.4 mph18.3 kmh 29.14 in986.8 mb 0.02 in0.5 mm 0.00 in0.0 mm 0.90 in22.9 mm
06:47 PM 48.2°F9.0°C 40.3°F4.6°C 74% 7.6 mph E12.2 kmh E 13.0 mph20.9 kmh 29.14 in986.8 mb 0.02 in0.5 mm 0.00 in0.0 mm 0.90 in22.9 mm
06:48 PM 48.0°F8.9°C 40.1°F4.5°C 74% 6.0 mph ESE9.7 kmh ESE 13.0 mph20.9 kmh 29.14 in986.8 mb 0.02 in0.5 mm 0.00 in0.0 mm 0.90 in22.9 mm
06:49 PM 48.0°F8.9°C 40.5°F4.7°C 75% 6.0 mph SE9.7 kmh SE 13.0 mph20.9 kmh 29.14 in986.8 mb 0.02 in0.5 mm 0.00 in0.0 mm 0.90 in22.9 mm
06:50 PM 48.0°F8.9°C 40.5°F4.7°C 75% 6.9 mph SE11.1 kmh SE 13.0 mph20.9 kmh 29.14 in986.8 mb 0.02 in0.5 mm 0.00 in0.0 mm 0.90 in22.9 mm
06:51 PM 48.0°F8.9°C 40.5°F4.7°C 75% 6.9 mph SSE11.1 kmh SSE 13.0 mph20.9 kmh 29.14 in986.8 mb 0.02 in0.5 mm 0.00 in0.0 mm 0.90 in22.9 mm
06:52 PM 48.0°F8.9°C 40.5°F4.7°C 75% 8.3 mph S13.4 kmh S 13.0 mph20.9 kmh 29.14 in986.8 mb 0.02 in0.5 mm 0.00 in0.0 mm 0.90 in22.9 mm
06:53 PM 48.0°F8.9°C 40.5°F4.7°C 75% 7.6 mph SSE12.2 kmh SSE 13.0 mph20.9 kmh 29.14 in986.8 mb 0.02 in0.5 mm 0.00 in0.0 mm 0.90 in22.9 mm
06:54 PM 48.0°F8.9°C 40.5°F4.7°C 75% 8.3 mph SE13.4 kmh SE 13.0 mph20.9 kmh 29.14 in986.8 mb 0.02 in0.5 mm 0.00 in0.0 mm 0.90 in22.9 mm
06:55 PM 47.8°F8.8°C 40.3°F4.6°C 75% 7.6 mph SE12.2 kmh SE 13.0 mph20.9 kmh 29.14 in986.8 mb 0.00 in0.0 mm 0.00 in0.0 mm 0.90 in22.9 mm
06:56 PM 47.8°F8.8°C 40.3°F4.6°C 75% 9.2 mph SE14.8 kmh SE 13.0 mph20.9 kmh 29.14 in986.8 mb 0.00 in0.0 mm 0.00 in0.0 mm 0.90 in22.9 mm
06:57 PM 47.8°F8.8°C 40.3°F4.6°C 75% 9.8 mph ESE15.8 kmh ESE 13.6 mph21.9 kmh 29.14 in986.8 mb 0.00 in0.0 mm 0.00 in0.0 mm 0.90 in22.9 mm
06:58 PM 47.8°F8.8°C 40.6°F4.8°C 76% 6.0 mph E9.7 kmh E 13.6 mph21.9 kmh 29.14 in986.8 mb 0.00 in0.0 mm 0.00 in0.0 mm 0.90 in22.9 mm
06:59 PM 47.8°F8.8°C 40.6°F4.8°C 76% 6.9 mph E11.1 kmh E 13.6 mph21.9 kmh 29.14 in986.8 mb 0.00 in0.0 mm 0.00 in0.0 mm 0.90 in22.9 mm
07:00 PM 47.8°F8.8°C 40.6°F4.8°C 76% 8.3 mph E13.4 kmh E 13.6 mph21.9 kmh 29.14 in986.8 mb 0.00 in0.0 mm 0.00 in0.0 mm 0.90 in22.9 mm
07:01 PM 47.7°F8.7°C 40.5°F4.7°C 76% 7.6 mph E12.2 kmh E 13.6 mph21.9 kmh 29.14 in986.8 mb 0.00 in0.0 mm 0.00 in0.0 mm 0.90 in22.9 mm
07:02 PM 47.7°F8.7°C 40.5°F4.7°C 76% 8.3 mph E13.4 kmh E 13.6 mph21.9 kmh 29.14 in986.8 mb 0.00 in0.0 mm 0.00 in0.0 mm 0.90 in22.9 mm
07:03 PM 47.7°F8.7°C 40.5°F4.7°C 76% 7.6 mph E12.2 kmh E 13.6 mph21.9 kmh 29.15 in987.1 mb 0.00 in0.0 mm 0.00 in0.0 mm 0.90 in22.9 mm
07:04 PM 47.7°F8.7°C 40.8°F4.9°C 77% 6.0 mph E9.7 kmh E 13.6 mph21.9 kmh 29.15 in987.1 mb 0.00 in0.0 mm 0.00 in0.0 mm 0.90 in22.9 mm
07:05 PM 47.7°F8.7°C 40.8°F4.9°C 77% 6.0 mph E9.7 kmh E 13.6 mph21.9 kmh 29.15 in987.1 mb 0.00 in0.0 mm 0.00 in0.0 mm 0.90 in22.9 mm
07:06 PM 47.7°F8.7°C 40.8°F4.9°C 77% 6.0 mph E9.7 kmh E 13.6 mph21.9 kmh 29.15 in987.1 mb 0.00 in0.0 mm 0.00 in0.0 mm 0.90 in22.9 mm
07:07 PM 47.7°F8.7°C 40.8°F4.9°C 77% 6.0 mph E9.7 kmh E 13.6 mph21.9 kmh 29.15 in987.1 mb 0.00 in0.0 mm 0.00 in0.0 mm 0.90 in22.9 mm
07:08 PM 47.5°F8.6°C 40.6°F4.8°C 77% 4.5 mph E7.2 kmh E 12.1 mph19.5 kmh 29.15 in987.1 mb 0.00 in0.0 mm 0.00 in0.0 mm 0.90 in22.9 mm
07:09 PM 47.3°F8.5°C 40.8°F4.9°C 78% 7.6 mph ESE12.2 kmh ESE 12.1 mph19.5 kmh 29.15 in987.1 mb 0.00 in0.0 mm 0.00 in0.0 mm 0.90 in22.9 mm
07:10 PM 47.3°F8.5°C 40.8°F4.9°C 78% 6.9 mph ESE11.1 kmh ESE 12.1 mph19.5 kmh 29.15 in987.1 mb 0.00 in0.0 mm 0.00 in0.0 mm 0.90 in22.9 mm
07:11 PM 47.3°F8.5°C 40.8°F4.9°C 78% 5.4 mph ESE8.7 kmh ESE 12.1 mph19.5 kmh 29.15 in987.1 mb 0.01 in0.3 mm 0.60 in15.2 mm 0.91 in23.1 mm
07:12 PM 47.1°F8.4°C 40.9°F4.9°C 79% 9.2 mph ESE14.8 kmh ESE 13.6 mph21.9 kmh 29.14 in986.8 mb 0.01 in0.3 mm 0.00 in0.0 mm 0.91 in23.1 mm
07:13 PM 47.1°F8.4°C 40.9°F4.9°C 79% 8.3 mph SE13.4 kmh SE 13.6 mph21.9 kmh 29.15 in987.1 mb 0.01 in0.3 mm 0.00 in0.0 mm 0.91 in23.1 mm
07:14 PM 47.1°F8.4°C 41.3°F5.2°C 80% 8.3 mph SE13.4 kmh SE 13.6 mph21.9 kmh 29.14 in986.8 mb 0.01 in0.3 mm 0.00 in0.0 mm 0.91 in23.1 mm
07:15 PM 46.9°F8.3°C 41.1°F5.1°C 80% 8.3 mph SE13.4 kmh SE 13.6 mph21.9 kmh 29.15 in987.1 mb 0.01 in0.3 mm 0.00 in0.0 mm 0.91 in23.1 mm
07:16 PM 46.9°F8.3°C 41.1°F5.1°C 80% 8.3 mph SSE13.4 kmh SSE 13.6 mph21.9 kmh 29.15 in987.1 mb 0.01 in0.3 mm 0.00 in0.0 mm 0.91 in23.1 mm
07:17 PM 46.9°F8.3°C 41.1°F5.1°C 80% 7.6 mph SSE12.2 kmh SSE 13.6 mph21.9 kmh 29.15 in987.1 mb 0.01 in0.3 mm 0.00 in0.0 mm 0.91 in23.1 mm
07:18 PM 46.9°F8.3°C 41.1°F5.1°C 80% 6.0 mph S9.7 kmh S 13.6 mph21.9 kmh 29.15 in987.1 mb 0.01 in0.3 mm 0.00 in0.0 mm 0.91 in23.1 mm
07:19 PM 46.9°F8.3°C 41.4°F5.2°C 81% 4.5 mph SSE7.2 kmh SSE 13.6 mph21.9 kmh 29.15 in987.1 mb 0.01 in0.3 mm 0.00 in0.0 mm 0.91 in23.1 mm
07:20 PM 46.9°F8.3°C 41.4°F5.2°C 81% 7.6 mph S12.2 kmh S 13.6 mph21.9 kmh 29.15 in987.1 mb 0.01 in0.3 mm 0.00 in0.0 mm 0.91 in23.1 mm
07:21 PM 46.9°F8.3°C 41.4°F5.2°C 81% 7.6 mph S12.2 kmh S 13.6 mph21.9 kmh 29.15 in987.1 mb 0.01 in0.3 mm 0.00 in0.0 mm 0.91 in23.1 mm
07:22 PM 46.9°F8.3°C 41.4°F5.2°C 81% 7.6 mph S12.2 kmh S 13.6 mph21.9 kmh 29.16 in987.5 mb 0.01 in0.3 mm 0.00 in0.0 mm 0.91 in23.1 mm
07:23 PM 46.9°F8.3°C 41.4°F5.2°C 81% 7.6 mph S12.2 kmh S 12.1 mph19.5 kmh 29.15 in987.1 mb 0.01 in0.3 mm 0.00 in0.0 mm 0.91 in23.1 mm
07:24 PM 46.9°F8.3°C 41.4°F5.2°C 81% 6.0 mph S9.7 kmh S 12.1 mph19.5 kmh 29.16 in987.5 mb 0.01 in0.3 mm 0.00 in0.0 mm 0.91 in23.1 mm
07:25 PM 46.9°F8.3°C 41.4°F5.2°C 81% 7.6 mph S12.2 kmh S 12.1 mph19.5 kmh 29.15 in987.1 mb 0.01 in0.3 mm 0.00 in0.0 mm 0.91 in23.1 mm
07:26 PM 46.9°F8.3°C 41.4°F5.2°C 81% 6.9 mph S11.1 kmh S 12.1 mph19.5 kmh 29.16 in987.5 mb 0.01 in0.3 mm 0.00 in0.0 mm 0.91 in23.1 mm
07:27 PM 46.9°F8.3°C 41.4°F5.2°C 81% 6.9 mph S11.1 kmh S 12.1 mph19.5 kmh 29.15 in987.1 mb 0.01 in0.3 mm 0.00 in0.0 mm 0.91 in23.1 mm
07:28 PM 46.9°F8.3°C 41.4°F5.2°C 81% 6.0 mph S9.7 kmh S 11.4 mph18.3 kmh 29.16 in987.5 mb 0.01 in0.3 mm 0.00 in0.0 mm 0.91 in23.1 mm
07:29 PM 47.1°F8.4°C 41.6°F5.3°C 81% 8.3 mph S13.4 kmh S 11.4 mph18.3 kmh 29.16 in987.5 mb 0.01 in0.3 mm 0.00 in0.0 mm 0.91 in23.1 mm
07:30 PM 47.1°F8.4°C 41.6°F5.3°C 81% 5.4 mph SSE8.7 kmh SSE 11.4 mph18.3 kmh 29.15 in987.1 mb 0.01 in0.3 mm 0.00 in0.0 mm 0.91 in23.1 mm
07:31 PM 47.1°F8.4°C 41.6°F5.3°C 81% 6.0 mph S9.7 kmh S 11.4 mph18.3 kmh 29.15 in987.1 mb 0.01 in0.3 mm 0.00 in0.0 mm 0.91 in23.1 mm
07:32 PM 47.1°F8.4°C 41.6°F5.3°C 81% 6.0 mph S9.7 kmh S 11.4 mph18.3 kmh 29.15 in987.1 mb 0.01 in0.3 mm 0.00 in0.0 mm 0.91 in23.1 mm
07:33 PM 47.1°F8.4°C 41.6°F5.3°C 81% 6.0 mph SSE9.7 kmh SSE 11.4 mph18.3 kmh 29.16 in987.5 mb 0.01 in0.3 mm 0.00 in0.0 mm